<?xml version="1.0" encoding="UTF-8"?>
<gpx xmlns:xsi="http://www.w3.org/2001/XMLSchema-instance" xsi:schemaLocation="http://www.topografix.com/GPX/1/1 http://www.topografix.com/GPX/1/1/gpx.xsd" creator="StravaGPX" version="1.1" xmlns="http://www.topografix.com/GPX/1/1">
 <metadata>
  <time>2025-12-26T11:53:52Z</time>
 </metadata>
 <trk>
  <name>Tombolo</name>
  <type>walking</type>
  <trkseg>
   <trkpt lat="53.3809130" lon="-9.9539990">
    <ele>14.1</ele>
    <time>2025-12-26T11:53:52Z</time>
   </trkpt>
   <trkpt lat="53.3809330" lon="-9.9540760">
    <ele>15.2</ele>
    <time>2025-12-26T11:54:07Z</time>
   </trkpt>
   <trkpt lat="53.3809190" lon="-9.9541860">
    <ele>15.8</ele>
    <time>2025-12-26T11:54:13Z</time>
   </trkpt>
   <trkpt lat="53.3809090" lon="-9.9542620">
    <ele>12.1</ele>
    <time>2025-12-26T11:54:18Z</time>
   </trkpt>
   <trkpt lat="53.3808960" lon="-9.9543450">
    <ele>9.4</ele>
    <time>2025-12-26T11:54:23Z</time>
   </trkpt>
   <trkpt lat="53.3808580" lon="-9.9543940">
    <ele>6.6</ele>
    <time>2025-12-26T11:54:36Z</time>
   </trkpt>
   <trkpt lat="53.3808210" lon="-9.9544550">
    <ele>6.9</ele>
    <time>2025-12-26T11:54:41Z</time>
   </trkpt>
   <trkpt lat="53.3808570" lon="-9.9545100">
    <ele>7.7</ele>
    <time>2025-12-26T11:55:05Z</time>
   </trkpt>
   <trkpt lat="53.3808750" lon="-9.9544350">
    <ele>6.2</ele>
    <time>2025-12-26T11:56:58Z</time>
   </trkpt>
   <trkpt lat="53.3809190" lon="-9.9543880">
    <ele>7.2</ele>
    <time>2025-12-26T11:57:03Z</time>
   </trkpt>
   <trkpt lat="53.3809370" lon="-9.9544720">
    <ele>7.5</ele>
    <time>2025-12-26T11:57:09Z</time>
   </trkpt>
   <trkpt lat="53.3809230" lon="-9.9545460">
    <ele>7.8</ele>
    <time>2025-12-26T11:57:23Z</time>
   </trkpt>
   <trkpt lat="53.3809130" lon="-9.9546720">
    <ele>7.9</ele>
    <time>2025-12-26T11:57:28Z</time>
   </trkpt>
   <trkpt lat="53.3809190" lon="-9.9547920">
    <ele>7.6</ele>
    <time>2025-12-26T11:57:34Z</time>
   </trkpt>
   <trkpt lat="53.3809240" lon="-9.9548940">
    <ele>8.2</ele>
    <time>2025-12-26T11:57:39Z</time>
   </trkpt>
   <trkpt lat="53.3809100" lon="-9.9549870">
    <ele>8.2</ele>
    <time>2025-12-26T11:57:45Z</time>
   </trkpt>
   <trkpt lat="53.3808900" lon="-9.9550710">
    <ele>4.5</ele>
    <time>2025-12-26T11:57:50Z</time>
   </trkpt>
   <trkpt lat="53.3808610" lon="-9.9551890">
    <ele>3.8</ele>
    <time>2025-12-26T11:57:55Z</time>
   </trkpt>
   <trkpt lat="53.3808410" lon="-9.9552870">
    <ele>4.6</ele>
    <time>2025-12-26T11:58:01Z</time>
   </trkpt>
   <trkpt lat="53.3808210" lon="-9.9553820">
    <ele>5.1</ele>
    <time>2025-12-26T11:58:06Z</time>
   </trkpt>
   <trkpt lat="53.3808010" lon="-9.9554870">
    <ele>5.9</ele>
    <time>2025-12-26T11:58:12Z</time>
   </trkpt>
   <trkpt lat="53.3807710" lon="-9.9555730">
    <ele>6.2</ele>
    <time>2025-12-26T11:58:17Z</time>
   </trkpt>
   <trkpt lat="53.3807520" lon="-9.9556680">
    <ele>6.1</ele>
    <time>2025-12-26T11:58:22Z</time>
   </trkpt>
   <trkpt lat="53.3807230" lon="-9.9557750">
    <ele>6.0</ele>
    <time>2025-12-26T11:58:28Z</time>
   </trkpt>
   <trkpt lat="53.3807020" lon="-9.9558730">
    <ele>6.2</ele>
    <time>2025-12-26T11:58:33Z</time>
   </trkpt>
   <trkpt lat="53.3806670" lon="-9.9559570">
    <ele>6.9</ele>
    <time>2025-12-26T11:58:39Z</time>
   </trkpt>
   <trkpt lat="53.3806400" lon="-9.9560530">
    <ele>7.1</ele>
    <time>2025-12-26T11:58:44Z</time>
   </trkpt>
   <trkpt lat="53.3806110" lon="-9.9561490">
    <ele>7.5</ele>
    <time>2025-12-26T11:58:50Z</time>
   </trkpt>
   <trkpt lat="53.3805820" lon="-9.9562130">
    <ele>7.8</ele>
    <time>2025-12-26T11:58:55Z</time>
   </trkpt>
   <trkpt lat="53.3805310" lon="-9.9561980">
    <ele>8.3</ele>
    <time>2025-12-26T11:59:33Z</time>
   </trkpt>
   <trkpt lat="53.3804800" lon="-9.9562760">
    <ele>8.8</ele>
    <time>2025-12-26T11:59:38Z</time>
   </trkpt>
   <trkpt lat="53.3804530" lon="-9.9563420">
    <ele>8.5</ele>
    <time>2025-12-26T11:59:43Z</time>
   </trkpt>
   <trkpt lat="53.3804270" lon="-9.9564060">
    <ele>7.7</ele>
    <time>2025-12-26T11:59:49Z</time>
   </trkpt>
   <trkpt lat="53.3803930" lon="-9.9564640">
    <ele>5.2</ele>
    <time>2025-12-26T11:59:55Z</time>
   </trkpt>
   <trkpt lat="53.3803760" lon="-9.9565500">
    <ele>3.9</ele>
    <time>2025-12-26T12:00:00Z</time>
   </trkpt>
   <trkpt lat="53.3803460" lon="-9.9566210">
    <ele>7.5</ele>
    <time>2025-12-26T12:00:16Z</time>
   </trkpt>
   <trkpt lat="53.3803070" lon="-9.9567400">
    <ele>7.9</ele>
    <time>2025-12-26T12:00:21Z</time>
   </trkpt>
   <trkpt lat="53.3802850" lon="-9.9568160">
    <ele>8.4</ele>
    <time>2025-12-26T12:00:46Z</time>
   </trkpt>
   <trkpt lat="53.3802530" lon="-9.9569000">
    <ele>9.9</ele>
    <time>2025-12-26T12:00:51Z</time>
   </trkpt>
   <trkpt lat="53.3802210" lon="-9.9569520">
    <ele>10.8</ele>
    <time>2025-12-26T12:00:57Z</time>
   </trkpt>
   <trkpt lat="53.3801850" lon="-9.9570110">
    <ele>11.8</ele>
    <time>2025-12-26T12:01:04Z</time>
   </trkpt>
   <trkpt lat="53.3801440" lon="-9.9570720">
    <ele>12.4</ele>
    <time>2025-12-26T12:01:10Z</time>
   </trkpt>
   <trkpt lat="53.3800960" lon="-9.9570840">
    <ele>12.8</ele>
    <time>2025-12-26T12:01:15Z</time>
   </trkpt>
   <trkpt lat="53.3800450" lon="-9.9570930">
    <ele>13.6</ele>
    <time>2025-12-26T12:01:20Z</time>
   </trkpt>
   <trkpt lat="53.3800020" lon="-9.9571170">
    <ele>13.7</ele>
    <time>2025-12-26T12:01:27Z</time>
   </trkpt>
   <trkpt lat="53.3799490" lon="-9.9571170">
    <ele>14.2</ele>
    <time>2025-12-26T12:02:02Z</time>
   </trkpt>
   <trkpt lat="53.3799030" lon="-9.9571270">
    <ele>13.6</ele>
    <time>2025-12-26T12:02:09Z</time>
   </trkpt>
   <trkpt lat="53.3798650" lon="-9.9571670">
    <ele>11.0</ele>
    <time>2025-12-26T12:02:58Z</time>
   </trkpt>
   <trkpt lat="53.3797740" lon="-9.9571960">
    <ele>11.4</ele>
    <time>2025-12-26T12:03:03Z</time>
   </trkpt>
   <trkpt lat="53.3797350" lon="-9.9573330">
    <ele>12.8</ele>
    <time>2025-12-26T12:03:08Z</time>
   </trkpt>
   <trkpt lat="53.3797010" lon="-9.9573860">
    <ele>13.6</ele>
    <time>2025-12-26T12:03:13Z</time>
   </trkpt>
   <trkpt lat="53.3796800" lon="-9.9574890">
    <ele>13.6</ele>
    <time>2025-12-26T12:03:19Z</time>
   </trkpt>
   <trkpt lat="53.3796500" lon="-9.9575490">
    <ele>14.2</ele>
    <time>2025-12-26T12:03:27Z</time>
   </trkpt>
   <trkpt lat="53.3795900" lon="-9.9576420">
    <ele>13.8</ele>
    <time>2025-12-26T12:03:33Z</time>
   </trkpt>
   <trkpt lat="53.3795440" lon="-9.9577070">
    <ele>12.6</ele>
    <time>2025-12-26T12:03:38Z</time>
   </trkpt>
   <trkpt lat="53.3794930" lon="-9.9577650">
    <ele>12.6</ele>
    <time>2025-12-26T12:03:44Z</time>
   </trkpt>
   <trkpt lat="53.3794560" lon="-9.9578180">
    <ele>9.7</ele>
    <time>2025-12-26T12:04:07Z</time>
   </trkpt>
   <trkpt lat="53.3794050" lon="-9.9579220">
    <ele>11.2</ele>
    <time>2025-12-26T12:04:12Z</time>
   </trkpt>
   <trkpt lat="53.3793730" lon="-9.9579920">
    <ele>11.6</ele>
    <time>2025-12-26T12:04:18Z</time>
   </trkpt>
   <trkpt lat="53.3793460" lon="-9.9580580">
    <ele>11.0</ele>
    <time>2025-12-26T12:04:23Z</time>
   </trkpt>
   <trkpt lat="53.3793180" lon="-9.9581240">
    <ele>10.6</ele>
    <time>2025-12-26T12:04:30Z</time>
   </trkpt>
   <trkpt lat="53.3792710" lon="-9.9581720">
    <ele>10.3</ele>
    <time>2025-12-26T12:04:35Z</time>
   </trkpt>
   <trkpt lat="53.3792450" lon="-9.9582340">
    <ele>9.9</ele>
    <time>2025-12-26T12:04:40Z</time>
   </trkpt>
   <trkpt lat="53.3792510" lon="-9.9583090">
    <ele>9.4</ele>
    <time>2025-12-26T12:04:48Z</time>
   </trkpt>
   <trkpt lat="53.3792120" lon="-9.9583480">
    <ele>8.8</ele>
    <time>2025-12-26T12:04:54Z</time>
   </trkpt>
   <trkpt lat="53.3791730" lon="-9.9583980">
    <ele>8.9</ele>
    <time>2025-12-26T12:05:02Z</time>
   </trkpt>
   <trkpt lat="53.3791100" lon="-9.9584270">
    <ele>8.8</ele>
    <time>2025-12-26T12:05:07Z</time>
   </trkpt>
   <trkpt lat="53.3790620" lon="-9.9584180">
    <ele>8.6</ele>
    <time>2025-12-26T12:05:13Z</time>
   </trkpt>
   <trkpt lat="53.3790100" lon="-9.9584310">
    <ele>8.2</ele>
    <time>2025-12-26T12:05:19Z</time>
   </trkpt>
   <trkpt lat="53.3789590" lon="-9.9584660">
    <ele>7.3</ele>
    <time>2025-12-26T12:05:33Z</time>
   </trkpt>
   <trkpt lat="53.3788900" lon="-9.9585320">
    <ele>7.4</ele>
    <time>2025-12-26T12:05:38Z</time>
   </trkpt>
   <trkpt lat="53.3788280" lon="-9.9585500">
    <ele>6.9</ele>
    <time>2025-12-26T12:05:43Z</time>
   </trkpt>
   <trkpt lat="53.3787700" lon="-9.9585690">
    <ele>6.6</ele>
    <time>2025-12-26T12:05:49Z</time>
   </trkpt>
   <trkpt lat="53.3787200" lon="-9.9585830">
    <ele>5.7</ele>
    <time>2025-12-26T12:06:06Z</time>
   </trkpt>
   <trkpt lat="53.3786670" lon="-9.9586310">
    <ele>5.9</ele>
    <time>2025-12-26T12:06:11Z</time>
   </trkpt>
   <trkpt lat="53.3786150" lon="-9.9586790">
    <ele>5.5</ele>
    <time>2025-12-26T12:06:17Z</time>
   </trkpt>
   <trkpt lat="53.3785680" lon="-9.9587290">
    <ele>5.7</ele>
    <time>2025-12-26T12:06:22Z</time>
   </trkpt>
   <trkpt lat="53.3785130" lon="-9.9587710">
    <ele>5.7</ele>
    <time>2025-12-26T12:06:28Z</time>
   </trkpt>
   <trkpt lat="53.3784670" lon="-9.9588230">
    <ele>5.8</ele>
    <time>2025-12-26T12:06:33Z</time>
   </trkpt>
   <trkpt lat="53.3784090" lon="-9.9588670">
    <ele>5.5</ele>
    <time>2025-12-26T12:06:38Z</time>
   </trkpt>
   <trkpt lat="53.3783560" lon="-9.9589310">
    <ele>4.9</ele>
    <time>2025-12-26T12:06:44Z</time>
   </trkpt>
   <trkpt lat="53.3783090" lon="-9.9589830">
    <ele>4.8</ele>
    <time>2025-12-26T12:06:49Z</time>
   </trkpt>
   <trkpt lat="53.3782550" lon="-9.9590300">
    <ele>5.5</ele>
    <time>2025-12-26T12:06:54Z</time>
   </trkpt>
   <trkpt lat="53.3782020" lon="-9.9590850">
    <ele>5.7</ele>
    <time>2025-12-26T12:07:00Z</time>
   </trkpt>
   <trkpt lat="53.3781430" lon="-9.9591310">
    <ele>5.6</ele>
    <time>2025-12-26T12:07:05Z</time>
   </trkpt>
   <trkpt lat="53.3780910" lon="-9.9591780">
    <ele>5.0</ele>
    <time>2025-12-26T12:07:11Z</time>
   </trkpt>
   <trkpt lat="53.3780460" lon="-9.9592290">
    <ele>3.9</ele>
    <time>2025-12-26T12:07:16Z</time>
   </trkpt>
   <trkpt lat="53.3779940" lon="-9.9592900">
    <ele>3.6</ele>
    <time>2025-12-26T12:07:21Z</time>
   </trkpt>
   <trkpt lat="53.3779420" lon="-9.9593510">
    <ele>4.7</ele>
    <time>2025-12-26T12:07:27Z</time>
   </trkpt>
   <trkpt lat="53.3778850" lon="-9.9593970">
    <ele>5.4</ele>
    <time>2025-12-26T12:07:32Z</time>
   </trkpt>
   <trkpt lat="53.3778340" lon="-9.9594520">
    <ele>5.0</ele>
    <time>2025-12-26T12:07:38Z</time>
   </trkpt>
   <trkpt lat="53.3777710" lon="-9.9594940">
    <ele>4.6</ele>
    <time>2025-12-26T12:07:43Z</time>
   </trkpt>
   <trkpt lat="53.3777280" lon="-9.9595510">
    <ele>4.3</ele>
    <time>2025-12-26T12:07:48Z</time>
   </trkpt>
   <trkpt lat="53.3776710" lon="-9.9596090">
    <ele>3.5</ele>
    <time>2025-12-26T12:07:54Z</time>
   </trkpt>
   <trkpt lat="53.3776130" lon="-9.9596650">
    <ele>3.2</ele>
    <time>2025-12-26T12:07:59Z</time>
   </trkpt>
   <trkpt lat="53.3775610" lon="-9.9597130">
    <ele>4.2</ele>
    <time>2025-12-26T12:08:05Z</time>
   </trkpt>
   <trkpt lat="53.3775060" lon="-9.9597650">
    <ele>5.1</ele>
    <time>2025-12-26T12:08:10Z</time>
   </trkpt>
   <trkpt lat="53.3774570" lon="-9.9598200">
    <ele>4.4</ele>
    <time>2025-12-26T12:08:16Z</time>
   </trkpt>
   <trkpt lat="53.3774000" lon="-9.9598660">
    <ele>3.5</ele>
    <time>2025-12-26T12:08:21Z</time>
   </trkpt>
   <trkpt lat="53.3773480" lon="-9.9599110">
    <ele>3.2</ele>
    <time>2025-12-26T12:08:27Z</time>
   </trkpt>
   <trkpt lat="53.3772870" lon="-9.9599620">
    <ele>3.0</ele>
    <time>2025-12-26T12:08:32Z</time>
   </trkpt>
   <trkpt lat="53.3772420" lon="-9.9600150">
    <ele>3.1</ele>
    <time>2025-12-26T12:08:38Z</time>
   </trkpt>
   <trkpt lat="53.3771900" lon="-9.9600790">
    <ele>3.3</ele>
    <time>2025-12-26T12:08:43Z</time>
   </trkpt>
   <trkpt lat="53.3771350" lon="-9.9601220">
    <ele>2.7</ele>
    <time>2025-12-26T12:08:48Z</time>
   </trkpt>
   <trkpt lat="53.3770910" lon="-9.9601960">
    <ele>2.9</ele>
    <time>2025-12-26T12:08:54Z</time>
   </trkpt>
   <trkpt lat="53.3770320" lon="-9.9602470">
    <ele>3.3</ele>
    <time>2025-12-26T12:08:59Z</time>
   </trkpt>
   <trkpt lat="53.3769770" lon="-9.9603040">
    <ele>3.3</ele>
    <time>2025-12-26T12:09:05Z</time>
   </trkpt>
   <trkpt lat="53.3769250" lon="-9.9603430">
    <ele>3.3</ele>
    <time>2025-12-26T12:09:10Z</time>
   </trkpt>
   <trkpt lat="53.3768710" lon="-9.9603980">
    <ele>3.0</ele>
    <time>2025-12-26T12:09:16Z</time>
   </trkpt>
   <trkpt lat="53.3768120" lon="-9.9604430">
    <ele>2.9</ele>
    <time>2025-12-26T12:09:21Z</time>
   </trkpt>
   <trkpt lat="53.3767640" lon="-9.9604930">
    <ele>3.0</ele>
    <time>2025-12-26T12:09:27Z</time>
   </trkpt>
   <trkpt lat="53.3767150" lon="-9.9605390">
    <ele>3.2</ele>
    <time>2025-12-26T12:09:32Z</time>
   </trkpt>
   <trkpt lat="53.3766600" lon="-9.9605800">
    <ele>3.1</ele>
    <time>2025-12-26T12:09:38Z</time>
   </trkpt>
   <trkpt lat="53.3766100" lon="-9.9606290">
    <ele>2.9</ele>
    <time>2025-12-26T12:09:43Z</time>
   </trkpt>
   <trkpt lat="53.3765490" lon="-9.9606810">
    <ele>2.3</ele>
    <time>2025-12-26T12:09:48Z</time>
   </trkpt>
   <trkpt lat="53.3764920" lon="-9.9607330">
    <ele>2.3</ele>
    <time>2025-12-26T12:09:54Z</time>
   </trkpt>
   <trkpt lat="53.3764400" lon="-9.9607770">
    <ele>2.5</ele>
    <time>2025-12-26T12:10:00Z</time>
   </trkpt>
   <trkpt lat="53.3763820" lon="-9.9608210">
    <ele>2.7</ele>
    <time>2025-12-26T12:10:05Z</time>
   </trkpt>
   <trkpt lat="53.3763290" lon="-9.9608650">
    <ele>2.9</ele>
    <time>2025-12-26T12:10:11Z</time>
   </trkpt>
   <trkpt lat="53.3762780" lon="-9.9609110">
    <ele>2.8</ele>
    <time>2025-12-26T12:10:16Z</time>
   </trkpt>
   <trkpt lat="53.3762320" lon="-9.9609200">
    <ele>2.4</ele>
    <time>2025-12-26T12:10:21Z</time>
   </trkpt>
   <trkpt lat="53.3761980" lon="-9.9609760">
    <ele>-10.0</ele>
    <time>2025-12-26T12:11:16Z</time>
   </trkpt>
   <trkpt lat="53.3761260" lon="-9.9610490">
    <ele>-8.6</ele>
    <time>2025-12-26T12:11:22Z</time>
   </trkpt>
   <trkpt lat="53.3760640" lon="-9.9610840">
    <ele>-1.9</ele>
    <time>2025-12-26T12:11:27Z</time>
   </trkpt>
   <trkpt lat="53.3759960" lon="-9.9611210">
    <ele>1.0</ele>
    <time>2025-12-26T12:11:33Z</time>
   </trkpt>
   <trkpt lat="53.3759470" lon="-9.9611570">
    <ele>2.1</ele>
    <time>2025-12-26T12:11:38Z</time>
   </trkpt>
   <trkpt lat="53.3758910" lon="-9.9611980">
    <ele>2.8</ele>
    <time>2025-12-26T12:11:43Z</time>
   </trkpt>
   <trkpt lat="53.3758320" lon="-9.9612520">
    <ele>3.4</ele>
    <time>2025-12-26T12:11:49Z</time>
   </trkpt>
   <trkpt lat="53.3757770" lon="-9.9612910">
    <ele>3.3</ele>
    <time>2025-12-26T12:11:55Z</time>
   </trkpt>
   <trkpt lat="53.3757180" lon="-9.9613280">
    <ele>3.1</ele>
    <time>2025-12-26T12:12:00Z</time>
   </trkpt>
   <trkpt lat="53.3756640" lon="-9.9613590">
    <ele>2.9</ele>
    <time>2025-12-26T12:12:05Z</time>
   </trkpt>
   <trkpt lat="53.3756020" lon="-9.9613920">
    <ele>2.9</ele>
    <time>2025-12-26T12:12:11Z</time>
   </trkpt>
   <trkpt lat="53.3755530" lon="-9.9614290">
    <ele>2.7</ele>
    <time>2025-12-26T12:12:16Z</time>
   </trkpt>
   <trkpt lat="53.3754890" lon="-9.9614570">
    <ele>2.6</ele>
    <time>2025-12-26T12:12:22Z</time>
   </trkpt>
   <trkpt lat="53.3754360" lon="-9.9614950">
    <ele>2.7</ele>
    <time>2025-12-26T12:12:27Z</time>
   </trkpt>
   <trkpt lat="53.3753800" lon="-9.9615470">
    <ele>2.5</ele>
    <time>2025-12-26T12:12:33Z</time>
   </trkpt>
   <trkpt lat="53.3753210" lon="-9.9615510">
    <ele>2.7</ele>
    <time>2025-12-26T12:12:38Z</time>
   </trkpt>
   <trkpt lat="53.3752690" lon="-9.9616130">
    <ele>3.1</ele>
    <time>2025-12-26T12:12:44Z</time>
   </trkpt>
   <trkpt lat="53.3752050" lon="-9.9616400">
    <ele>3.1</ele>
    <time>2025-12-26T12:12:49Z</time>
   </trkpt>
   <trkpt lat="53.3751450" lon="-9.9616600">
    <ele>3.0</ele>
    <time>2025-12-26T12:12:54Z</time>
   </trkpt>
   <trkpt lat="53.3750880" lon="-9.9616980">
    <ele>2.9</ele>
    <time>2025-12-26T12:13:00Z</time>
   </trkpt>
   <trkpt lat="53.3750300" lon="-9.9617220">
    <ele>2.7</ele>
    <time>2025-12-26T12:13:05Z</time>
   </trkpt>
   <trkpt lat="53.3749740" lon="-9.9617460">
    <ele>2.8</ele>
    <time>2025-12-26T12:13:11Z</time>
   </trkpt>
   <trkpt lat="53.3749180" lon="-9.9617920">
    <ele>3.0</ele>
    <time>2025-12-26T12:13:16Z</time>
   </trkpt>
   <trkpt lat="53.3748570" lon="-9.9618240">
    <ele>3.0</ele>
    <time>2025-12-26T12:13:22Z</time>
   </trkpt>
   <trkpt lat="53.3747990" lon="-9.9618640">
    <ele>3.1</ele>
    <time>2025-12-26T12:13:27Z</time>
   </trkpt>
   <trkpt lat="53.3747430" lon="-9.9618840">
    <ele>3.2</ele>
    <time>2025-12-26T12:13:33Z</time>
   </trkpt>
   <trkpt lat="53.3746730" lon="-9.9618960">
    <ele>3.3</ele>
    <time>2025-12-26T12:13:38Z</time>
   </trkpt>
   <trkpt lat="53.3746110" lon="-9.9619180">
    <ele>3.2</ele>
    <time>2025-12-26T12:13:44Z</time>
   </trkpt>
   <trkpt lat="53.3745620" lon="-9.9619270">
    <ele>3.0</ele>
    <time>2025-12-26T12:13:49Z</time>
   </trkpt>
   <trkpt lat="53.3745220" lon="-9.9619650">
    <ele>3.7</ele>
    <time>2025-12-26T12:14:42Z</time>
   </trkpt>
   <trkpt lat="53.3744390" lon="-9.9619760">
    <ele>3.3</ele>
    <time>2025-12-26T12:14:48Z</time>
   </trkpt>
   <trkpt lat="53.3743780" lon="-9.9619880">
    <ele>3.0</ele>
    <time>2025-12-26T12:14:53Z</time>
   </trkpt>
   <trkpt lat="53.3743140" lon="-9.9620130">
    <ele>2.8</ele>
    <time>2025-12-26T12:14:59Z</time>
   </trkpt>
   <trkpt lat="53.3742530" lon="-9.9620240">
    <ele>2.4</ele>
    <time>2025-12-26T12:15:04Z</time>
   </trkpt>
   <trkpt lat="53.3741910" lon="-9.9620350">
    <ele>2.3</ele>
    <time>2025-12-26T12:15:09Z</time>
   </trkpt>
   <trkpt lat="53.3741280" lon="-9.9620560">
    <ele>2.1</ele>
    <time>2025-12-26T12:15:15Z</time>
   </trkpt>
   <trkpt lat="53.3740630" lon="-9.9620640">
    <ele>2.2</ele>
    <time>2025-12-26T12:15:20Z</time>
   </trkpt>
   <trkpt lat="53.3740010" lon="-9.9620820">
    <ele>2.7</ele>
    <time>2025-12-26T12:15:25Z</time>
   </trkpt>
   <trkpt lat="53.3739420" lon="-9.9621060">
    <ele>2.9</ele>
    <time>2025-12-26T12:15:31Z</time>
   </trkpt>
   <trkpt lat="53.3738760" lon="-9.9621120">
    <ele>2.8</ele>
    <time>2025-12-26T12:15:36Z</time>
   </trkpt>
   <trkpt lat="53.3738120" lon="-9.9621150">
    <ele>2.6</ele>
    <time>2025-12-26T12:15:42Z</time>
   </trkpt>
   <trkpt lat="53.3737570" lon="-9.9621500">
    <ele>2.7</ele>
    <time>2025-12-26T12:15:47Z</time>
   </trkpt>
   <trkpt lat="53.3737020" lon="-9.9621720">
    <ele>3.2</ele>
    <time>2025-12-26T12:15:52Z</time>
   </trkpt>
   <trkpt lat="53.3736590" lon="-9.9622160">
    <ele>3.4</ele>
    <time>2025-12-26T12:15:57Z</time>
   </trkpt>
   <trkpt lat="53.3736090" lon="-9.9621840">
    <ele>3.3</ele>
    <time>2025-12-26T12:16:03Z</time>
   </trkpt>
   <trkpt lat="53.3735700" lon="-9.9621400">
    <ele>3.3</ele>
    <time>2025-12-26T12:16:20Z</time>
   </trkpt>
   <trkpt lat="53.3735020" lon="-9.9620840">
    <ele>3.2</ele>
    <time>2025-12-26T12:16:25Z</time>
   </trkpt>
   <trkpt lat="53.3734700" lon="-9.9620300">
    <ele>2.9</ele>
    <time>2025-12-26T12:16:31Z</time>
   </trkpt>
   <trkpt lat="53.3734600" lon="-9.9619540">
    <ele>3.3</ele>
    <time>2025-12-26T12:16:41Z</time>
   </trkpt>
   <trkpt lat="53.3733990" lon="-9.9619200">
    <ele>3.3</ele>
    <time>2025-12-26T12:16:46Z</time>
   </trkpt>
   <trkpt lat="53.3733430" lon="-9.9618960">
    <ele>3.0</ele>
    <time>2025-12-26T12:16:51Z</time>
   </trkpt>
   <trkpt lat="53.3732850" lon="-9.9618630">
    <ele>2.7</ele>
    <time>2025-12-26T12:16:57Z</time>
   </trkpt>
   <trkpt lat="53.3732400" lon="-9.9618330">
    <ele>2.5</ele>
    <time>2025-12-26T12:17:02Z</time>
   </trkpt>
   <trkpt lat="53.3731820" lon="-9.9618010">
    <ele>2.6</ele>
    <time>2025-12-26T12:17:07Z</time>
   </trkpt>
   <trkpt lat="53.3731260" lon="-9.9617650">
    <ele>2.6</ele>
    <time>2025-12-26T12:17:12Z</time>
   </trkpt>
   <trkpt lat="53.3731050" lon="-9.9616940">
    <ele>2.4</ele>
    <time>2025-12-26T12:17:20Z</time>
   </trkpt>
   <trkpt lat="53.3730460" lon="-9.9616590">
    <ele>2.4</ele>
    <time>2025-12-26T12:17:25Z</time>
   </trkpt>
   <trkpt lat="53.3729910" lon="-9.9616000">
    <ele>2.5</ele>
    <time>2025-12-26T12:17:31Z</time>
   </trkpt>
   <trkpt lat="53.3729590" lon="-9.9615460">
    <ele>2.7</ele>
    <time>2025-12-26T12:17:36Z</time>
   </trkpt>
   <trkpt lat="53.3729080" lon="-9.9615030">
    <ele>2.6</ele>
    <time>2025-12-26T12:17:41Z</time>
   </trkpt>
   <trkpt lat="53.3728450" lon="-9.9614740">
    <ele>2.5</ele>
    <time>2025-12-26T12:17:46Z</time>
   </trkpt>
   <trkpt lat="53.3727920" lon="-9.9614400">
    <ele>2.7</ele>
    <time>2025-12-26T12:17:52Z</time>
   </trkpt>
   <trkpt lat="53.3727390" lon="-9.9614110">
    <ele>2.9</ele>
    <time>2025-12-26T12:17:57Z</time>
   </trkpt>
   <trkpt lat="53.3726970" lon="-9.9613740">
    <ele>3.0</ele>
    <time>2025-12-26T12:18:02Z</time>
   </trkpt>
   <trkpt lat="53.3726560" lon="-9.9614160">
    <ele>3.4</ele>
    <time>2025-12-26T12:18:09Z</time>
   </trkpt>
   <trkpt lat="53.3726080" lon="-9.9614240">
    <ele>4.0</ele>
    <time>2025-12-26T12:18:16Z</time>
   </trkpt>
   <trkpt lat="53.3725650" lon="-9.9613780">
    <ele>4.4</ele>
    <time>2025-12-26T12:18:23Z</time>
   </trkpt>
   <trkpt lat="53.3725360" lon="-9.9613170">
    <ele>4.4</ele>
    <time>2025-12-26T12:18:28Z</time>
   </trkpt>
   <trkpt lat="53.3725080" lon="-9.9612550">
    <ele>4.5</ele>
    <time>2025-12-26T12:18:35Z</time>
   </trkpt>
   <trkpt lat="53.3725100" lon="-9.9611700">
    <ele>5.4</ele>
    <time>2025-12-26T12:18:42Z</time>
   </trkpt>
   <trkpt lat="53.3725000" lon="-9.9610960">
    <ele>6.0</ele>
    <time>2025-12-26T12:18:48Z</time>
   </trkpt>
   <trkpt lat="53.3724530" lon="-9.9611450">
    <ele>6.8</ele>
    <time>2025-12-26T12:18:59Z</time>
   </trkpt>
   <trkpt lat="53.3724810" lon="-9.9610720">
    <ele>4.2</ele>
    <time>2025-12-26T12:19:21Z</time>
   </trkpt>
   <trkpt lat="53.3724630" lon="-9.9610030">
    <ele>4.1</ele>
    <time>2025-12-26T12:20:39Z</time>
   </trkpt>
   <trkpt lat="53.3724550" lon="-9.9609210">
    <ele>4.2</ele>
    <time>2025-12-26T12:20:45Z</time>
   </trkpt>
   <trkpt lat="53.3724560" lon="-9.9608440">
    <ele>4.4</ele>
    <time>2025-12-26T12:20:52Z</time>
   </trkpt>
   <trkpt lat="53.3724500" lon="-9.9607550">
    <ele>3.5</ele>
    <time>2025-12-26T12:21:02Z</time>
   </trkpt>
   <trkpt lat="53.3724320" lon="-9.9606390">
    <ele>3.3</ele>
    <time>2025-12-26T12:21:08Z</time>
   </trkpt>
   <trkpt lat="53.3724200" lon="-9.9605580">
    <ele>3.0</ele>
    <time>2025-12-26T12:21:13Z</time>
   </trkpt>
   <trkpt lat="53.3724010" lon="-9.9604810">
    <ele>3.3</ele>
    <time>2025-12-26T12:21:18Z</time>
   </trkpt>
   <trkpt lat="53.3723950" lon="-9.9603940">
    <ele>3.6</ele>
    <time>2025-12-26T12:21:24Z</time>
   </trkpt>
   <trkpt lat="53.3723730" lon="-9.9603220">
    <ele>3.7</ele>
    <time>2025-12-26T12:21:29Z</time>
   </trkpt>
   <trkpt lat="53.3723820" lon="-9.9602350">
    <ele>4.9</ele>
    <time>2025-12-26T12:21:47Z</time>
   </trkpt>
   <trkpt lat="53.3723660" lon="-9.9601580">
    <ele>5.4</ele>
    <time>2025-12-26T12:21:54Z</time>
   </trkpt>
   <trkpt lat="53.3723910" lon="-9.9600810">
    <ele>4.8</ele>
    <time>2025-12-26T12:22:00Z</time>
   </trkpt>
   <trkpt lat="53.3723800" lon="-9.9600080">
    <ele>4.8</ele>
    <time>2025-12-26T12:22:08Z</time>
   </trkpt>
   <trkpt lat="53.3723690" lon="-9.9599280">
    <ele>5.4</ele>
    <time>2025-12-26T12:22:15Z</time>
   </trkpt>
   <trkpt lat="53.3723750" lon="-9.9598470">
    <ele>4.1</ele>
    <time>2025-12-26T12:22:40Z</time>
   </trkpt>
   <trkpt lat="53.3723850" lon="-9.9597010">
    <ele>4.5</ele>
    <time>2025-12-26T12:22:45Z</time>
   </trkpt>
   <trkpt lat="53.3723840" lon="-9.9595970">
    <ele>5.2</ele>
    <time>2025-12-26T12:22:51Z</time>
   </trkpt>
   <trkpt lat="53.3723780" lon="-9.9595010">
    <ele>6.2</ele>
    <time>2025-12-26T12:22:56Z</time>
   </trkpt>
   <trkpt lat="53.3723680" lon="-9.9594240">
    <ele>6.8</ele>
    <time>2025-12-26T12:23:02Z</time>
   </trkpt>
   <trkpt lat="53.3723310" lon="-9.9593570">
    <ele>6.8</ele>
    <time>2025-12-26T12:23:07Z</time>
   </trkpt>
   <trkpt lat="53.3722990" lon="-9.9592860">
    <ele>6.9</ele>
    <time>2025-12-26T12:23:12Z</time>
   </trkpt>
   <trkpt lat="53.3722610" lon="-9.9592420">
    <ele>6.6</ele>
    <time>2025-12-26T12:23:17Z</time>
   </trkpt>
   <trkpt lat="53.3722190" lon="-9.9591840">
    <ele>5.6</ele>
    <time>2025-12-26T12:23:22Z</time>
   </trkpt>
   <trkpt lat="53.3721910" lon="-9.9590940">
    <ele>5.3</ele>
    <time>2025-12-26T12:23:27Z</time>
   </trkpt>
   <trkpt lat="53.3722030" lon="-9.9590190">
    <ele>5.0</ele>
    <time>2025-12-26T12:23:33Z</time>
   </trkpt>
   <trkpt lat="53.3722300" lon="-9.9589490">
    <ele>4.6</ele>
    <time>2025-12-26T12:23:38Z</time>
   </trkpt>
   <trkpt lat="53.3722390" lon="-9.9588540">
    <ele>4.5</ele>
    <time>2025-12-26T12:23:43Z</time>
   </trkpt>
   <trkpt lat="53.3722140" lon="-9.9587900">
    <ele>4.7</ele>
    <time>2025-12-26T12:23:49Z</time>
   </trkpt>
   <trkpt lat="53.3722140" lon="-9.9587140">
    <ele>4.6</ele>
    <time>2025-12-26T12:24:02Z</time>
   </trkpt>
   <trkpt lat="53.3722130" lon="-9.9586080">
    <ele>4.4</ele>
    <time>2025-12-26T12:24:07Z</time>
   </trkpt>
   <trkpt lat="53.3721910" lon="-9.9585160">
    <ele>4.5</ele>
    <time>2025-12-26T12:24:13Z</time>
   </trkpt>
   <trkpt lat="53.3722160" lon="-9.9584480">
    <ele>4.9</ele>
    <time>2025-12-26T12:24:19Z</time>
   </trkpt>
   <trkpt lat="53.3721860" lon="-9.9583830">
    <ele>6.3</ele>
    <time>2025-12-26T12:24:25Z</time>
   </trkpt>
   <trkpt lat="53.3721640" lon="-9.9583070">
    <ele>6.9</ele>
    <time>2025-12-26T12:24:35Z</time>
   </trkpt>
   <trkpt lat="53.3721200" lon="-9.9582790">
    <ele>7.1</ele>
    <time>2025-12-26T12:24:42Z</time>
   </trkpt>
   <trkpt lat="53.3720750" lon="-9.9582890">
    <ele>8.2</ele>
    <time>2025-12-26T12:24:49Z</time>
   </trkpt>
   <trkpt lat="53.3720290" lon="-9.9582860">
    <ele>8.4</ele>
    <time>2025-12-26T12:24:56Z</time>
   </trkpt>
   <trkpt lat="53.3720330" lon="-9.9581950">
    <ele>7.4</ele>
    <time>2025-12-26T12:25:01Z</time>
   </trkpt>
   <trkpt lat="53.3720240" lon="-9.9581050">
    <ele>6.6</ele>
    <time>2025-12-26T12:25:06Z</time>
   </trkpt>
   <trkpt lat="53.3719870" lon="-9.9580580">
    <ele>6.3</ele>
    <time>2025-12-26T12:25:18Z</time>
   </trkpt>
   <trkpt lat="53.3719110" lon="-9.9580520">
    <ele>6.0</ele>
    <time>2025-12-26T12:25:24Z</time>
   </trkpt>
   <trkpt lat="53.3718590" lon="-9.9580710">
    <ele>6.7</ele>
    <time>2025-12-26T12:25:29Z</time>
   </trkpt>
   <trkpt lat="53.3718100" lon="-9.9580860">
    <ele>7.1</ele>
    <time>2025-12-26T12:25:35Z</time>
   </trkpt>
   <trkpt lat="53.3717730" lon="-9.9580310">
    <ele>6.9</ele>
    <time>2025-12-26T12:25:41Z</time>
   </trkpt>
   <trkpt lat="53.3717230" lon="-9.9580140">
    <ele>4.6</ele>
    <time>2025-12-26T12:26:00Z</time>
   </trkpt>
   <trkpt lat="53.3716830" lon="-9.9579070">
    <ele>4.8</ele>
    <time>2025-12-26T12:26:05Z</time>
   </trkpt>
   <trkpt lat="53.3716560" lon="-9.9578430">
    <ele>5.2</ele>
    <time>2025-12-26T12:26:10Z</time>
   </trkpt>
   <trkpt lat="53.3716900" lon="-9.9577880">
    <ele>8.7</ele>
    <time>2025-12-26T12:26:19Z</time>
   </trkpt>
   <trkpt lat="53.3717060" lon="-9.9576750">
    <ele>7.6</ele>
    <time>2025-12-26T12:26:24Z</time>
   </trkpt>
   <trkpt lat="53.3717070" lon="-9.9575990">
    <ele>6.0</ele>
    <time>2025-12-26T12:26:32Z</time>
   </trkpt>
   <trkpt lat="53.3717100" lon="-9.9575110">
    <ele>5.8</ele>
    <time>2025-12-26T12:26:38Z</time>
   </trkpt>
   <trkpt lat="53.3716960" lon="-9.9574340">
    <ele>5.9</ele>
    <time>2025-12-26T12:26:43Z</time>
   </trkpt>
   <trkpt lat="53.3716800" lon="-9.9573590">
    <ele>6.6</ele>
    <time>2025-12-26T12:26:56Z</time>
   </trkpt>
   <trkpt lat="53.3716530" lon="-9.9572950">
    <ele>6.3</ele>
    <time>2025-12-26T12:27:05Z</time>
   </trkpt>
   <trkpt lat="53.3716640" lon="-9.9572040">
    <ele>5.8</ele>
    <time>2025-12-26T12:27:10Z</time>
   </trkpt>
   <trkpt lat="53.3716720" lon="-9.9571290">
    <ele>6.4</ele>
    <time>2025-12-26T12:27:16Z</time>
   </trkpt>
   <trkpt lat="53.3716760" lon="-9.9570380">
    <ele>6.6</ele>
    <time>2025-12-26T12:27:22Z</time>
   </trkpt>
   <trkpt lat="53.3716750" lon="-9.9569580">
    <ele>6.6</ele>
    <time>2025-12-26T12:27:27Z</time>
   </trkpt>
   <trkpt lat="53.3716940" lon="-9.9568860">
    <ele>6.7</ele>
    <time>2025-12-26T12:27:34Z</time>
   </trkpt>
   <trkpt lat="53.3716930" lon="-9.9567960">
    <ele>5.9</ele>
    <time>2025-12-26T12:27:39Z</time>
   </trkpt>
   <trkpt lat="53.3717090" lon="-9.9567180">
    <ele>5.3</ele>
    <time>2025-12-26T12:27:44Z</time>
   </trkpt>
   <trkpt lat="53.3717030" lon="-9.9566310">
    <ele>5.0</ele>
    <time>2025-12-26T12:27:50Z</time>
   </trkpt>
   <trkpt lat="53.3716780" lon="-9.9565530">
    <ele>4.8</ele>
    <time>2025-12-26T12:27:55Z</time>
   </trkpt>
   <trkpt lat="53.3716470" lon="-9.9565000">
    <ele>5.3</ele>
    <time>2025-12-26T12:28:06Z</time>
   </trkpt>
   <trkpt lat="53.3716810" lon="-9.9564490">
    <ele>6.0</ele>
    <time>2025-12-26T12:28:12Z</time>
   </trkpt>
   <trkpt lat="53.3716750" lon="-9.9563590">
    <ele>5.9</ele>
    <time>2025-12-26T12:28:18Z</time>
   </trkpt>
   <trkpt lat="53.3716690" lon="-9.9562830">
    <ele>5.8</ele>
    <time>2025-12-26T12:28:25Z</time>
   </trkpt>
   <trkpt lat="53.3716700" lon="-9.9561930">
    <ele>5.3</ele>
    <time>2025-12-26T12:28:30Z</time>
   </trkpt>
   <trkpt lat="53.3716510" lon="-9.9561140">
    <ele>4.3</ele>
    <time>2025-12-26T12:28:36Z</time>
   </trkpt>
   <trkpt lat="53.3716160" lon="-9.9560570">
    <ele>4.1</ele>
    <time>2025-12-26T12:28:45Z</time>
   </trkpt>
   <trkpt lat="53.3715850" lon="-9.9559920">
    <ele>3.9</ele>
    <time>2025-12-26T12:28:51Z</time>
   </trkpt>
   <trkpt lat="53.3715800" lon="-9.9559060">
    <ele>3.6</ele>
    <time>2025-12-26T12:29:03Z</time>
   </trkpt>
   <trkpt lat="53.3715940" lon="-9.9558260">
    <ele>4.0</ele>
    <time>2025-12-26T12:29:18Z</time>
   </trkpt>
   <trkpt lat="53.3715720" lon="-9.9557480">
    <ele>4.2</ele>
    <time>2025-12-26T12:29:23Z</time>
   </trkpt>
   <trkpt lat="53.3715850" lon="-9.9556740">
    <ele>4.4</ele>
    <time>2025-12-26T12:29:33Z</time>
   </trkpt>
   <trkpt lat="53.3715670" lon="-9.9555740">
    <ele>4.7</ele>
    <time>2025-12-26T12:29:39Z</time>
   </trkpt>
   <trkpt lat="53.3715580" lon="-9.9554900">
    <ele>5.4</ele>
    <time>2025-12-26T12:29:44Z</time>
   </trkpt>
   <trkpt lat="53.3715400" lon="-9.9554100">
    <ele>6.2</ele>
    <time>2025-12-26T12:29:49Z</time>
   </trkpt>
   <trkpt lat="53.3715210" lon="-9.9553230">
    <ele>5.8</ele>
    <time>2025-12-26T12:29:55Z</time>
   </trkpt>
   <trkpt lat="53.3715140" lon="-9.9552310">
    <ele>5.8</ele>
    <time>2025-12-26T12:30:00Z</time>
   </trkpt>
   <trkpt lat="53.3715260" lon="-9.9551500">
    <ele>6.1</ele>
    <time>2025-12-26T12:30:07Z</time>
   </trkpt>
   <trkpt lat="53.3715500" lon="-9.9550810">
    <ele>5.6</ele>
    <time>2025-12-26T12:30:12Z</time>
   </trkpt>
   <trkpt lat="53.3715520" lon="-9.9549840">
    <ele>5.3</ele>
    <time>2025-12-26T12:30:18Z</time>
   </trkpt>
   <trkpt lat="53.3715890" lon="-9.9549360">
    <ele>5.4</ele>
    <time>2025-12-26T12:30:24Z</time>
   </trkpt>
   <trkpt lat="53.3715770" lon="-9.9548540">
    <ele>5.0</ele>
    <time>2025-12-26T12:30:29Z</time>
   </trkpt>
   <trkpt lat="53.3715970" lon="-9.9547850">
    <ele>4.6</ele>
    <time>2025-12-26T12:30:34Z</time>
   </trkpt>
   <trkpt lat="53.3715840" lon="-9.9546920">
    <ele>4.5</ele>
    <time>2025-12-26T12:30:39Z</time>
   </trkpt>
   <trkpt lat="53.3715910" lon="-9.9546110">
    <ele>4.2</ele>
    <time>2025-12-26T12:30:45Z</time>
   </trkpt>
   <trkpt lat="53.3715650" lon="-9.9545160">
    <ele>3.8</ele>
    <time>2025-12-26T12:30:50Z</time>
   </trkpt>
   <trkpt lat="53.3715170" lon="-9.9544670">
    <ele>3.9</ele>
    <time>2025-12-26T12:30:55Z</time>
   </trkpt>
   <trkpt lat="53.3714810" lon="-9.9544200">
    <ele>4.4</ele>
    <time>2025-12-26T12:31:00Z</time>
   </trkpt>
   <trkpt lat="53.3714410" lon="-9.9543530">
    <ele>3.1</ele>
    <time>2025-12-26T12:31:16Z</time>
   </trkpt>
   <trkpt lat="53.3714300" lon="-9.9542570">
    <ele>3.9</ele>
    <time>2025-12-26T12:31:21Z</time>
   </trkpt>
   <trkpt lat="53.3713970" lon="-9.9542050">
    <ele>4.3</ele>
    <time>2025-12-26T12:31:26Z</time>
   </trkpt>
   <trkpt lat="53.3713630" lon="-9.9541460">
    <ele>4.3</ele>
    <time>2025-12-26T12:31:33Z</time>
   </trkpt>
   <trkpt lat="53.3713460" lon="-9.9540760">
    <ele>3.8</ele>
    <time>2025-12-26T12:31:39Z</time>
   </trkpt>
   <trkpt lat="53.3713240" lon="-9.9539990">
    <ele>4.0</ele>
    <time>2025-12-26T12:31:45Z</time>
   </trkpt>
   <trkpt lat="53.3713020" lon="-9.9539290">
    <ele>4.4</ele>
    <time>2025-12-26T12:31:50Z</time>
   </trkpt>
   <trkpt lat="53.3712690" lon="-9.9538650">
    <ele>4.3</ele>
    <time>2025-12-26T12:31:56Z</time>
   </trkpt>
   <trkpt lat="53.3712550" lon="-9.9537870">
    <ele>5.1</ele>
    <time>2025-12-26T12:32:07Z</time>
   </trkpt>
   <trkpt lat="53.3712390" lon="-9.9536940">
    <ele>5.4</ele>
    <time>2025-12-26T12:32:13Z</time>
   </trkpt>
   <trkpt lat="53.3712270" lon="-9.9536160">
    <ele>5.1</ele>
    <time>2025-12-26T12:32:19Z</time>
   </trkpt>
   <trkpt lat="53.3712310" lon="-9.9535290">
    <ele>4.8</ele>
    <time>2025-12-26T12:32:24Z</time>
   </trkpt>
   <trkpt lat="53.3712110" lon="-9.9534550">
    <ele>4.5</ele>
    <time>2025-12-26T12:32:29Z</time>
   </trkpt>
   <trkpt lat="53.3711850" lon="-9.9533840">
    <ele>4.2</ele>
    <time>2025-12-26T12:32:51Z</time>
   </trkpt>
   <trkpt lat="53.3711460" lon="-9.9533260">
    <ele>4.7</ele>
    <time>2025-12-26T12:32:56Z</time>
   </trkpt>
   <trkpt lat="53.3711310" lon="-9.9532550">
    <ele>5.1</ele>
    <time>2025-12-26T12:33:01Z</time>
   </trkpt>
   <trkpt lat="53.3711450" lon="-9.9531760">
    <ele>6.9</ele>
    <time>2025-12-26T12:33:13Z</time>
   </trkpt>
   <trkpt lat="53.3711490" lon="-9.9530660">
    <ele>7.1</ele>
    <time>2025-12-26T12:33:19Z</time>
   </trkpt>
   <trkpt lat="53.3711370" lon="-9.9529930">
    <ele>5.9</ele>
    <time>2025-12-26T12:33:38Z</time>
   </trkpt>
   <trkpt lat="53.3711500" lon="-9.9529010">
    <ele>6.6</ele>
    <time>2025-12-26T12:33:44Z</time>
   </trkpt>
   <trkpt lat="53.3711510" lon="-9.9528100">
    <ele>6.3</ele>
    <time>2025-12-26T12:33:50Z</time>
   </trkpt>
   <trkpt lat="53.3711330" lon="-9.9527120">
    <ele>5.8</ele>
    <time>2025-12-26T12:33:56Z</time>
   </trkpt>
   <trkpt lat="53.3711200" lon="-9.9526290">
    <ele>5.7</ele>
    <time>2025-12-26T12:34:02Z</time>
   </trkpt>
   <trkpt lat="53.3710760" lon="-9.9525780">
    <ele>6.1</ele>
    <time>2025-12-26T12:34:07Z</time>
   </trkpt>
   <trkpt lat="53.3710410" lon="-9.9525210">
    <ele>6.5</ele>
    <time>2025-12-26T12:34:14Z</time>
   </trkpt>
   <trkpt lat="53.3710020" lon="-9.9524820">
    <ele>3.1</ele>
    <time>2025-12-26T12:34:30Z</time>
   </trkpt>
   <trkpt lat="53.3709760" lon="-9.9524180">
    <ele>3.6</ele>
    <time>2025-12-26T12:34:39Z</time>
   </trkpt>
   <trkpt lat="53.3709890" lon="-9.9522610">
    <ele>3.7</ele>
    <time>2025-12-26T12:34:44Z</time>
   </trkpt>
   <trkpt lat="53.3709740" lon="-9.9521810">
    <ele>3.4</ele>
    <time>2025-12-26T12:34:49Z</time>
   </trkpt>
   <trkpt lat="53.3709490" lon="-9.9521080">
    <ele>3.8</ele>
    <time>2025-12-26T12:34:56Z</time>
   </trkpt>
   <trkpt lat="53.3709000" lon="-9.9520750">
    <ele>4.4</ele>
    <time>2025-12-26T12:35:04Z</time>
   </trkpt>
   <trkpt lat="53.3708720" lon="-9.9520100">
    <ele>4.2</ele>
    <time>2025-12-26T12:35:10Z</time>
   </trkpt>
   <trkpt lat="53.3708440" lon="-9.9519270">
    <ele>4.0</ele>
    <time>2025-12-26T12:35:16Z</time>
   </trkpt>
   <trkpt lat="53.3707980" lon="-9.9518900">
    <ele>4.0</ele>
    <time>2025-12-26T12:35:21Z</time>
   </trkpt>
   <trkpt lat="53.3707460" lon="-9.9519020">
    <ele>4.6</ele>
    <time>2025-12-26T12:35:27Z</time>
   </trkpt>
   <trkpt lat="53.3707040" lon="-9.9518700">
    <ele>4.9</ele>
    <time>2025-12-26T12:35:33Z</time>
   </trkpt>
   <trkpt lat="53.3706950" lon="-9.9517830">
    <ele>4.4</ele>
    <time>2025-12-26T12:35:38Z</time>
   </trkpt>
   <trkpt lat="53.3706650" lon="-9.9517130">
    <ele>3.7</ele>
    <time>2025-12-26T12:35:44Z</time>
   </trkpt>
   <trkpt lat="53.3706570" lon="-9.9516350">
    <ele>3.8</ele>
    <time>2025-12-26T12:35:50Z</time>
   </trkpt>
   <trkpt lat="53.3706620" lon="-9.9515510">
    <ele>3.9</ele>
    <time>2025-12-26T12:35:55Z</time>
   </trkpt>
   <trkpt lat="53.3706700" lon="-9.9514590">
    <ele>4.0</ele>
    <time>2025-12-26T12:36:01Z</time>
   </trkpt>
   <trkpt lat="53.3706230" lon="-9.9514250">
    <ele>3.6</ele>
    <time>2025-12-26T12:36:07Z</time>
   </trkpt>
   <trkpt lat="53.3705750" lon="-9.9514370">
    <ele>3.4</ele>
    <time>2025-12-26T12:36:12Z</time>
   </trkpt>
   <trkpt lat="53.3705320" lon="-9.9514760">
    <ele>4.5</ele>
    <time>2025-12-26T12:36:40Z</time>
   </trkpt>
   <trkpt lat="53.3704720" lon="-9.9515100">
    <ele>4.7</ele>
    <time>2025-12-26T12:36:45Z</time>
   </trkpt>
   <trkpt lat="53.3704350" lon="-9.9514510">
    <ele>4.0</ele>
    <time>2025-12-26T12:37:02Z</time>
   </trkpt>
   <trkpt lat="53.3703870" lon="-9.9514500">
    <ele>3.5</ele>
    <time>2025-12-26T12:37:18Z</time>
   </trkpt>
   <trkpt lat="53.3703460" lon="-9.9514160">
    <ele>4.1</ele>
    <time>2025-12-26T12:37:49Z</time>
   </trkpt>
   <trkpt lat="53.3703060" lon="-9.9513710">
    <ele>4.5</ele>
    <time>2025-12-26T12:38:00Z</time>
   </trkpt>
   <trkpt lat="53.3702630" lon="-9.9513480">
    <ele>4.0</ele>
    <time>2025-12-26T12:38:12Z</time>
   </trkpt>
   <trkpt lat="53.3702190" lon="-9.9513620">
    <ele>4.2</ele>
    <time>2025-12-26T12:38:26Z</time>
   </trkpt>
   <trkpt lat="53.3701680" lon="-9.9513790">
    <ele>3.5</ele>
    <time>2025-12-26T12:38:34Z</time>
   </trkpt>
   <trkpt lat="53.3700990" lon="-9.9513900">
    <ele>2.8</ele>
    <time>2025-12-26T12:38:39Z</time>
   </trkpt>
   <trkpt lat="53.3700540" lon="-9.9514240">
    <ele>2.7</ele>
    <time>2025-12-26T12:38:44Z</time>
   </trkpt>
   <trkpt lat="53.3700120" lon="-9.9514640">
    <ele>2.5</ele>
    <time>2025-12-26T12:38:50Z</time>
   </trkpt>
   <trkpt lat="53.3699870" lon="-9.9515290">
    <ele>4.5</ele>
    <time>2025-12-26T12:39:05Z</time>
   </trkpt>
   <trkpt lat="53.3699430" lon="-9.9515540">
    <ele>4.9</ele>
    <time>2025-12-26T12:39:19Z</time>
   </trkpt>
   <trkpt lat="53.3699160" lon="-9.9516210">
    <ele>7.0</ele>
    <time>2025-12-26T12:39:28Z</time>
   </trkpt>
   <trkpt lat="53.3698830" lon="-9.9516780">
    <ele>7.0</ele>
    <time>2025-12-26T12:39:37Z</time>
   </trkpt>
   <trkpt lat="53.3698560" lon="-9.9517520">
    <ele>6.8</ele>
    <time>2025-12-26T12:39:42Z</time>
   </trkpt>
   <trkpt lat="53.3698110" lon="-9.9518010">
    <ele>6.4</ele>
    <time>2025-12-26T12:39:47Z</time>
   </trkpt>
   <trkpt lat="53.3697560" lon="-9.9518140">
    <ele>6.6</ele>
    <time>2025-12-26T12:39:53Z</time>
   </trkpt>
   <trkpt lat="53.3697130" lon="-9.9518440">
    <ele>7.4</ele>
    <time>2025-12-26T12:40:02Z</time>
   </trkpt>
   <trkpt lat="53.3696690" lon="-9.9518790">
    <ele>7.6</ele>
    <time>2025-12-26T12:40:09Z</time>
   </trkpt>
   <trkpt lat="53.3696330" lon="-9.9519350">
    <ele>8.9</ele>
    <time>2025-12-26T12:40:16Z</time>
   </trkpt>
   <trkpt lat="53.3695910" lon="-9.9519740">
    <ele>9.7</ele>
    <time>2025-12-26T12:40:23Z</time>
   </trkpt>
   <trkpt lat="53.3695420" lon="-9.9519920">
    <ele>9.7</ele>
    <time>2025-12-26T12:40:29Z</time>
   </trkpt>
   <trkpt lat="53.3695000" lon="-9.9520220">
    <ele>9.9</ele>
    <time>2025-12-26T12:40:35Z</time>
   </trkpt>
   <trkpt lat="53.3694490" lon="-9.9520520">
    <ele>9.8</ele>
    <time>2025-12-26T12:40:40Z</time>
   </trkpt>
   <trkpt lat="53.3694100" lon="-9.9521040">
    <ele>9.7</ele>
    <time>2025-12-26T12:40:45Z</time>
   </trkpt>
   <trkpt lat="53.3693630" lon="-9.9521360">
    <ele>9.9</ele>
    <time>2025-12-26T12:40:52Z</time>
   </trkpt>
   <trkpt lat="53.3693190" lon="-9.9521670">
    <ele>9.5</ele>
    <time>2025-12-26T12:40:58Z</time>
   </trkpt>
   <trkpt lat="53.3692740" lon="-9.9522110">
    <ele>8.9</ele>
    <time>2025-12-26T12:41:03Z</time>
   </trkpt>
   <trkpt lat="53.3692370" lon="-9.9522630">
    <ele>8.6</ele>
    <time>2025-12-26T12:41:08Z</time>
   </trkpt>
   <trkpt lat="53.3691930" lon="-9.9522850">
    <ele>7.6</ele>
    <time>2025-12-26T12:41:14Z</time>
   </trkpt>
   <trkpt lat="53.3691520" lon="-9.9523180">
    <ele>7.0</ele>
    <time>2025-12-26T12:41:19Z</time>
   </trkpt>
   <trkpt lat="53.3691130" lon="-9.9523630">
    <ele>7.5</ele>
    <time>2025-12-26T12:41:25Z</time>
   </trkpt>
   <trkpt lat="53.3690740" lon="-9.9524120">
    <ele>7.2</ele>
    <time>2025-12-26T12:41:31Z</time>
   </trkpt>
   <trkpt lat="53.3690380" lon="-9.9524780">
    <ele>6.7</ele>
    <time>2025-12-26T12:41:37Z</time>
   </trkpt>
   <trkpt lat="53.3690010" lon="-9.9525280">
    <ele>6.3</ele>
    <time>2025-12-26T12:41:42Z</time>
   </trkpt>
   <trkpt lat="53.3689810" lon="-9.9525960">
    <ele>6.5</ele>
    <time>2025-12-26T12:41:49Z</time>
   </trkpt>
   <trkpt lat="53.3689800" lon="-9.9526790">
    <ele>7.0</ele>
    <time>2025-12-26T12:41:55Z</time>
   </trkpt>
   <trkpt lat="53.3689770" lon="-9.9527560">
    <ele>7.6</ele>
    <time>2025-12-26T12:42:01Z</time>
   </trkpt>
   <trkpt lat="53.3689660" lon="-9.9528430">
    <ele>8.0</ele>
    <time>2025-12-26T12:42:07Z</time>
   </trkpt>
   <trkpt lat="53.3689700" lon="-9.9529200">
    <ele>8.1</ele>
    <time>2025-12-26T12:42:12Z</time>
   </trkpt>
   <trkpt lat="53.3689710" lon="-9.9530020">
    <ele>8.3</ele>
    <time>2025-12-26T12:42:17Z</time>
   </trkpt>
   <trkpt lat="53.3689770" lon="-9.9530800">
    <ele>8.1</ele>
    <time>2025-12-26T12:42:22Z</time>
   </trkpt>
   <trkpt lat="53.3689870" lon="-9.9531550">
    <ele>7.7</ele>
    <time>2025-12-26T12:42:27Z</time>
   </trkpt>
   <trkpt lat="53.3690150" lon="-9.9532230">
    <ele>7.7</ele>
    <time>2025-12-26T12:42:33Z</time>
   </trkpt>
   <trkpt lat="53.3690300" lon="-9.9533160">
    <ele>7.7</ele>
    <time>2025-12-26T12:42:38Z</time>
   </trkpt>
   <trkpt lat="53.3690540" lon="-9.9534030">
    <ele>7.5</ele>
    <time>2025-12-26T12:42:44Z</time>
   </trkpt>
   <trkpt lat="53.3691020" lon="-9.9534530">
    <ele>7.5</ele>
    <time>2025-12-26T12:42:50Z</time>
   </trkpt>
   <trkpt lat="53.3691480" lon="-9.9534920">
    <ele>7.9</ele>
    <time>2025-12-26T12:42:55Z</time>
   </trkpt>
   <trkpt lat="53.3691190" lon="-9.9535520">
    <ele>7.6</ele>
    <time>2025-12-26T12:43:01Z</time>
   </trkpt>
   <trkpt lat="53.3690760" lon="-9.9536080">
    <ele>7.4</ele>
    <time>2025-12-26T12:43:07Z</time>
   </trkpt>
   <trkpt lat="53.3690520" lon="-9.9536940">
    <ele>7.4</ele>
    <time>2025-12-26T12:43:12Z</time>
   </trkpt>
   <trkpt lat="53.3690550" lon="-9.9537840">
    <ele>7.6</ele>
    <time>2025-12-26T12:43:17Z</time>
   </trkpt>
   <trkpt lat="53.3690270" lon="-9.9538500">
    <ele>7.7</ele>
    <time>2025-12-26T12:43:24Z</time>
   </trkpt>
   <trkpt lat="53.3690130" lon="-9.9539400">
    <ele>6.5</ele>
    <time>2025-12-26T12:43:34Z</time>
   </trkpt>
   <trkpt lat="53.3689890" lon="-9.9540260">
    <ele>6.4</ele>
    <time>2025-12-26T12:43:39Z</time>
   </trkpt>
   <trkpt lat="53.3689750" lon="-9.9540980">
    <ele>6.1</ele>
    <time>2025-12-26T12:43:45Z</time>
   </trkpt>
   <trkpt lat="53.3689520" lon="-9.9541730">
    <ele>6.0</ele>
    <time>2025-12-26T12:43:50Z</time>
   </trkpt>
   <trkpt lat="53.3689380" lon="-9.9542480">
    <ele>5.7</ele>
    <time>2025-12-26T12:43:56Z</time>
   </trkpt>
   <trkpt lat="53.3689150" lon="-9.9543280">
    <ele>5.9</ele>
    <time>2025-12-26T12:44:01Z</time>
   </trkpt>
   <trkpt lat="53.3688940" lon="-9.9544220">
    <ele>6.0</ele>
    <time>2025-12-26T12:44:06Z</time>
   </trkpt>
   <trkpt lat="53.3688780" lon="-9.9545020">
    <ele>5.7</ele>
    <time>2025-12-26T12:44:12Z</time>
   </trkpt>
   <trkpt lat="53.3688600" lon="-9.9545820">
    <ele>5.3</ele>
    <time>2025-12-26T12:44:17Z</time>
   </trkpt>
   <trkpt lat="53.3688220" lon="-9.9546580">
    <ele>4.9</ele>
    <time>2025-12-26T12:44:22Z</time>
   </trkpt>
   <trkpt lat="53.3688060" lon="-9.9547350">
    <ele>5.3</ele>
    <time>2025-12-26T12:44:29Z</time>
   </trkpt>
   <trkpt lat="53.3687740" lon="-9.9548100">
    <ele>6.1</ele>
    <time>2025-12-26T12:44:42Z</time>
   </trkpt>
   <trkpt lat="53.3687410" lon="-9.9548910">
    <ele>6.8</ele>
    <time>2025-12-26T12:44:47Z</time>
   </trkpt>
   <trkpt lat="53.3687100" lon="-9.9549670">
    <ele>7.8</ele>
    <time>2025-12-26T12:44:53Z</time>
   </trkpt>
   <trkpt lat="53.3686900" lon="-9.9550400">
    <ele>8.1</ele>
    <time>2025-12-26T12:44:58Z</time>
   </trkpt>
   <trkpt lat="53.3686780" lon="-9.9551180">
    <ele>8.5</ele>
    <time>2025-12-26T12:45:03Z</time>
   </trkpt>
   <trkpt lat="53.3686580" lon="-9.9551870">
    <ele>8.7</ele>
    <time>2025-12-26T12:45:09Z</time>
   </trkpt>
   <trkpt lat="53.3686490" lon="-9.9552710">
    <ele>8.1</ele>
    <time>2025-12-26T12:45:15Z</time>
   </trkpt>
   <trkpt lat="53.3686420" lon="-9.9553720">
    <ele>6.9</ele>
    <time>2025-12-26T12:45:20Z</time>
   </trkpt>
   <trkpt lat="53.3686420" lon="-9.9554640">
    <ele>7.0</ele>
    <time>2025-12-26T12:45:26Z</time>
   </trkpt>
   <trkpt lat="53.3686030" lon="-9.9555190">
    <ele>7.3</ele>
    <time>2025-12-26T12:45:33Z</time>
   </trkpt>
   <trkpt lat="53.3685800" lon="-9.9555890">
    <ele>7.0</ele>
    <time>2025-12-26T12:45:38Z</time>
   </trkpt>
   <trkpt lat="53.3685570" lon="-9.9556750">
    <ele>6.9</ele>
    <time>2025-12-26T12:45:44Z</time>
   </trkpt>
   <trkpt lat="53.3685200" lon="-9.9557410">
    <ele>6.6</ele>
    <time>2025-12-26T12:45:49Z</time>
   </trkpt>
   <trkpt lat="53.3684910" lon="-9.9558140">
    <ele>6.6</ele>
    <time>2025-12-26T12:45:54Z</time>
   </trkpt>
   <trkpt lat="53.3684530" lon="-9.9558940">
    <ele>6.6</ele>
    <time>2025-12-26T12:45:59Z</time>
   </trkpt>
   <trkpt lat="53.3684310" lon="-9.9559610">
    <ele>5.9</ele>
    <time>2025-12-26T12:46:05Z</time>
   </trkpt>
   <trkpt lat="53.3683990" lon="-9.9560570">
    <ele>5.3</ele>
    <time>2025-12-26T12:46:10Z</time>
   </trkpt>
   <trkpt lat="53.3683720" lon="-9.9561290">
    <ele>5.2</ele>
    <time>2025-12-26T12:46:15Z</time>
   </trkpt>
   <trkpt lat="53.3683280" lon="-9.9561560">
    <ele>5.2</ele>
    <time>2025-12-26T12:46:21Z</time>
   </trkpt>
   <trkpt lat="53.3682890" lon="-9.9562040">
    <ele>5.0</ele>
    <time>2025-12-26T12:46:26Z</time>
   </trkpt>
   <trkpt lat="53.3682640" lon="-9.9562910">
    <ele>4.8</ele>
    <time>2025-12-26T12:46:32Z</time>
   </trkpt>
   <trkpt lat="53.3682190" lon="-9.9563560">
    <ele>4.9</ele>
    <time>2025-12-26T12:46:37Z</time>
   </trkpt>
   <trkpt lat="53.3681810" lon="-9.9564130">
    <ele>5.2</ele>
    <time>2025-12-26T12:46:43Z</time>
   </trkpt>
   <trkpt lat="53.3681420" lon="-9.9564810">
    <ele>5.1</ele>
    <time>2025-12-26T12:46:48Z</time>
   </trkpt>
   <trkpt lat="53.3681140" lon="-9.9565610">
    <ele>5.0</ele>
    <time>2025-12-26T12:46:53Z</time>
   </trkpt>
   <trkpt lat="53.3680940" lon="-9.9566400">
    <ele>4.6</ele>
    <time>2025-12-26T12:46:58Z</time>
   </trkpt>
   <trkpt lat="53.3680570" lon="-9.9567050">
    <ele>4.1</ele>
    <time>2025-12-26T12:47:04Z</time>
   </trkpt>
   <trkpt lat="53.3680380" lon="-9.9567930">
    <ele>4.0</ele>
    <time>2025-12-26T12:47:09Z</time>
   </trkpt>
   <trkpt lat="53.3680110" lon="-9.9568650">
    <ele>4.6</ele>
    <time>2025-12-26T12:47:15Z</time>
   </trkpt>
   <trkpt lat="53.3679690" lon="-9.9569110">
    <ele>5.4</ele>
    <time>2025-12-26T12:47:22Z</time>
   </trkpt>
   <trkpt lat="53.3679240" lon="-9.9569410">
    <ele>5.1</ele>
    <time>2025-12-26T12:47:27Z</time>
   </trkpt>
   <trkpt lat="53.3679050" lon="-9.9570190">
    <ele>5.1</ele>
    <time>2025-12-26T12:47:33Z</time>
   </trkpt>
   <trkpt lat="53.3678940" lon="-9.9571010">
    <ele>5.7</ele>
    <time>2025-12-26T12:47:38Z</time>
   </trkpt>
   <trkpt lat="53.3678830" lon="-9.9571820">
    <ele>5.6</ele>
    <time>2025-12-26T12:47:44Z</time>
   </trkpt>
   <trkpt lat="53.3678390" lon="-9.9572390">
    <ele>5.5</ele>
    <time>2025-12-26T12:47:49Z</time>
   </trkpt>
   <trkpt lat="53.3678100" lon="-9.9573090">
    <ele>6.3</ele>
    <time>2025-12-26T12:47:54Z</time>
   </trkpt>
   <trkpt lat="53.3678030" lon="-9.9574140">
    <ele>7.1</ele>
    <time>2025-12-26T12:48:00Z</time>
   </trkpt>
   <trkpt lat="53.3678200" lon="-9.9574920">
    <ele>-1.0</ele>
    <time>2025-12-26T12:48:30Z</time>
   </trkpt>
   <trkpt lat="53.3678090" lon="-9.9576130">
    <ele>2.9</ele>
    <time>2025-12-26T12:48:36Z</time>
   </trkpt>
   <trkpt lat="53.3678350" lon="-9.9576920">
    <ele>5.2</ele>
    <time>2025-12-26T12:48:42Z</time>
   </trkpt>
   <trkpt lat="53.3678550" lon="-9.9577640">
    <ele>5.1</ele>
    <time>2025-12-26T12:48:47Z</time>
   </trkpt>
   <trkpt lat="53.3678650" lon="-9.9578560">
    <ele>3.7</ele>
    <time>2025-12-26T12:48:52Z</time>
   </trkpt>
   <trkpt lat="53.3678640" lon="-9.9579470">
    <ele>3.6</ele>
    <time>2025-12-26T12:48:58Z</time>
   </trkpt>
   <trkpt lat="53.3678610" lon="-9.9580290">
    <ele>4.7</ele>
    <time>2025-12-26T12:49:04Z</time>
   </trkpt>
   <trkpt lat="53.3678510" lon="-9.9581150">
    <ele>5.8</ele>
    <time>2025-12-26T12:49:11Z</time>
   </trkpt>
   <trkpt lat="53.3678380" lon="-9.9581950">
    <ele>5.7</ele>
    <time>2025-12-26T12:49:17Z</time>
   </trkpt>
   <trkpt lat="53.3678040" lon="-9.9582590">
    <ele>5.3</ele>
    <time>2025-12-26T12:49:28Z</time>
   </trkpt>
   <trkpt lat="53.3677880" lon="-9.9583590">
    <ele>6.2</ele>
    <time>2025-12-26T12:49:33Z</time>
   </trkpt>
   <trkpt lat="53.3677590" lon="-9.9584350">
    <ele>6.6</ele>
    <time>2025-12-26T12:49:39Z</time>
   </trkpt>
   <trkpt lat="53.3677350" lon="-9.9585120">
    <ele>6.7</ele>
    <time>2025-12-26T12:49:45Z</time>
   </trkpt>
   <trkpt lat="53.3677060" lon="-9.9585710">
    <ele>6.8</ele>
    <time>2025-12-26T12:49:54Z</time>
   </trkpt>
   <trkpt lat="53.3677090" lon="-9.9586720">
    <ele>7.1</ele>
    <time>2025-12-26T12:49:59Z</time>
   </trkpt>
   <trkpt lat="53.3677120" lon="-9.9587560">
    <ele>7.2</ele>
    <time>2025-12-26T12:50:06Z</time>
   </trkpt>
   <trkpt lat="53.3677090" lon="-9.9588320">
    <ele>5.8</ele>
    <time>2025-12-26T12:50:40Z</time>
   </trkpt>
   <trkpt lat="53.3676970" lon="-9.9589170">
    <ele>5.8</ele>
    <time>2025-12-26T12:50:47Z</time>
   </trkpt>
   <trkpt lat="53.3677080" lon="-9.9589930">
    <ele>6.0</ele>
    <time>2025-12-26T12:51:02Z</time>
   </trkpt>
   <trkpt lat="53.3677400" lon="-9.9590510">
    <ele>6.8</ele>
    <time>2025-12-26T12:51:08Z</time>
   </trkpt>
   <trkpt lat="53.3677540" lon="-9.9591270">
    <ele>7.1</ele>
    <time>2025-12-26T12:51:16Z</time>
   </trkpt>
   <trkpt lat="53.3677660" lon="-9.9592090">
    <ele>7.5</ele>
    <time>2025-12-26T12:51:22Z</time>
   </trkpt>
   <trkpt lat="53.3677640" lon="-9.9592870">
    <ele>7.8</ele>
    <time>2025-12-26T12:51:29Z</time>
   </trkpt>
   <trkpt lat="53.3678020" lon="-9.9593420">
    <ele>7.6</ele>
    <time>2025-12-26T12:51:35Z</time>
   </trkpt>
   <trkpt lat="53.3678450" lon="-9.9593830">
    <ele>8.1</ele>
    <time>2025-12-26T12:51:40Z</time>
   </trkpt>
   <trkpt lat="53.3678850" lon="-9.9594350">
    <ele>8.4</ele>
    <time>2025-12-26T12:51:47Z</time>
   </trkpt>
   <trkpt lat="53.3679000" lon="-9.9595200">
    <ele>8.1</ele>
    <time>2025-12-26T12:51:53Z</time>
   </trkpt>
   <trkpt lat="53.3679040" lon="-9.9595980">
    <ele>5.3</ele>
    <time>2025-12-26T12:52:26Z</time>
   </trkpt>
   <trkpt lat="53.3679250" lon="-9.9596700">
    <ele>9.0</ele>
    <time>2025-12-26T12:52:37Z</time>
   </trkpt>
   <trkpt lat="53.3679870" lon="-9.9597510">
    <ele>8.8</ele>
    <time>2025-12-26T12:52:42Z</time>
   </trkpt>
   <trkpt lat="53.3680440" lon="-9.9598110">
    <ele>8.1</ele>
    <time>2025-12-26T12:52:47Z</time>
   </trkpt>
   <trkpt lat="53.3680970" lon="-9.9598670">
    <ele>8.0</ele>
    <time>2025-12-26T12:52:52Z</time>
   </trkpt>
   <trkpt lat="53.3681350" lon="-9.9599070">
    <ele>7.9</ele>
    <time>2025-12-26T12:52:57Z</time>
   </trkpt>
   <trkpt lat="53.3681760" lon="-9.9599470">
    <ele>6.9</ele>
    <time>2025-12-26T12:53:08Z</time>
   </trkpt>
   <trkpt lat="53.3682270" lon="-9.9599810">
    <ele>5.9</ele>
    <time>2025-12-26T12:53:14Z</time>
   </trkpt>
   <trkpt lat="53.3682510" lon="-9.9600550">
    <ele>5.1</ele>
    <time>2025-12-26T12:53:19Z</time>
   </trkpt>
   <trkpt lat="53.3682420" lon="-9.9601330">
    <ele>4.2</ele>
    <time>2025-12-26T12:53:32Z</time>
   </trkpt>
   <trkpt lat="53.3682700" lon="-9.9602050">
    <ele>4.5</ele>
    <time>2025-12-26T12:53:41Z</time>
   </trkpt>
   <trkpt lat="53.3683210" lon="-9.9602080">
    <ele>1.0</ele>
    <time>2025-12-26T12:54:08Z</time>
   </trkpt>
   <trkpt lat="53.3683830" lon="-9.9602500">
    <ele>0.4</ele>
    <time>2025-12-26T12:54:14Z</time>
   </trkpt>
   <trkpt lat="53.3684300" lon="-9.9602990">
    <ele>0.1</ele>
    <time>2025-12-26T12:54:20Z</time>
   </trkpt>
   <trkpt lat="53.3684680" lon="-9.9602550">
    <ele>4.5</ele>
    <time>2025-12-26T12:54:25Z</time>
   </trkpt>
   <trkpt lat="53.3685180" lon="-9.9602830">
    <ele>5.7</ele>
    <time>2025-12-26T12:54:30Z</time>
   </trkpt>
   <trkpt lat="53.3685620" lon="-9.9603080">
    <ele>5.9</ele>
    <time>2025-12-26T12:54:37Z</time>
   </trkpt>
   <trkpt lat="53.3685970" lon="-9.9603760">
    <ele>6.1</ele>
    <time>2025-12-26T12:54:43Z</time>
   </trkpt>
   <trkpt lat="53.3686430" lon="-9.9604160">
    <ele>6.3</ele>
    <time>2025-12-26T12:54:48Z</time>
   </trkpt>
   <trkpt lat="53.3686890" lon="-9.9604270">
    <ele>6.6</ele>
    <time>2025-12-26T12:54:54Z</time>
   </trkpt>
   <trkpt lat="53.3687260" lon="-9.9604700">
    <ele>7.0</ele>
    <time>2025-12-26T12:55:02Z</time>
   </trkpt>
   <trkpt lat="53.3687750" lon="-9.9604470">
    <ele>6.7</ele>
    <time>2025-12-26T12:55:24Z</time>
   </trkpt>
   <trkpt lat="53.3688440" lon="-9.9603530">
    <ele>6.7</ele>
    <time>2025-12-26T12:55:30Z</time>
   </trkpt>
   <trkpt lat="53.3688730" lon="-9.9602700">
    <ele>7.1</ele>
    <time>2025-12-26T12:55:35Z</time>
   </trkpt>
   <trkpt lat="53.3688850" lon="-9.9601750">
    <ele>7.5</ele>
    <time>2025-12-26T12:55:40Z</time>
   </trkpt>
   <trkpt lat="53.3689320" lon="-9.9601760">
    <ele>7.2</ele>
    <time>2025-12-26T12:55:47Z</time>
   </trkpt>
   <trkpt lat="53.3689630" lon="-9.9601070">
    <ele>6.7</ele>
    <time>2025-12-26T12:55:53Z</time>
   </trkpt>
   <trkpt lat="53.3690090" lon="-9.9601080">
    <ele>6.3</ele>
    <time>2025-12-26T12:56:04Z</time>
   </trkpt>
   <trkpt lat="53.3690550" lon="-9.9601190">
    <ele>6.1</ele>
    <time>2025-12-26T12:56:15Z</time>
   </trkpt>
   <trkpt lat="53.3691010" lon="-9.9601240">
    <ele>6.3</ele>
    <time>2025-12-26T12:56:23Z</time>
   </trkpt>
   <trkpt lat="53.3691470" lon="-9.9601120">
    <ele>5.7</ele>
    <time>2025-12-26T12:56:28Z</time>
   </trkpt>
   <trkpt lat="53.3691940" lon="-9.9600610">
    <ele>5.8</ele>
    <time>2025-12-26T12:56:36Z</time>
   </trkpt>
   <trkpt lat="53.3692520" lon="-9.9600290">
    <ele>6.8</ele>
    <time>2025-12-26T12:56:42Z</time>
   </trkpt>
   <trkpt lat="53.3692920" lon="-9.9599900">
    <ele>7.6</ele>
    <time>2025-12-26T12:56:49Z</time>
   </trkpt>
   <trkpt lat="53.3693360" lon="-9.9599670">
    <ele>7.6</ele>
    <time>2025-12-26T12:56:57Z</time>
   </trkpt>
   <trkpt lat="53.3693610" lon="-9.9598880">
    <ele>7.2</ele>
    <time>2025-12-26T12:57:02Z</time>
   </trkpt>
   <trkpt lat="53.3693970" lon="-9.9598280">
    <ele>6.3</ele>
    <time>2025-12-26T12:57:08Z</time>
   </trkpt>
   <trkpt lat="53.3694340" lon="-9.9597720">
    <ele>6.1</ele>
    <time>2025-12-26T12:57:15Z</time>
   </trkpt>
   <trkpt lat="53.3694850" lon="-9.9597460">
    <ele>6.0</ele>
    <time>2025-12-26T12:57:20Z</time>
   </trkpt>
   <trkpt lat="53.3695350" lon="-9.9597360">
    <ele>5.7</ele>
    <time>2025-12-26T12:57:26Z</time>
   </trkpt>
   <trkpt lat="53.3695610" lon="-9.9598000">
    <ele>5.7</ele>
    <time>2025-12-26T12:57:49Z</time>
   </trkpt>
   <trkpt lat="53.3696090" lon="-9.9598560">
    <ele>5.8</ele>
    <time>2025-12-26T12:57:55Z</time>
   </trkpt>
   <trkpt lat="53.3696230" lon="-9.9599310">
    <ele>5.4</ele>
    <time>2025-12-26T12:58:01Z</time>
   </trkpt>
   <trkpt lat="53.3695910" lon="-9.9600060">
    <ele>5.0</ele>
    <time>2025-12-26T12:58:06Z</time>
   </trkpt>
   <trkpt lat="53.3696400" lon="-9.9600340">
    <ele>4.2</ele>
    <time>2025-12-26T12:58:19Z</time>
   </trkpt>
   <trkpt lat="53.3696780" lon="-9.9599930">
    <ele>3.6</ele>
    <time>2025-12-26T12:58:30Z</time>
   </trkpt>
   <trkpt lat="53.3697420" lon="-9.9599390">
    <ele>4.0</ele>
    <time>2025-12-26T12:58:36Z</time>
   </trkpt>
   <trkpt lat="53.3698040" lon="-9.9599660">
    <ele>4.5</ele>
    <time>2025-12-26T12:58:41Z</time>
   </trkpt>
   <trkpt lat="53.3698540" lon="-9.9599820">
    <ele>4.9</ele>
    <time>2025-12-26T12:58:47Z</time>
   </trkpt>
   <trkpt lat="53.3698980" lon="-9.9599980">
    <ele>4.8</ele>
    <time>2025-12-26T12:58:53Z</time>
   </trkpt>
   <trkpt lat="53.3699330" lon="-9.9600580">
    <ele>5.4</ele>
    <time>2025-12-26T12:59:04Z</time>
   </trkpt>
   <trkpt lat="53.3699790" lon="-9.9600880">
    <ele>5.8</ele>
    <time>2025-12-26T12:59:11Z</time>
   </trkpt>
   <trkpt lat="53.3700230" lon="-9.9601150">
    <ele>6.0</ele>
    <time>2025-12-26T12:59:17Z</time>
   </trkpt>
   <trkpt lat="53.3700700" lon="-9.9601370">
    <ele>6.1</ele>
    <time>2025-12-26T12:59:23Z</time>
   </trkpt>
   <trkpt lat="53.3700880" lon="-9.9602220">
    <ele>6.4</ele>
    <time>2025-12-26T12:59:38Z</time>
   </trkpt>
   <trkpt lat="53.3701300" lon="-9.9602860">
    <ele>7.0</ele>
    <time>2025-12-26T12:59:43Z</time>
   </trkpt>
   <trkpt lat="53.3701690" lon="-9.9602160">
    <ele>7.6</ele>
    <time>2025-12-26T12:59:49Z</time>
   </trkpt>
   <trkpt lat="53.3701870" lon="-9.9602870">
    <ele>7.3</ele>
    <time>2025-12-26T13:00:11Z</time>
   </trkpt>
   <trkpt lat="53.3702370" lon="-9.9603030">
    <ele>7.6</ele>
    <time>2025-12-26T13:00:16Z</time>
   </trkpt>
   <trkpt lat="53.3702630" lon="-9.9603650">
    <ele>7.1</ele>
    <time>2025-12-26T13:00:26Z</time>
   </trkpt>
   <trkpt lat="53.3703150" lon="-9.9603800">
    <ele>5.2</ele>
    <time>2025-12-26T13:00:41Z</time>
   </trkpt>
   <trkpt lat="53.3703640" lon="-9.9604780">
    <ele>5.8</ele>
    <time>2025-12-26T13:00:47Z</time>
   </trkpt>
   <trkpt lat="53.3703970" lon="-9.9605400">
    <ele>6.5</ele>
    <time>2025-12-26T13:00:52Z</time>
   </trkpt>
   <trkpt lat="53.3704390" lon="-9.9605690">
    <ele>7.9</ele>
    <time>2025-12-26T13:00:58Z</time>
   </trkpt>
   <trkpt lat="53.3704900" lon="-9.9605670">
    <ele>8.5</ele>
    <time>2025-12-26T13:01:04Z</time>
   </trkpt>
   <trkpt lat="53.3705250" lon="-9.9606290">
    <ele>8.8</ele>
    <time>2025-12-26T13:01:10Z</time>
   </trkpt>
   <trkpt lat="53.3705660" lon="-9.9606610">
    <ele>7.1</ele>
    <time>2025-12-26T13:01:48Z</time>
   </trkpt>
   <trkpt lat="53.3706390" lon="-9.9607270">
    <ele>7.6</ele>
    <time>2025-12-26T13:01:54Z</time>
   </trkpt>
   <trkpt lat="53.3706920" lon="-9.9607460">
    <ele>7.8</ele>
    <time>2025-12-26T13:01:59Z</time>
   </trkpt>
   <trkpt lat="53.3707380" lon="-9.9607720">
    <ele>7.8</ele>
    <time>2025-12-26T13:02:05Z</time>
   </trkpt>
   <trkpt lat="53.3707820" lon="-9.9607900">
    <ele>7.6</ele>
    <time>2025-12-26T13:02:12Z</time>
   </trkpt>
   <trkpt lat="53.3708330" lon="-9.9607980">
    <ele>6.6</ele>
    <time>2025-12-26T13:02:38Z</time>
   </trkpt>
   <trkpt lat="53.3708660" lon="-9.9608530">
    <ele>7.6</ele>
    <time>2025-12-26T13:02:43Z</time>
   </trkpt>
   <trkpt lat="53.3709070" lon="-9.9608880">
    <ele>9.5</ele>
    <time>2025-12-26T13:02:52Z</time>
   </trkpt>
   <trkpt lat="53.3709650" lon="-9.9609300">
    <ele>9.3</ele>
    <time>2025-12-26T13:02:58Z</time>
   </trkpt>
   <trkpt lat="53.3710120" lon="-9.9609750">
    <ele>8.0</ele>
    <time>2025-12-26T13:03:03Z</time>
   </trkpt>
   <trkpt lat="53.3710540" lon="-9.9610120">
    <ele>7.8</ele>
    <time>2025-12-26T13:03:09Z</time>
   </trkpt>
   <trkpt lat="53.3710440" lon="-9.9610920">
    <ele>8.1</ele>
    <time>2025-12-26T13:03:23Z</time>
   </trkpt>
   <trkpt lat="53.3710550" lon="-9.9612110">
    <ele>8.0</ele>
    <time>2025-12-26T13:03:29Z</time>
   </trkpt>
   <trkpt lat="53.3710810" lon="-9.9612760">
    <ele>7.6</ele>
    <time>2025-12-26T13:03:34Z</time>
   </trkpt>
   <trkpt lat="53.3710660" lon="-9.9613530">
    <ele>7.0</ele>
    <time>2025-12-26T13:03:40Z</time>
   </trkpt>
   <trkpt lat="53.3710960" lon="-9.9614220">
    <ele>6.6</ele>
    <time>2025-12-26T13:03:45Z</time>
   </trkpt>
   <trkpt lat="53.3711130" lon="-9.9614920">
    <ele>6.7</ele>
    <time>2025-12-26T13:03:51Z</time>
   </trkpt>
   <trkpt lat="53.3711360" lon="-9.9615590">
    <ele>6.2</ele>
    <time>2025-12-26T13:04:03Z</time>
   </trkpt>
   <trkpt lat="53.3711430" lon="-9.9616380">
    <ele>6.0</ele>
    <time>2025-12-26T13:04:08Z</time>
   </trkpt>
   <trkpt lat="53.3711520" lon="-9.9617160">
    <ele>5.9</ele>
    <time>2025-12-26T13:04:14Z</time>
   </trkpt>
   <trkpt lat="53.3711450" lon="-9.9617950">
    <ele>3.2</ele>
    <time>2025-12-26T13:04:55Z</time>
   </trkpt>
   <trkpt lat="53.3711620" lon="-9.9619000">
    <ele>3.7</ele>
    <time>2025-12-26T13:05:00Z</time>
   </trkpt>
   <trkpt lat="53.3711570" lon="-9.9619950">
    <ele>2.7</ele>
    <time>2025-12-26T13:05:06Z</time>
   </trkpt>
   <trkpt lat="53.3711850" lon="-9.9620590">
    <ele>2.9</ele>
    <time>2025-12-26T13:05:14Z</time>
   </trkpt>
   <trkpt lat="53.3712230" lon="-9.9621000">
    <ele>3.6</ele>
    <time>2025-12-26T13:05:21Z</time>
   </trkpt>
   <trkpt lat="53.3712670" lon="-9.9621390">
    <ele>3.8</ele>
    <time>2025-12-26T13:05:27Z</time>
   </trkpt>
   <trkpt lat="53.3712990" lon="-9.9622090">
    <ele>3.2</ele>
    <time>2025-12-26T13:05:32Z</time>
   </trkpt>
   <trkpt lat="53.3713420" lon="-9.9622400">
    <ele>2.5</ele>
    <time>2025-12-26T13:05:40Z</time>
   </trkpt>
   <trkpt lat="53.3713860" lon="-9.9622160">
    <ele>3.0</ele>
    <time>2025-12-26T13:05:49Z</time>
   </trkpt>
   <trkpt lat="53.3714300" lon="-9.9622450">
    <ele>3.7</ele>
    <time>2025-12-26T13:05:55Z</time>
   </trkpt>
   <trkpt lat="53.3714620" lon="-9.9623300">
    <ele>3.5</ele>
    <time>2025-12-26T13:06:00Z</time>
   </trkpt>
   <trkpt lat="53.3714930" lon="-9.9624130">
    <ele>3.0</ele>
    <time>2025-12-26T13:06:06Z</time>
   </trkpt>
   <trkpt lat="53.3715070" lon="-9.9625080">
    <ele>2.9</ele>
    <time>2025-12-26T13:06:11Z</time>
   </trkpt>
   <trkpt lat="53.3715260" lon="-9.9625950">
    <ele>3.0</ele>
    <time>2025-12-26T13:06:16Z</time>
   </trkpt>
   <trkpt lat="53.3715370" lon="-9.9626760">
    <ele>2.7</ele>
    <time>2025-12-26T13:06:22Z</time>
   </trkpt>
   <trkpt lat="53.3715420" lon="-9.9627680">
    <ele>2.2</ele>
    <time>2025-12-26T13:06:27Z</time>
   </trkpt>
   <trkpt lat="53.3715690" lon="-9.9628650">
    <ele>2.1</ele>
    <time>2025-12-26T13:06:32Z</time>
   </trkpt>
   <trkpt lat="53.3715920" lon="-9.9629410">
    <ele>2.5</ele>
    <time>2025-12-26T13:06:38Z</time>
   </trkpt>
   <trkpt lat="53.3716040" lon="-9.9630310">
    <ele>3.0</ele>
    <time>2025-12-26T13:06:44Z</time>
   </trkpt>
   <trkpt lat="53.3716380" lon="-9.9630840">
    <ele>3.2</ele>
    <time>2025-12-26T13:06:49Z</time>
   </trkpt>
   <trkpt lat="53.3716820" lon="-9.9631400">
    <ele>3.1</ele>
    <time>2025-12-26T13:06:55Z</time>
   </trkpt>
   <trkpt lat="53.3717210" lon="-9.9631910">
    <ele>3.4</ele>
    <time>2025-12-26T13:07:00Z</time>
   </trkpt>
   <trkpt lat="53.3717640" lon="-9.9632150">
    <ele>3.5</ele>
    <time>2025-12-26T13:07:06Z</time>
   </trkpt>
   <trkpt lat="53.3718100" lon="-9.9631830">
    <ele>3.5</ele>
    <time>2025-12-26T13:07:12Z</time>
   </trkpt>
   <trkpt lat="53.3718550" lon="-9.9631720">
    <ele>3.9</ele>
    <time>2025-12-26T13:07:17Z</time>
   </trkpt>
   <trkpt lat="53.3718900" lon="-9.9632240">
    <ele>2.4</ele>
    <time>2025-12-26T13:07:33Z</time>
   </trkpt>
   <trkpt lat="53.3719170" lon="-9.9633090">
    <ele>2.6</ele>
    <time>2025-12-26T13:07:38Z</time>
   </trkpt>
   <trkpt lat="53.3719370" lon="-9.9633830">
    <ele>3.8</ele>
    <time>2025-12-26T13:07:46Z</time>
   </trkpt>
   <trkpt lat="53.3719750" lon="-9.9634730">
    <ele>4.0</ele>
    <time>2025-12-26T13:07:51Z</time>
   </trkpt>
   <trkpt lat="53.3719880" lon="-9.9635460">
    <ele>4.1</ele>
    <time>2025-12-26T13:07:57Z</time>
   </trkpt>
   <trkpt lat="53.3719880" lon="-9.9636260">
    <ele>3.9</ele>
    <time>2025-12-26T13:08:09Z</time>
   </trkpt>
   <trkpt lat="53.3719620" lon="-9.9636980">
    <ele>4.0</ele>
    <time>2025-12-26T13:08:15Z</time>
   </trkpt>
   <trkpt lat="53.3719910" lon="-9.9637680">
    <ele>4.0</ele>
    <time>2025-12-26T13:08:21Z</time>
   </trkpt>
   <trkpt lat="53.3720390" lon="-9.9637920">
    <ele>3.8</ele>
    <time>2025-12-26T13:08:29Z</time>
   </trkpt>
   <trkpt lat="53.3720380" lon="-9.9638780">
    <ele>3.9</ele>
    <time>2025-12-26T13:08:39Z</time>
   </trkpt>
   <trkpt lat="53.3720470" lon="-9.9639660">
    <ele>2.8</ele>
    <time>2025-12-26T13:09:01Z</time>
   </trkpt>
   <trkpt lat="53.3720190" lon="-9.9640370">
    <ele>3.3</ele>
    <time>2025-12-26T13:09:07Z</time>
   </trkpt>
   <trkpt lat="53.3720140" lon="-9.9641270">
    <ele>3.4</ele>
    <time>2025-12-26T13:09:12Z</time>
   </trkpt>
   <trkpt lat="53.3719970" lon="-9.9642060">
    <ele>2.7</ele>
    <time>2025-12-26T13:09:18Z</time>
   </trkpt>
   <trkpt lat="53.3719770" lon="-9.9642740">
    <ele>2.2</ele>
    <time>2025-12-26T13:09:23Z</time>
   </trkpt>
   <trkpt lat="53.3719810" lon="-9.9643710">
    <ele>2.0</ele>
    <time>2025-12-26T13:09:29Z</time>
   </trkpt>
   <trkpt lat="53.3720060" lon="-9.9644550">
    <ele>2.0</ele>
    <time>2025-12-26T13:09:34Z</time>
   </trkpt>
   <trkpt lat="53.3720420" lon="-9.9645110">
    <ele>2.3</ele>
    <time>2025-12-26T13:09:40Z</time>
   </trkpt>
   <trkpt lat="53.3720900" lon="-9.9645240">
    <ele>2.4</ele>
    <time>2025-12-26T13:09:46Z</time>
   </trkpt>
   <trkpt lat="53.3721450" lon="-9.9645460">
    <ele>2.4</ele>
    <time>2025-12-26T13:09:51Z</time>
   </trkpt>
   <trkpt lat="53.3721860" lon="-9.9645940">
    <ele>2.5</ele>
    <time>2025-12-26T13:09:57Z</time>
   </trkpt>
   <trkpt lat="53.3722330" lon="-9.9646220">
    <ele>2.6</ele>
    <time>2025-12-26T13:10:02Z</time>
   </trkpt>
   <trkpt lat="53.3722780" lon="-9.9646750">
    <ele>3.0</ele>
    <time>2025-12-26T13:10:07Z</time>
   </trkpt>
   <trkpt lat="53.3723260" lon="-9.9647410">
    <ele>3.2</ele>
    <time>2025-12-26T13:10:13Z</time>
   </trkpt>
   <trkpt lat="53.3723680" lon="-9.9647750">
    <ele>3.0</ele>
    <time>2025-12-26T13:10:18Z</time>
   </trkpt>
   <trkpt lat="53.3724070" lon="-9.9648140">
    <ele>3.0</ele>
    <time>2025-12-26T13:10:23Z</time>
   </trkpt>
   <trkpt lat="53.3724510" lon="-9.9648660">
    <ele>3.2</ele>
    <time>2025-12-26T13:10:29Z</time>
   </trkpt>
   <trkpt lat="53.3725130" lon="-9.9648670">
    <ele>3.5</ele>
    <time>2025-12-26T13:10:34Z</time>
   </trkpt>
   <trkpt lat="53.3725580" lon="-9.9648610">
    <ele>3.7</ele>
    <time>2025-12-26T13:10:42Z</time>
   </trkpt>
   <trkpt lat="53.3726030" lon="-9.9648730">
    <ele>3.8</ele>
    <time>2025-12-26T13:10:48Z</time>
   </trkpt>
   <trkpt lat="53.3726600" lon="-9.9648740">
    <ele>4.2</ele>
    <time>2025-12-26T13:10:53Z</time>
   </trkpt>
   <trkpt lat="53.3727160" lon="-9.9648650">
    <ele>4.9</ele>
    <time>2025-12-26T13:10:59Z</time>
   </trkpt>
   <trkpt lat="53.3727620" lon="-9.9648600">
    <ele>6.2</ele>
    <time>2025-12-26T13:11:05Z</time>
   </trkpt>
   <trkpt lat="53.3727860" lon="-9.9649250">
    <ele>6.8</ele>
    <time>2025-12-26T13:11:11Z</time>
   </trkpt>
   <trkpt lat="53.3728070" lon="-9.9650010">
    <ele>6.5</ele>
    <time>2025-12-26T13:11:16Z</time>
   </trkpt>
   <trkpt lat="53.3728410" lon="-9.9650800">
    <ele>5.8</ele>
    <time>2025-12-26T13:11:21Z</time>
   </trkpt>
   <trkpt lat="53.3728680" lon="-9.9651780">
    <ele>5.3</ele>
    <time>2025-12-26T13:11:27Z</time>
   </trkpt>
   <trkpt lat="53.3728880" lon="-9.9652640">
    <ele>5.8</ele>
    <time>2025-12-26T13:11:32Z</time>
   </trkpt>
   <trkpt lat="53.3729150" lon="-9.9653340">
    <ele>6.3</ele>
    <time>2025-12-26T13:11:37Z</time>
   </trkpt>
   <trkpt lat="53.3729490" lon="-9.9654060">
    <ele>6.4</ele>
    <time>2025-12-26T13:11:43Z</time>
   </trkpt>
   <trkpt lat="53.3729890" lon="-9.9654790">
    <ele>6.8</ele>
    <time>2025-12-26T13:11:48Z</time>
   </trkpt>
   <trkpt lat="53.3730290" lon="-9.9655320">
    <ele>7.1</ele>
    <time>2025-12-26T13:11:53Z</time>
   </trkpt>
   <trkpt lat="53.3730480" lon="-9.9656030">
    <ele>7.1</ele>
    <time>2025-12-26T13:11:58Z</time>
   </trkpt>
   <trkpt lat="53.3730940" lon="-9.9656840">
    <ele>6.8</ele>
    <time>2025-12-26T13:12:04Z</time>
   </trkpt>
   <trkpt lat="53.3731320" lon="-9.9657400">
    <ele>6.7</ele>
    <time>2025-12-26T13:12:09Z</time>
   </trkpt>
   <trkpt lat="53.3731660" lon="-9.9658110">
    <ele>7.1</ele>
    <time>2025-12-26T13:12:15Z</time>
   </trkpt>
   <trkpt lat="53.3731850" lon="-9.9658900">
    <ele>7.5</ele>
    <time>2025-12-26T13:12:20Z</time>
   </trkpt>
   <trkpt lat="53.3732160" lon="-9.9659670">
    <ele>7.4</ele>
    <time>2025-12-26T13:12:25Z</time>
   </trkpt>
   <trkpt lat="53.3732610" lon="-9.9660300">
    <ele>7.0</ele>
    <time>2025-12-26T13:12:30Z</time>
   </trkpt>
   <trkpt lat="53.3733140" lon="-9.9661000">
    <ele>6.5</ele>
    <time>2025-12-26T13:12:36Z</time>
   </trkpt>
   <trkpt lat="53.3733560" lon="-9.9661500">
    <ele>6.3</ele>
    <time>2025-12-26T13:12:41Z</time>
   </trkpt>
   <trkpt lat="53.3733950" lon="-9.9662100">
    <ele>6.7</ele>
    <time>2025-12-26T13:12:46Z</time>
   </trkpt>
   <trkpt lat="53.3734400" lon="-9.9662430">
    <ele>6.8</ele>
    <time>2025-12-26T13:12:54Z</time>
   </trkpt>
   <trkpt lat="53.3734890" lon="-9.9662890">
    <ele>6.9</ele>
    <time>2025-12-26T13:12:59Z</time>
   </trkpt>
   <trkpt lat="53.3735210" lon="-9.9663640">
    <ele>7.3</ele>
    <time>2025-12-26T13:13:05Z</time>
   </trkpt>
   <trkpt lat="53.3735500" lon="-9.9664250">
    <ele>7.7</ele>
    <time>2025-12-26T13:13:10Z</time>
   </trkpt>
   <trkpt lat="53.3735830" lon="-9.9664840">
    <ele>7.2</ele>
    <time>2025-12-26T13:13:19Z</time>
   </trkpt>
   <trkpt lat="53.3736160" lon="-9.9665780">
    <ele>7.5</ele>
    <time>2025-12-26T13:13:25Z</time>
   </trkpt>
   <trkpt lat="53.3736380" lon="-9.9666540">
    <ele>8.5</ele>
    <time>2025-12-26T13:13:30Z</time>
   </trkpt>
   <trkpt lat="53.3736660" lon="-9.9667260">
    <ele>8.8</ele>
    <time>2025-12-26T13:13:36Z</time>
   </trkpt>
   <trkpt lat="53.3736880" lon="-9.9668080">
    <ele>8.4</ele>
    <time>2025-12-26T13:13:41Z</time>
   </trkpt>
   <trkpt lat="53.3737180" lon="-9.9668650">
    <ele>7.9</ele>
    <time>2025-12-26T13:13:47Z</time>
   </trkpt>
   <trkpt lat="53.3737490" lon="-9.9669350">
    <ele>7.4</ele>
    <time>2025-12-26T13:13:52Z</time>
   </trkpt>
   <trkpt lat="53.3737850" lon="-9.9669970">
    <ele>7.0</ele>
    <time>2025-12-26T13:13:57Z</time>
   </trkpt>
   <trkpt lat="53.3738000" lon="-9.9670790">
    <ele>7.5</ele>
    <time>2025-12-26T13:14:02Z</time>
   </trkpt>
   <trkpt lat="53.3738370" lon="-9.9671290">
    <ele>8.9</ele>
    <time>2025-12-26T13:14:07Z</time>
   </trkpt>
   <trkpt lat="53.3738760" lon="-9.9671670">
    <ele>6.5</ele>
    <time>2025-12-26T13:15:22Z</time>
   </trkpt>
   <trkpt lat="53.3738970" lon="-9.9672660">
    <ele>5.3</ele>
    <time>2025-12-26T13:15:27Z</time>
   </trkpt>
   <trkpt lat="53.3738960" lon="-9.9673900">
    <ele>-0.6</ele>
    <time>2025-12-26T13:15:32Z</time>
   </trkpt>
   <trkpt lat="53.3739050" lon="-9.9674710">
    <ele>3.8</ele>
    <time>2025-12-26T13:15:37Z</time>
   </trkpt>
   <trkpt lat="53.3739110" lon="-9.9675520">
    <ele>7.4</ele>
    <time>2025-12-26T13:15:42Z</time>
   </trkpt>
   <trkpt lat="53.3739270" lon="-9.9676230">
    <ele>8.1</ele>
    <time>2025-12-26T13:15:47Z</time>
   </trkpt>
   <trkpt lat="53.3739460" lon="-9.9676910">
    <ele>8.6</ele>
    <time>2025-12-26T13:16:03Z</time>
   </trkpt>
   <trkpt lat="53.3739750" lon="-9.9678510">
    <ele>8.8</ele>
    <time>2025-12-26T13:16:08Z</time>
   </trkpt>
   <trkpt lat="53.3739860" lon="-9.9679710">
    <ele>8.6</ele>
    <time>2025-12-26T13:16:13Z</time>
   </trkpt>
   <trkpt lat="53.3740000" lon="-9.9680690">
    <ele>9.0</ele>
    <time>2025-12-26T13:16:18Z</time>
   </trkpt>
   <trkpt lat="53.3740020" lon="-9.9681510">
    <ele>5.0</ele>
    <time>2025-12-26T13:16:24Z</time>
   </trkpt>
   <trkpt lat="53.3739890" lon="-9.9682290">
    <ele>-0.4</ele>
    <time>2025-12-26T13:16:29Z</time>
   </trkpt>
   <trkpt lat="53.3739870" lon="-9.9683090">
    <ele>-2.9</ele>
    <time>2025-12-26T13:16:34Z</time>
   </trkpt>
   <trkpt lat="53.3739640" lon="-9.9683940">
    <ele>-4.1</ele>
    <time>2025-12-26T13:16:39Z</time>
   </trkpt>
   <trkpt lat="53.3739850" lon="-9.9684840">
    <ele>3.9</ele>
    <time>2025-12-26T13:17:24Z</time>
   </trkpt>
   <trkpt lat="53.3739760" lon="-9.9685850">
    <ele>4.4</ele>
    <time>2025-12-26T13:17:29Z</time>
   </trkpt>
   <trkpt lat="53.3739700" lon="-9.9687080">
    <ele>5.2</ele>
    <time>2025-12-26T13:17:35Z</time>
   </trkpt>
   <trkpt lat="53.3739660" lon="-9.9687960">
    <ele>5.6</ele>
    <time>2025-12-26T13:17:40Z</time>
   </trkpt>
   <trkpt lat="53.3739530" lon="-9.9688850">
    <ele>6.3</ele>
    <time>2025-12-26T13:17:45Z</time>
   </trkpt>
   <trkpt lat="53.3739350" lon="-9.9689870">
    <ele>6.1</ele>
    <time>2025-12-26T13:17:51Z</time>
   </trkpt>
   <trkpt lat="53.3739280" lon="-9.9690680">
    <ele>6.1</ele>
    <time>2025-12-26T13:17:56Z</time>
   </trkpt>
   <trkpt lat="53.3739210" lon="-9.9691690">
    <ele>6.2</ele>
    <time>2025-12-26T13:18:02Z</time>
   </trkpt>
   <trkpt lat="53.3739200" lon="-9.9692590">
    <ele>6.1</ele>
    <time>2025-12-26T13:18:07Z</time>
   </trkpt>
   <trkpt lat="53.3739030" lon="-9.9693360">
    <ele>6.2</ele>
    <time>2025-12-26T13:18:12Z</time>
   </trkpt>
   <trkpt lat="53.3738870" lon="-9.9694250">
    <ele>6.2</ele>
    <time>2025-12-26T13:18:17Z</time>
   </trkpt>
   <trkpt lat="53.3738890" lon="-9.9695100">
    <ele>3.2</ele>
    <time>2025-12-26T13:18:58Z</time>
   </trkpt>
   <trkpt lat="53.3738710" lon="-9.9696450">
    <ele>4.4</ele>
    <time>2025-12-26T13:19:04Z</time>
   </trkpt>
   <trkpt lat="53.3738450" lon="-9.9697120">
    <ele>5.9</ele>
    <time>2025-12-26T13:19:09Z</time>
   </trkpt>
   <trkpt lat="53.3737960" lon="-9.9697820">
    <ele>6.9</ele>
    <time>2025-12-26T13:19:14Z</time>
   </trkpt>
   <trkpt lat="53.3737640" lon="-9.9698450">
    <ele>7.0</ele>
    <time>2025-12-26T13:19:19Z</time>
   </trkpt>
   <trkpt lat="53.3737410" lon="-9.9699500">
    <ele>6.9</ele>
    <time>2025-12-26T13:19:24Z</time>
   </trkpt>
   <trkpt lat="53.3737080" lon="-9.9700220">
    <ele>6.7</ele>
    <time>2025-12-26T13:19:30Z</time>
   </trkpt>
   <trkpt lat="53.3736620" lon="-9.9700860">
    <ele>6.1</ele>
    <time>2025-12-26T13:19:35Z</time>
   </trkpt>
   <trkpt lat="53.3736230" lon="-9.9701430">
    <ele>5.7</ele>
    <time>2025-12-26T13:19:40Z</time>
   </trkpt>
   <trkpt lat="53.3735890" lon="-9.9701990">
    <ele>5.6</ele>
    <time>2025-12-26T13:19:47Z</time>
   </trkpt>
   <trkpt lat="53.3735620" lon="-9.9702720">
    <ele>6.3</ele>
    <time>2025-12-26T13:19:52Z</time>
   </trkpt>
   <trkpt lat="53.3735240" lon="-9.9703170">
    <ele>6.4</ele>
    <time>2025-12-26T13:19:57Z</time>
   </trkpt>
   <trkpt lat="53.3734860" lon="-9.9703600">
    <ele>5.7</ele>
    <time>2025-12-26T13:20:02Z</time>
   </trkpt>
   <trkpt lat="53.3734740" lon="-9.9704340">
    <ele>5.4</ele>
    <time>2025-12-26T13:20:07Z</time>
   </trkpt>
   <trkpt lat="53.3734290" lon="-9.9704450">
    <ele>5.0</ele>
    <time>2025-12-26T13:20:13Z</time>
   </trkpt>
   <trkpt lat="53.3733890" lon="-9.9704940">
    <ele>4.4</ele>
    <time>2025-12-26T13:20:21Z</time>
   </trkpt>
   <trkpt lat="53.3733210" lon="-9.9705450">
    <ele>4.6</ele>
    <time>2025-12-26T13:20:26Z</time>
   </trkpt>
   <trkpt lat="53.3732830" lon="-9.9706010">
    <ele>4.4</ele>
    <time>2025-12-26T13:20:31Z</time>
   </trkpt>
   <trkpt lat="53.3732410" lon="-9.9706330">
    <ele>3.8</ele>
    <time>2025-12-26T13:20:36Z</time>
   </trkpt>
   <trkpt lat="53.3731990" lon="-9.9706760">
    <ele>3.5</ele>
    <time>2025-12-26T13:20:42Z</time>
   </trkpt>
   <trkpt lat="53.3731430" lon="-9.9706740">
    <ele>0.5</ele>
    <time>2025-12-26T13:20:58Z</time>
   </trkpt>
   <trkpt lat="53.3730850" lon="-9.9707090">
    <ele>2.0</ele>
    <time>2025-12-26T13:21:03Z</time>
   </trkpt>
   <trkpt lat="53.3730430" lon="-9.9706750">
    <ele>2.2</ele>
    <time>2025-12-26T13:21:11Z</time>
   </trkpt>
   <trkpt lat="53.3730090" lon="-9.9706060">
    <ele>1.1</ele>
    <time>2025-12-26T13:21:16Z</time>
   </trkpt>
   <trkpt lat="53.3729610" lon="-9.9705720">
    <ele>0.6</ele>
    <time>2025-12-26T13:21:22Z</time>
   </trkpt>
   <trkpt lat="53.3729270" lon="-9.9705060">
    <ele>0.8</ele>
    <time>2025-12-26T13:21:27Z</time>
   </trkpt>
   <trkpt lat="53.3728840" lon="-9.9704830">
    <ele>-0.5</ele>
    <time>2025-12-26T13:23:09Z</time>
   </trkpt>
   <trkpt lat="53.3728310" lon="-9.9704240">
    <ele>-0.1</ele>
    <time>2025-12-26T13:23:15Z</time>
   </trkpt>
   <trkpt lat="53.3727750" lon="-9.9704180">
    <ele>0.6</ele>
    <time>2025-12-26T13:23:20Z</time>
   </trkpt>
   <trkpt lat="53.3727170" lon="-9.9704230">
    <ele>0.8</ele>
    <time>2025-12-26T13:23:25Z</time>
   </trkpt>
   <trkpt lat="53.3726590" lon="-9.9704420">
    <ele>1.3</ele>
    <time>2025-12-26T13:23:31Z</time>
   </trkpt>
   <trkpt lat="53.3726000" lon="-9.9704590">
    <ele>1.8</ele>
    <time>2025-12-26T13:23:36Z</time>
   </trkpt>
   <trkpt lat="53.3725560" lon="-9.9704850">
    <ele>2.1</ele>
    <time>2025-12-26T13:23:41Z</time>
   </trkpt>
   <trkpt lat="53.3725110" lon="-9.9704910">
    <ele>2.1</ele>
    <time>2025-12-26T13:23:51Z</time>
   </trkpt>
   <trkpt lat="53.3724690" lon="-9.9705570">
    <ele>2.0</ele>
    <time>2025-12-26T13:23:56Z</time>
   </trkpt>
   <trkpt lat="53.3724300" lon="-9.9706490">
    <ele>1.9</ele>
    <time>2025-12-26T13:24:01Z</time>
   </trkpt>
   <trkpt lat="53.3724340" lon="-9.9707240">
    <ele>1.4</ele>
    <time>2025-12-26T13:24:11Z</time>
   </trkpt>
   <trkpt lat="53.3724550" lon="-9.9708100">
    <ele>1.5</ele>
    <time>2025-12-26T13:24:16Z</time>
   </trkpt>
   <trkpt lat="53.3724770" lon="-9.9708880">
    <ele>2.8</ele>
    <time>2025-12-26T13:24:22Z</time>
   </trkpt>
   <trkpt lat="53.3724870" lon="-9.9709630">
    <ele>3.8</ele>
    <time>2025-12-26T13:24:29Z</time>
   </trkpt>
   <trkpt lat="53.3724820" lon="-9.9710460">
    <ele>3.4</ele>
    <time>2025-12-26T13:24:35Z</time>
   </trkpt>
   <trkpt lat="53.3724550" lon="-9.9711200">
    <ele>3.3</ele>
    <time>2025-12-26T13:24:41Z</time>
   </trkpt>
   <trkpt lat="53.3724170" lon="-9.9711620">
    <ele>2.4</ele>
    <time>2025-12-26T13:25:24Z</time>
   </trkpt>
   <trkpt lat="53.3723810" lon="-9.9712340">
    <ele>3.3</ele>
    <time>2025-12-26T13:25:30Z</time>
   </trkpt>
   <trkpt lat="53.3723440" lon="-9.9712770">
    <ele>3.9</ele>
    <time>2025-12-26T13:25:36Z</time>
   </trkpt>
   <trkpt lat="53.3723030" lon="-9.9713330">
    <ele>4.5</ele>
    <time>2025-12-26T13:25:41Z</time>
   </trkpt>
   <trkpt lat="53.3722620" lon="-9.9713750">
    <ele>5.1</ele>
    <time>2025-12-26T13:25:47Z</time>
   </trkpt>
   <trkpt lat="53.3722130" lon="-9.9713370">
    <ele>5.2</ele>
    <time>2025-12-26T13:25:52Z</time>
   </trkpt>
   <trkpt lat="53.3721700" lon="-9.9713780">
    <ele>5.0</ele>
    <time>2025-12-26T13:25:57Z</time>
   </trkpt>
   <trkpt lat="53.3721350" lon="-9.9714450">
    <ele>4.6</ele>
    <time>2025-12-26T13:26:03Z</time>
   </trkpt>
   <trkpt lat="53.3720990" lon="-9.9714940">
    <ele>4.4</ele>
    <time>2025-12-26T13:26:09Z</time>
   </trkpt>
   <trkpt lat="53.3720780" lon="-9.9715720">
    <ele>4.6</ele>
    <time>2025-12-26T13:26:22Z</time>
   </trkpt>
   <trkpt lat="53.3720290" lon="-9.9716550">
    <ele>4.7</ele>
    <time>2025-12-26T13:26:27Z</time>
   </trkpt>
   <trkpt lat="53.3719830" lon="-9.9716620">
    <ele>4.6</ele>
    <time>2025-12-26T13:26:41Z</time>
   </trkpt>
   <trkpt lat="53.3719330" lon="-9.9717220">
    <ele>4.8</ele>
    <time>2025-12-26T13:26:46Z</time>
   </trkpt>
   <trkpt lat="53.3718860" lon="-9.9717770">
    <ele>4.9</ele>
    <time>2025-12-26T13:26:51Z</time>
   </trkpt>
   <trkpt lat="53.3718430" lon="-9.9718060">
    <ele>4.2</ele>
    <time>2025-12-26T13:26:58Z</time>
   </trkpt>
   <trkpt lat="53.3718080" lon="-9.9718640">
    <ele>3.9</ele>
    <time>2025-12-26T13:27:05Z</time>
   </trkpt>
   <trkpt lat="53.3717650" lon="-9.9719000">
    <ele>4.3</ele>
    <time>2025-12-26T13:27:11Z</time>
   </trkpt>
   <trkpt lat="53.3717350" lon="-9.9719670">
    <ele>5.2</ele>
    <time>2025-12-26T13:27:18Z</time>
   </trkpt>
   <trkpt lat="53.3717110" lon="-9.9720340">
    <ele>6.0</ele>
    <time>2025-12-26T13:27:23Z</time>
   </trkpt>
   <trkpt lat="53.3717390" lon="-9.9720980">
    <ele>7.8</ele>
    <time>2025-12-26T13:55:28Z</time>
   </trkpt>
   <trkpt lat="53.3717480" lon="-9.9721840">
    <ele>8.0</ele>
    <time>2025-12-26T13:55:34Z</time>
   </trkpt>
   <trkpt lat="53.3717600" lon="-9.9722970">
    <ele>8.2</ele>
    <time>2025-12-26T13:55:39Z</time>
   </trkpt>
   <trkpt lat="53.3717750" lon="-9.9724050">
    <ele>8.1</ele>
    <time>2025-12-26T13:55:44Z</time>
   </trkpt>
   <trkpt lat="53.3717840" lon="-9.9725220">
    <ele>8.0</ele>
    <time>2025-12-26T13:55:49Z</time>
   </trkpt>
   <trkpt lat="53.3717710" lon="-9.9726270">
    <ele>7.8</ele>
    <time>2025-12-26T13:55:55Z</time>
   </trkpt>
   <trkpt lat="53.3717740" lon="-9.9727330">
    <ele>7.5</ele>
    <time>2025-12-26T13:56:00Z</time>
   </trkpt>
   <trkpt lat="53.3717730" lon="-9.9728600">
    <ele>7.5</ele>
    <time>2025-12-26T13:56:05Z</time>
   </trkpt>
   <trkpt lat="53.3717720" lon="-9.9730090">
    <ele>7.5</ele>
    <time>2025-12-26T13:56:11Z</time>
   </trkpt>
   <trkpt lat="53.3717570" lon="-9.9730840">
    <ele>7.5</ele>
    <time>2025-12-26T13:56:18Z</time>
   </trkpt>
   <trkpt lat="53.3717650" lon="-9.9731610">
    <ele>7.5</ele>
    <time>2025-12-26T13:56:24Z</time>
   </trkpt>
   <trkpt lat="53.3717920" lon="-9.9732250">
    <ele>7.6</ele>
    <time>2025-12-26T13:56:34Z</time>
   </trkpt>
   <trkpt lat="53.3718320" lon="-9.9732610">
    <ele>7.3</ele>
    <time>2025-12-26T13:56:40Z</time>
   </trkpt>
   <trkpt lat="53.3718720" lon="-9.9733000">
    <ele>7.6</ele>
    <time>2025-12-26T13:56:49Z</time>
   </trkpt>
   <trkpt lat="53.3718550" lon="-9.9733740">
    <ele>8.0</ele>
    <time>2025-12-26T13:56:59Z</time>
   </trkpt>
   <trkpt lat="53.3718150" lon="-9.9734200">
    <ele>8.7</ele>
    <time>2025-12-26T13:57:16Z</time>
   </trkpt>
   <trkpt lat="53.3718180" lon="-9.9735460">
    <ele>8.6</ele>
    <time>2025-12-26T13:57:21Z</time>
   </trkpt>
   <trkpt lat="53.3718650" lon="-9.9735340">
    <ele>7.8</ele>
    <time>2025-12-26T13:57:48Z</time>
   </trkpt>
   <trkpt lat="53.3719070" lon="-9.9735800">
    <ele>6.1</ele>
    <time>2025-12-26T13:57:54Z</time>
   </trkpt>
   <trkpt lat="53.3719550" lon="-9.9736260">
    <ele>5.5</ele>
    <time>2025-12-26T13:58:00Z</time>
   </trkpt>
   <trkpt lat="53.3720000" lon="-9.9736540">
    <ele>5.5</ele>
    <time>2025-12-26T13:58:05Z</time>
   </trkpt>
   <trkpt lat="53.3720440" lon="-9.9736750">
    <ele>6.1</ele>
    <time>2025-12-26T13:58:14Z</time>
   </trkpt>
   <trkpt lat="53.3720930" lon="-9.9736980">
    <ele>7.3</ele>
    <time>2025-12-26T13:58:20Z</time>
   </trkpt>
   <trkpt lat="53.3721200" lon="-9.9737610">
    <ele>6.8</ele>
    <time>2025-12-26T13:58:29Z</time>
   </trkpt>
   <trkpt lat="53.3721610" lon="-9.9738160">
    <ele>6.7</ele>
    <time>2025-12-26T13:58:34Z</time>
   </trkpt>
   <trkpt lat="53.3722040" lon="-9.9737850">
    <ele>6.7</ele>
    <time>2025-12-26T13:58:41Z</time>
   </trkpt>
   <trkpt lat="53.3722430" lon="-9.9738360">
    <ele>6.9</ele>
    <time>2025-12-26T13:58:51Z</time>
   </trkpt>
   <trkpt lat="53.3722980" lon="-9.9738860">
    <ele>7.1</ele>
    <time>2025-12-26T13:58:57Z</time>
   </trkpt>
   <trkpt lat="53.3723480" lon="-9.9738530">
    <ele>7.8</ele>
    <time>2025-12-26T13:59:10Z</time>
   </trkpt>
   <trkpt lat="53.3724030" lon="-9.9738500">
    <ele>7.9</ele>
    <time>2025-12-26T13:59:15Z</time>
   </trkpt>
   <trkpt lat="53.3724380" lon="-9.9739020">
    <ele>7.6</ele>
    <time>2025-12-26T13:59:21Z</time>
   </trkpt>
   <trkpt lat="53.3724960" lon="-9.9739110">
    <ele>7.5</ele>
    <time>2025-12-26T13:59:27Z</time>
   </trkpt>
   <trkpt lat="53.3725380" lon="-9.9739520">
    <ele>7.0</ele>
    <time>2025-12-26T13:59:42Z</time>
   </trkpt>
   <trkpt lat="53.3725940" lon="-9.9740000">
    <ele>6.6</ele>
    <time>2025-12-26T13:59:48Z</time>
   </trkpt>
   <trkpt lat="53.3726280" lon="-9.9740520">
    <ele>6.1</ele>
    <time>2025-12-26T13:59:53Z</time>
   </trkpt>
   <trkpt lat="53.3726700" lon="-9.9740950">
    <ele>5.6</ele>
    <time>2025-12-26T13:59:58Z</time>
   </trkpt>
   <trkpt lat="53.3727160" lon="-9.9741240">
    <ele>5.3</ele>
    <time>2025-12-26T14:00:03Z</time>
   </trkpt>
   <trkpt lat="53.3727310" lon="-9.9741980">
    <ele>5.1</ele>
    <time>2025-12-26T14:00:11Z</time>
   </trkpt>
   <trkpt lat="53.3727720" lon="-9.9742650">
    <ele>5.0</ele>
    <time>2025-12-26T14:00:23Z</time>
   </trkpt>
   <trkpt lat="53.3727900" lon="-9.9743480">
    <ele>5.0</ele>
    <time>2025-12-26T14:00:33Z</time>
   </trkpt>
   <trkpt lat="53.3728080" lon="-9.9744400">
    <ele>5.2</ele>
    <time>2025-12-26T14:00:38Z</time>
   </trkpt>
   <trkpt lat="53.3728330" lon="-9.9745090">
    <ele>5.4</ele>
    <time>2025-12-26T14:00:43Z</time>
   </trkpt>
   <trkpt lat="53.3728440" lon="-9.9745880">
    <ele>5.5</ele>
    <time>2025-12-26T14:00:51Z</time>
   </trkpt>
   <trkpt lat="53.3728950" lon="-9.9746130">
    <ele>5.9</ele>
    <time>2025-12-26T14:01:05Z</time>
   </trkpt>
   <trkpt lat="53.3729260" lon="-9.9746840">
    <ele>6.8</ele>
    <time>2025-12-26T14:01:16Z</time>
   </trkpt>
   <trkpt lat="53.3729740" lon="-9.9747400">
    <ele>6.9</ele>
    <time>2025-12-26T14:01:21Z</time>
   </trkpt>
   <trkpt lat="53.3730000" lon="-9.9748050">
    <ele>6.7</ele>
    <time>2025-12-26T14:01:27Z</time>
   </trkpt>
   <trkpt lat="53.3730340" lon="-9.9748640">
    <ele>6.6</ele>
    <time>2025-12-26T14:01:33Z</time>
   </trkpt>
   <trkpt lat="53.3730670" lon="-9.9749360">
    <ele>7.0</ele>
    <time>2025-12-26T14:01:48Z</time>
   </trkpt>
   <trkpt lat="53.3730960" lon="-9.9749980">
    <ele>7.1</ele>
    <time>2025-12-26T14:01:53Z</time>
   </trkpt>
   <trkpt lat="53.3731400" lon="-9.9750310">
    <ele>7.0</ele>
    <time>2025-12-26T14:02:00Z</time>
   </trkpt>
   <trkpt lat="53.3731720" lon="-9.9750920">
    <ele>6.9</ele>
    <time>2025-12-26T14:02:06Z</time>
   </trkpt>
   <trkpt lat="53.3732180" lon="-9.9751070">
    <ele>6.6</ele>
    <time>2025-12-26T14:02:13Z</time>
   </trkpt>
   <trkpt lat="53.3732660" lon="-9.9751290">
    <ele>6.5</ele>
    <time>2025-12-26T14:02:19Z</time>
   </trkpt>
   <trkpt lat="53.3733130" lon="-9.9751390">
    <ele>7.2</ele>
    <time>2025-12-26T14:02:49Z</time>
   </trkpt>
   <trkpt lat="53.3733750" lon="-9.9751970">
    <ele>6.3</ele>
    <time>2025-12-26T14:02:54Z</time>
   </trkpt>
   <trkpt lat="53.3734120" lon="-9.9751410">
    <ele>5.6</ele>
    <time>2025-12-26T14:03:05Z</time>
   </trkpt>
   <trkpt lat="53.3734550" lon="-9.9750880">
    <ele>5.5</ele>
    <time>2025-12-26T14:03:10Z</time>
   </trkpt>
   <trkpt lat="53.3734950" lon="-9.9751390">
    <ele>5.7</ele>
    <time>2025-12-26T14:03:19Z</time>
   </trkpt>
   <trkpt lat="53.3735510" lon="-9.9751690">
    <ele>5.9</ele>
    <time>2025-12-26T14:03:24Z</time>
   </trkpt>
   <trkpt lat="53.3735920" lon="-9.9751990">
    <ele>6.2</ele>
    <time>2025-12-26T14:03:29Z</time>
   </trkpt>
   <trkpt lat="53.3736400" lon="-9.9752250">
    <ele>6.6</ele>
    <time>2025-12-26T14:03:35Z</time>
   </trkpt>
   <trkpt lat="53.3736890" lon="-9.9752220">
    <ele>6.8</ele>
    <time>2025-12-26T14:03:41Z</time>
   </trkpt>
   <trkpt lat="53.3737360" lon="-9.9752190">
    <ele>6.8</ele>
    <time>2025-12-26T14:03:47Z</time>
   </trkpt>
   <trkpt lat="53.3737810" lon="-9.9752840">
    <ele>6.5</ele>
    <time>2025-12-26T14:03:52Z</time>
   </trkpt>
   <trkpt lat="53.3738010" lon="-9.9753530">
    <ele>6.3</ele>
    <time>2025-12-26T14:03:58Z</time>
   </trkpt>
   <trkpt lat="53.3738410" lon="-9.9753900">
    <ele>6.4</ele>
    <time>2025-12-26T14:04:04Z</time>
   </trkpt>
   <trkpt lat="53.3738540" lon="-9.9754740">
    <ele>6.4</ele>
    <time>2025-12-26T14:04:10Z</time>
   </trkpt>
   <trkpt lat="53.3738830" lon="-9.9755350">
    <ele>6.6</ele>
    <time>2025-12-26T14:04:21Z</time>
   </trkpt>
   <trkpt lat="53.3739120" lon="-9.9756340">
    <ele>6.8</ele>
    <time>2025-12-26T14:04:27Z</time>
   </trkpt>
   <trkpt lat="53.3739280" lon="-9.9757110">
    <ele>7.3</ele>
    <time>2025-12-26T14:04:34Z</time>
   </trkpt>
   <trkpt lat="53.3739680" lon="-9.9757640">
    <ele>7.5</ele>
    <time>2025-12-26T14:04:48Z</time>
   </trkpt>
   <trkpt lat="53.3739970" lon="-9.9758270">
    <ele>8.1</ele>
    <time>2025-12-26T14:04:55Z</time>
   </trkpt>
   <trkpt lat="53.3740080" lon="-9.9759050">
    <ele>8.9</ele>
    <time>2025-12-26T14:05:03Z</time>
   </trkpt>
   <trkpt lat="53.3740320" lon="-9.9759800">
    <ele>9.5</ele>
    <time>2025-12-26T14:05:17Z</time>
   </trkpt>
   <trkpt lat="53.3740240" lon="-9.9760560">
    <ele>9.3</ele>
    <time>2025-12-26T14:05:24Z</time>
   </trkpt>
   <trkpt lat="53.3740200" lon="-9.9761360">
    <ele>8.6</ele>
    <time>2025-12-26T14:05:33Z</time>
   </trkpt>
   <trkpt lat="53.3740470" lon="-9.9762320">
    <ele>8.2</ele>
    <time>2025-12-26T14:05:38Z</time>
   </trkpt>
   <trkpt lat="53.3740750" lon="-9.9762930">
    <ele>7.9</ele>
    <time>2025-12-26T14:05:44Z</time>
   </trkpt>
   <trkpt lat="53.3741130" lon="-9.9763420">
    <ele>7.6</ele>
    <time>2025-12-26T14:05:51Z</time>
   </trkpt>
   <trkpt lat="53.3741600" lon="-9.9763310">
    <ele>7.4</ele>
    <time>2025-12-26T14:05:56Z</time>
   </trkpt>
   <trkpt lat="53.3742100" lon="-9.9762630">
    <ele>7.3</ele>
    <time>2025-12-26T14:06:02Z</time>
   </trkpt>
   <trkpt lat="53.3742240" lon="-9.9761900">
    <ele>7.3</ele>
    <time>2025-12-26T14:06:07Z</time>
   </trkpt>
   <trkpt lat="53.3742560" lon="-9.9762610">
    <ele>7.7</ele>
    <time>2025-12-26T14:06:44Z</time>
   </trkpt>
   <trkpt lat="53.3743190" lon="-9.9763910">
    <ele>7.6</ele>
    <time>2025-12-26T14:06:50Z</time>
   </trkpt>
   <trkpt lat="53.3743680" lon="-9.9763770">
    <ele>8.0</ele>
    <time>2025-12-26T14:06:56Z</time>
   </trkpt>
   <trkpt lat="53.3744200" lon="-9.9764150">
    <ele>8.2</ele>
    <time>2025-12-26T14:07:02Z</time>
   </trkpt>
   <trkpt lat="53.3744900" lon="-9.9763600">
    <ele>7.9</ele>
    <time>2025-12-26T14:07:08Z</time>
   </trkpt>
   <trkpt lat="53.3745330" lon="-9.9763410">
    <ele>7.9</ele>
    <time>2025-12-26T14:07:13Z</time>
   </trkpt>
   <trkpt lat="53.3745750" lon="-9.9762960">
    <ele>8.4</ele>
    <time>2025-12-26T14:07:19Z</time>
   </trkpt>
   <trkpt lat="53.3746120" lon="-9.9763480">
    <ele>8.8</ele>
    <time>2025-12-26T14:07:25Z</time>
   </trkpt>
   <trkpt lat="53.3746600" lon="-9.9763980">
    <ele>8.5</ele>
    <time>2025-12-26T14:07:30Z</time>
   </trkpt>
   <trkpt lat="53.3747230" lon="-9.9764010">
    <ele>7.7</ele>
    <time>2025-12-26T14:07:35Z</time>
   </trkpt>
   <trkpt lat="53.3747680" lon="-9.9763370">
    <ele>6.9</ele>
    <time>2025-12-26T14:07:40Z</time>
   </trkpt>
   <trkpt lat="53.3748050" lon="-9.9762790">
    <ele>6.6</ele>
    <time>2025-12-26T14:07:45Z</time>
   </trkpt>
   <trkpt lat="53.3748570" lon="-9.9762630">
    <ele>6.4</ele>
    <time>2025-12-26T14:07:51Z</time>
   </trkpt>
   <trkpt lat="53.3748920" lon="-9.9762050">
    <ele>6.4</ele>
    <time>2025-12-26T14:07:56Z</time>
   </trkpt>
   <trkpt lat="53.3749380" lon="-9.9761690">
    <ele>6.3</ele>
    <time>2025-12-26T14:08:02Z</time>
   </trkpt>
   <trkpt lat="53.3749930" lon="-9.9761280">
    <ele>6.2</ele>
    <time>2025-12-26T14:08:07Z</time>
   </trkpt>
   <trkpt lat="53.3750310" lon="-9.9760630">
    <ele>6.1</ele>
    <time>2025-12-26T14:08:13Z</time>
   </trkpt>
   <trkpt lat="53.3750510" lon="-9.9759830">
    <ele>4.4</ele>
    <time>2025-12-26T14:08:40Z</time>
   </trkpt>
   <trkpt lat="53.3750620" lon="-9.9759020">
    <ele>4.0</ele>
    <time>2025-12-26T14:08:48Z</time>
   </trkpt>
   <trkpt lat="53.3750950" lon="-9.9758470">
    <ele>4.2</ele>
    <time>2025-12-26T14:08:53Z</time>
   </trkpt>
   <trkpt lat="53.3751320" lon="-9.9759040">
    <ele>4.4</ele>
    <time>2025-12-26T14:09:01Z</time>
   </trkpt>
   <trkpt lat="53.3751850" lon="-9.9759050">
    <ele>4.2</ele>
    <time>2025-12-26T14:09:06Z</time>
   </trkpt>
   <trkpt lat="53.3752450" lon="-9.9758290">
    <ele>4.0</ele>
    <time>2025-12-26T14:09:12Z</time>
   </trkpt>
   <trkpt lat="53.3752530" lon="-9.9757420">
    <ele>4.0</ele>
    <time>2025-12-26T14:09:17Z</time>
   </trkpt>
   <trkpt lat="53.3752950" lon="-9.9757000">
    <ele>3.8</ele>
    <time>2025-12-26T14:09:22Z</time>
   </trkpt>
   <trkpt lat="53.3753290" lon="-9.9756450">
    <ele>3.8</ele>
    <time>2025-12-26T14:09:28Z</time>
   </trkpt>
   <trkpt lat="53.3753410" lon="-9.9755670">
    <ele>3.8</ele>
    <time>2025-12-26T14:09:34Z</time>
   </trkpt>
   <trkpt lat="53.3753610" lon="-9.9754910">
    <ele>4.0</ele>
    <time>2025-12-26T14:09:40Z</time>
   </trkpt>
   <trkpt lat="53.3754010" lon="-9.9754490">
    <ele>4.8</ele>
    <time>2025-12-26T14:09:48Z</time>
   </trkpt>
   <trkpt lat="53.3754390" lon="-9.9754000">
    <ele>5.2</ele>
    <time>2025-12-26T14:09:53Z</time>
   </trkpt>
   <trkpt lat="53.3754770" lon="-9.9753500">
    <ele>5.4</ele>
    <time>2025-12-26T14:09:59Z</time>
   </trkpt>
   <trkpt lat="53.3755130" lon="-9.9752990">
    <ele>5.7</ele>
    <time>2025-12-26T14:10:06Z</time>
   </trkpt>
   <trkpt lat="53.3755560" lon="-9.9752480">
    <ele>5.8</ele>
    <time>2025-12-26T14:10:12Z</time>
   </trkpt>
   <trkpt lat="53.3755940" lon="-9.9752040">
    <ele>5.7</ele>
    <time>2025-12-26T14:10:17Z</time>
   </trkpt>
   <trkpt lat="53.3756030" lon="-9.9751270">
    <ele>5.7</ele>
    <time>2025-12-26T14:10:23Z</time>
   </trkpt>
   <trkpt lat="53.3756530" lon="-9.9751270">
    <ele>5.9</ele>
    <time>2025-12-26T14:10:30Z</time>
   </trkpt>
   <trkpt lat="53.3757140" lon="-9.9751120">
    <ele>6.1</ele>
    <time>2025-12-26T14:10:35Z</time>
   </trkpt>
   <trkpt lat="53.3757600" lon="-9.9750820">
    <ele>6.1</ele>
    <time>2025-12-26T14:10:40Z</time>
   </trkpt>
   <trkpt lat="53.3758040" lon="-9.9750610">
    <ele>5.8</ele>
    <time>2025-12-26T14:10:46Z</time>
   </trkpt>
   <trkpt lat="53.3758470" lon="-9.9749760">
    <ele>5.6</ele>
    <time>2025-12-26T14:10:52Z</time>
   </trkpt>
   <trkpt lat="53.3758620" lon="-9.9748990">
    <ele>5.5</ele>
    <time>2025-12-26T14:11:01Z</time>
   </trkpt>
   <trkpt lat="53.3759070" lon="-9.9748570">
    <ele>5.7</ele>
    <time>2025-12-26T14:11:11Z</time>
   </trkpt>
   <trkpt lat="53.3759480" lon="-9.9748130">
    <ele>5.8</ele>
    <time>2025-12-26T14:11:22Z</time>
   </trkpt>
   <trkpt lat="53.3759940" lon="-9.9748440">
    <ele>5.5</ele>
    <time>2025-12-26T14:11:28Z</time>
   </trkpt>
   <trkpt lat="53.3760390" lon="-9.9748470">
    <ele>5.4</ele>
    <time>2025-12-26T14:11:37Z</time>
   </trkpt>
   <trkpt lat="53.3761030" lon="-9.9748500">
    <ele>5.6</ele>
    <time>2025-12-26T14:11:42Z</time>
   </trkpt>
   <trkpt lat="53.3761480" lon="-9.9748140">
    <ele>5.8</ele>
    <time>2025-12-26T14:11:48Z</time>
   </trkpt>
   <trkpt lat="53.3761580" lon="-9.9747310">
    <ele>6.1</ele>
    <time>2025-12-26T14:11:56Z</time>
   </trkpt>
   <trkpt lat="53.3761790" lon="-9.9746600">
    <ele>6.8</ele>
    <time>2025-12-26T14:12:02Z</time>
   </trkpt>
   <trkpt lat="53.3762210" lon="-9.9746340">
    <ele>6.2</ele>
    <time>2025-12-26T14:12:32Z</time>
   </trkpt>
   <trkpt lat="53.3762710" lon="-9.9746260">
    <ele>6.1</ele>
    <time>2025-12-26T14:12:37Z</time>
   </trkpt>
   <trkpt lat="53.3763140" lon="-9.9746510">
    <ele>6.2</ele>
    <time>2025-12-26T14:12:52Z</time>
   </trkpt>
   <trkpt lat="53.3763610" lon="-9.9746590">
    <ele>7.3</ele>
    <time>2025-12-26T14:13:07Z</time>
   </trkpt>
   <trkpt lat="53.3764300" lon="-9.9747140">
    <ele>6.9</ele>
    <time>2025-12-26T14:13:12Z</time>
   </trkpt>
   <trkpt lat="53.3764650" lon="-9.9747690">
    <ele>6.5</ele>
    <time>2025-12-26T14:13:17Z</time>
   </trkpt>
   <trkpt lat="53.3765100" lon="-9.9747990">
    <ele>6.2</ele>
    <time>2025-12-26T14:13:25Z</time>
   </trkpt>
   <trkpt lat="53.3765570" lon="-9.9747390">
    <ele>6.2</ele>
    <time>2025-12-26T14:13:31Z</time>
   </trkpt>
   <trkpt lat="53.3766060" lon="-9.9747400">
    <ele>6.3</ele>
    <time>2025-12-26T14:13:37Z</time>
   </trkpt>
   <trkpt lat="53.3766520" lon="-9.9747490">
    <ele>6.3</ele>
    <time>2025-12-26T14:13:45Z</time>
   </trkpt>
   <trkpt lat="53.3766970" lon="-9.9747360">
    <ele>6.2</ele>
    <time>2025-12-26T14:13:50Z</time>
   </trkpt>
   <trkpt lat="53.3767480" lon="-9.9747120">
    <ele>6.1</ele>
    <time>2025-12-26T14:13:55Z</time>
   </trkpt>
   <trkpt lat="53.3767970" lon="-9.9747000">
    <ele>6.2</ele>
    <time>2025-12-26T14:14:03Z</time>
   </trkpt>
   <trkpt lat="53.3768430" lon="-9.9747160">
    <ele>6.2</ele>
    <time>2025-12-26T14:14:08Z</time>
   </trkpt>
   <trkpt lat="53.3768820" lon="-9.9747720">
    <ele>6.2</ele>
    <time>2025-12-26T14:14:14Z</time>
   </trkpt>
   <trkpt lat="53.3769280" lon="-9.9747480">
    <ele>6.2</ele>
    <time>2025-12-26T14:14:23Z</time>
   </trkpt>
   <trkpt lat="53.3769760" lon="-9.9747430">
    <ele>6.6</ele>
    <time>2025-12-26T14:14:31Z</time>
   </trkpt>
   <trkpt lat="53.3770200" lon="-9.9747330">
    <ele>7.1</ele>
    <time>2025-12-26T14:14:37Z</time>
   </trkpt>
   <trkpt lat="53.3770690" lon="-9.9746900">
    <ele>8.1</ele>
    <time>2025-12-26T14:14:56Z</time>
   </trkpt>
   <trkpt lat="53.3771040" lon="-9.9746320">
    <ele>8.4</ele>
    <time>2025-12-26T14:15:09Z</time>
   </trkpt>
   <trkpt lat="53.3771300" lon="-9.9745390">
    <ele>8.2</ele>
    <time>2025-12-26T14:15:14Z</time>
   </trkpt>
   <trkpt lat="53.3771570" lon="-9.9744750">
    <ele>7.1</ele>
    <time>2025-12-26T14:15:22Z</time>
   </trkpt>
   <trkpt lat="53.3771890" lon="-9.9743980">
    <ele>7.1</ele>
    <time>2025-12-26T14:15:28Z</time>
   </trkpt>
   <trkpt lat="53.3771830" lon="-9.9743110">
    <ele>6.8</ele>
    <time>2025-12-26T14:15:33Z</time>
   </trkpt>
   <trkpt lat="53.3771960" lon="-9.9742380">
    <ele>6.3</ele>
    <time>2025-12-26T14:15:38Z</time>
   </trkpt>
   <trkpt lat="53.3771780" lon="-9.9741670">
    <ele>5.9</ele>
    <time>2025-12-26T14:15:44Z</time>
   </trkpt>
   <trkpt lat="53.3771910" lon="-9.9740880">
    <ele>6.3</ele>
    <time>2025-12-26T14:15:56Z</time>
   </trkpt>
   <trkpt lat="53.3772250" lon="-9.9740180">
    <ele>6.5</ele>
    <time>2025-12-26T14:16:01Z</time>
   </trkpt>
   <trkpt lat="53.3772610" lon="-9.9739440">
    <ele>6.5</ele>
    <time>2025-12-26T14:16:07Z</time>
   </trkpt>
   <trkpt lat="53.3772810" lon="-9.9738740">
    <ele>6.3</ele>
    <time>2025-12-26T14:16:12Z</time>
   </trkpt>
   <trkpt lat="53.3773060" lon="-9.9738080">
    <ele>6.1</ele>
    <time>2025-12-26T14:16:19Z</time>
   </trkpt>
   <trkpt lat="53.3773000" lon="-9.9737240">
    <ele>5.9</ele>
    <time>2025-12-26T14:16:25Z</time>
   </trkpt>
   <trkpt lat="53.3773420" lon="-9.9736960">
    <ele>5.6</ele>
    <time>2025-12-26T14:16:32Z</time>
   </trkpt>
   <trkpt lat="53.3773680" lon="-9.9736280">
    <ele>5.2</ele>
    <time>2025-12-26T14:16:38Z</time>
   </trkpt>
   <trkpt lat="53.3774110" lon="-9.9735920">
    <ele>4.7</ele>
    <time>2025-12-26T14:16:44Z</time>
   </trkpt>
   <trkpt lat="53.3774440" lon="-9.9735340">
    <ele>4.5</ele>
    <time>2025-12-26T14:16:59Z</time>
   </trkpt>
   <trkpt lat="53.3774310" lon="-9.9734580">
    <ele>4.6</ele>
    <time>2025-12-26T14:17:05Z</time>
   </trkpt>
   <trkpt lat="53.3774720" lon="-9.9734080">
    <ele>5.0</ele>
    <time>2025-12-26T14:17:16Z</time>
   </trkpt>
   <trkpt lat="53.3775220" lon="-9.9733790">
    <ele>4.9</ele>
    <time>2025-12-26T14:17:21Z</time>
   </trkpt>
   <trkpt lat="53.3775500" lon="-9.9733000">
    <ele>4.6</ele>
    <time>2025-12-26T14:17:26Z</time>
   </trkpt>
   <trkpt lat="53.3775270" lon="-9.9731880">
    <ele>4.2</ele>
    <time>2025-12-26T14:17:31Z</time>
   </trkpt>
   <trkpt lat="53.3775730" lon="-9.9731340">
    <ele>4.5</ele>
    <time>2025-12-26T14:17:47Z</time>
   </trkpt>
   <trkpt lat="53.3776320" lon="-9.9731050">
    <ele>4.7</ele>
    <time>2025-12-26T14:17:52Z</time>
   </trkpt>
   <trkpt lat="53.3776830" lon="-9.9730720">
    <ele>4.7</ele>
    <time>2025-12-26T14:17:57Z</time>
   </trkpt>
   <trkpt lat="53.3777020" lon="-9.9729840">
    <ele>4.6</ele>
    <time>2025-12-26T14:18:03Z</time>
   </trkpt>
   <trkpt lat="53.3777180" lon="-9.9729120">
    <ele>4.5</ele>
    <time>2025-12-26T14:18:10Z</time>
   </trkpt>
   <trkpt lat="53.3777410" lon="-9.9728400">
    <ele>4.7</ele>
    <time>2025-12-26T14:18:16Z</time>
   </trkpt>
   <trkpt lat="53.3777750" lon="-9.9727850">
    <ele>4.9</ele>
    <time>2025-12-26T14:18:24Z</time>
   </trkpt>
   <trkpt lat="53.3777940" lon="-9.9727130">
    <ele>4.8</ele>
    <time>2025-12-26T14:18:29Z</time>
   </trkpt>
   <trkpt lat="53.3778000" lon="-9.9726340">
    <ele>4.6</ele>
    <time>2025-12-26T14:18:35Z</time>
   </trkpt>
   <trkpt lat="53.3778200" lon="-9.9725600">
    <ele>4.8</ele>
    <time>2025-12-26T14:18:41Z</time>
   </trkpt>
   <trkpt lat="53.3778240" lon="-9.9724780">
    <ele>5.2</ele>
    <time>2025-12-26T14:18:48Z</time>
   </trkpt>
   <trkpt lat="53.3778010" lon="-9.9723920">
    <ele>5.4</ele>
    <time>2025-12-26T14:18:54Z</time>
   </trkpt>
   <trkpt lat="53.3777770" lon="-9.9723250">
    <ele>5.5</ele>
    <time>2025-12-26T14:18:59Z</time>
   </trkpt>
   <trkpt lat="53.3777590" lon="-9.9722540">
    <ele>5.1</ele>
    <time>2025-12-26T14:19:09Z</time>
   </trkpt>
   <trkpt lat="53.3777700" lon="-9.9721770">
    <ele>4.5</ele>
    <time>2025-12-26T14:19:15Z</time>
   </trkpt>
   <trkpt lat="53.3777600" lon="-9.9720970">
    <ele>4.3</ele>
    <time>2025-12-26T14:19:21Z</time>
   </trkpt>
   <trkpt lat="53.3777480" lon="-9.9720240">
    <ele>4.4</ele>
    <time>2025-12-26T14:19:30Z</time>
   </trkpt>
   <trkpt lat="53.3777110" lon="-9.9719760">
    <ele>4.7</ele>
    <time>2025-12-26T14:19:37Z</time>
   </trkpt>
   <trkpt lat="53.3776660" lon="-9.9719630">
    <ele>5.2</ele>
    <time>2025-12-26T14:19:44Z</time>
   </trkpt>
   <trkpt lat="53.3776200" lon="-9.9719900">
    <ele>5.9</ele>
    <time>2025-12-26T14:19:51Z</time>
   </trkpt>
   <trkpt lat="53.3775780" lon="-9.9719450">
    <ele>6.7</ele>
    <time>2025-12-26T14:19:59Z</time>
   </trkpt>
   <trkpt lat="53.3775900" lon="-9.9718430">
    <ele>6.4</ele>
    <time>2025-12-26T14:20:04Z</time>
   </trkpt>
   <trkpt lat="53.3775740" lon="-9.9717710">
    <ele>6.1</ele>
    <time>2025-12-26T14:20:19Z</time>
   </trkpt>
   <trkpt lat="53.3775540" lon="-9.9716830">
    <ele>6.4</ele>
    <time>2025-12-26T14:20:24Z</time>
   </trkpt>
   <trkpt lat="53.3775310" lon="-9.9716070">
    <ele>14.1</ele>
    <time>2025-12-26T14:20:57Z</time>
   </trkpt>
   <trkpt lat="53.3774970" lon="-9.9715570">
    <ele>10.2</ele>
    <time>2025-12-26T14:21:02Z</time>
   </trkpt>
   <trkpt lat="53.3774780" lon="-9.9714700">
    <ele>7.2</ele>
    <time>2025-12-26T14:21:10Z</time>
   </trkpt>
   <trkpt lat="53.3774280" lon="-9.9714160">
    <ele>6.2</ele>
    <time>2025-12-26T14:21:15Z</time>
   </trkpt>
   <trkpt lat="53.3773700" lon="-9.9713640">
    <ele>5.6</ele>
    <time>2025-12-26T14:21:21Z</time>
   </trkpt>
   <trkpt lat="53.3773200" lon="-9.9713620">
    <ele>5.2</ele>
    <time>2025-12-26T14:21:26Z</time>
   </trkpt>
   <trkpt lat="53.3772760" lon="-9.9713920">
    <ele>5.5</ele>
    <time>2025-12-26T14:21:52Z</time>
   </trkpt>
   <trkpt lat="53.3772170" lon="-9.9713720">
    <ele>5.6</ele>
    <time>2025-12-26T14:21:57Z</time>
   </trkpt>
   <trkpt lat="53.3771710" lon="-9.9713460">
    <ele>6.0</ele>
    <time>2025-12-26T14:22:02Z</time>
   </trkpt>
   <trkpt lat="53.3771350" lon="-9.9712880">
    <ele>6.6</ele>
    <time>2025-12-26T14:22:08Z</time>
   </trkpt>
   <trkpt lat="53.3770880" lon="-9.9712360">
    <ele>6.8</ele>
    <time>2025-12-26T14:22:13Z</time>
   </trkpt>
   <trkpt lat="53.3770570" lon="-9.9711480">
    <ele>7.1</ele>
    <time>2025-12-26T14:22:18Z</time>
   </trkpt>
   <trkpt lat="53.3770420" lon="-9.9710680">
    <ele>7.3</ele>
    <time>2025-12-26T14:22:25Z</time>
   </trkpt>
   <trkpt lat="53.3770500" lon="-9.9711450">
    <ele>7.3</ele>
    <time>2025-12-26T14:22:32Z</time>
   </trkpt>
   <trkpt lat="53.3770930" lon="-9.9711180">
    <ele>5.9</ele>
    <time>2025-12-26T14:22:43Z</time>
   </trkpt>
   <trkpt lat="53.3771320" lon="-9.9710640">
    <ele>4.8</ele>
    <time>2025-12-26T14:22:49Z</time>
   </trkpt>
   <trkpt lat="53.3771640" lon="-9.9709950">
    <ele>3.5</ele>
    <time>2025-12-26T14:22:55Z</time>
   </trkpt>
   <trkpt lat="53.3771950" lon="-9.9708980">
    <ele>2.7</ele>
    <time>2025-12-26T14:23:01Z</time>
   </trkpt>
   <trkpt lat="53.3772170" lon="-9.9708050">
    <ele>2.1</ele>
    <time>2025-12-26T14:23:06Z</time>
   </trkpt>
   <trkpt lat="53.3772370" lon="-9.9707330">
    <ele>1.8</ele>
    <time>2025-12-26T14:23:11Z</time>
   </trkpt>
   <trkpt lat="53.3772520" lon="-9.9706550">
    <ele>1.7</ele>
    <time>2025-12-26T14:23:17Z</time>
   </trkpt>
   <trkpt lat="53.3772760" lon="-9.9705830">
    <ele>1.7</ele>
    <time>2025-12-26T14:23:22Z</time>
   </trkpt>
   <trkpt lat="53.3772510" lon="-9.9705160">
    <ele>1.8</ele>
    <time>2025-12-26T14:23:31Z</time>
   </trkpt>
   <trkpt lat="53.3772860" lon="-9.9704670">
    <ele>2.7</ele>
    <time>2025-12-26T14:23:39Z</time>
   </trkpt>
   <trkpt lat="53.3773370" lon="-9.9704620">
    <ele>4.9</ele>
    <time>2025-12-26T14:23:49Z</time>
   </trkpt>
   <trkpt lat="53.3773960" lon="-9.9704390">
    <ele>5.9</ele>
    <time>2025-12-26T14:23:54Z</time>
   </trkpt>
   <trkpt lat="53.3774430" lon="-9.9704570">
    <ele>8.1</ele>
    <time>2025-12-26T14:24:12Z</time>
   </trkpt>
   <trkpt lat="53.3775060" lon="-9.9704530">
    <ele>8.3</ele>
    <time>2025-12-26T14:24:17Z</time>
   </trkpt>
   <trkpt lat="53.3775520" lon="-9.9704510">
    <ele>8.5</ele>
    <time>2025-12-26T14:24:24Z</time>
   </trkpt>
   <trkpt lat="53.3776040" lon="-9.9704620">
    <ele>8.7</ele>
    <time>2025-12-26T14:24:30Z</time>
   </trkpt>
   <trkpt lat="53.3776500" lon="-9.9704610">
    <ele>9.2</ele>
    <time>2025-12-26T14:24:36Z</time>
   </trkpt>
   <trkpt lat="53.3776970" lon="-9.9704640">
    <ele>9.3</ele>
    <time>2025-12-26T14:24:42Z</time>
   </trkpt>
   <trkpt lat="53.3777540" lon="-9.9704870">
    <ele>9.1</ele>
    <time>2025-12-26T14:24:47Z</time>
   </trkpt>
   <trkpt lat="53.3778190" lon="-9.9704800">
    <ele>8.6</ele>
    <time>2025-12-26T14:24:53Z</time>
   </trkpt>
   <trkpt lat="53.3778680" lon="-9.9704170">
    <ele>8.0</ele>
    <time>2025-12-26T14:24:58Z</time>
   </trkpt>
   <trkpt lat="53.3779260" lon="-9.9703770">
    <ele>7.5</ele>
    <time>2025-12-26T14:25:03Z</time>
   </trkpt>
   <trkpt lat="53.3779710" lon="-9.9703260">
    <ele>7.1</ele>
    <time>2025-12-26T14:25:08Z</time>
   </trkpt>
   <trkpt lat="53.3779980" lon="-9.9702350">
    <ele>6.5</ele>
    <time>2025-12-26T14:25:14Z</time>
   </trkpt>
   <trkpt lat="53.3780440" lon="-9.9702060">
    <ele>6.2</ele>
    <time>2025-12-26T14:25:19Z</time>
   </trkpt>
   <trkpt lat="53.3780880" lon="-9.9701520">
    <ele>6.2</ele>
    <time>2025-12-26T14:25:24Z</time>
   </trkpt>
   <trkpt lat="53.3781360" lon="-9.9701130">
    <ele>6.4</ele>
    <time>2025-12-26T14:25:30Z</time>
   </trkpt>
   <trkpt lat="53.3781500" lon="-9.9700400">
    <ele>6.6</ele>
    <time>2025-12-26T14:25:36Z</time>
   </trkpt>
   <trkpt lat="53.3781330" lon="-9.9699670">
    <ele>6.1</ele>
    <time>2025-12-26T14:25:43Z</time>
   </trkpt>
   <trkpt lat="53.3781270" lon="-9.9698850">
    <ele>5.4</ele>
    <time>2025-12-26T14:25:49Z</time>
   </trkpt>
   <trkpt lat="53.3780950" lon="-9.9698040">
    <ele>5.1</ele>
    <time>2025-12-26T14:25:55Z</time>
   </trkpt>
   <trkpt lat="53.3780810" lon="-9.9697240">
    <ele>4.7</ele>
    <time>2025-12-26T14:26:01Z</time>
   </trkpt>
   <trkpt lat="53.3780520" lon="-9.9696620">
    <ele>4.2</ele>
    <time>2025-12-26T14:26:14Z</time>
   </trkpt>
   <trkpt lat="53.3780400" lon="-9.9695390">
    <ele>4.1</ele>
    <time>2025-12-26T14:26:20Z</time>
   </trkpt>
   <trkpt lat="53.3780000" lon="-9.9694490">
    <ele>3.9</ele>
    <time>2025-12-26T14:26:25Z</time>
   </trkpt>
   <trkpt lat="53.3779560" lon="-9.9693800">
    <ele>3.7</ele>
    <time>2025-12-26T14:26:31Z</time>
   </trkpt>
   <trkpt lat="53.3779110" lon="-9.9693460">
    <ele>3.4</ele>
    <time>2025-12-26T14:26:36Z</time>
   </trkpt>
   <trkpt lat="53.3779310" lon="-9.9692600">
    <ele>-2.2</ele>
    <time>2025-12-26T14:27:29Z</time>
   </trkpt>
   <trkpt lat="53.3779010" lon="-9.9691920">
    <ele>1.2</ele>
    <time>2025-12-26T14:27:37Z</time>
   </trkpt>
   <trkpt lat="53.3778410" lon="-9.9690690">
    <ele>2.2</ele>
    <time>2025-12-26T14:27:43Z</time>
   </trkpt>
   <trkpt lat="53.3778050" lon="-9.9689600">
    <ele>2.4</ele>
    <time>2025-12-26T14:27:48Z</time>
   </trkpt>
   <trkpt lat="53.3777740" lon="-9.9688660">
    <ele>2.6</ele>
    <time>2025-12-26T14:27:53Z</time>
   </trkpt>
   <trkpt lat="53.3777250" lon="-9.9687760">
    <ele>2.7</ele>
    <time>2025-12-26T14:27:59Z</time>
   </trkpt>
   <trkpt lat="53.3776810" lon="-9.9686930">
    <ele>2.9</ele>
    <time>2025-12-26T14:28:04Z</time>
   </trkpt>
   <trkpt lat="53.3776390" lon="-9.9685970">
    <ele>3.5</ele>
    <time>2025-12-26T14:28:09Z</time>
   </trkpt>
   <trkpt lat="53.3775970" lon="-9.9685370">
    <ele>4.1</ele>
    <time>2025-12-26T14:28:14Z</time>
   </trkpt>
   <trkpt lat="53.3775780" lon="-9.9684260">
    <ele>4.7</ele>
    <time>2025-12-26T14:28:20Z</time>
   </trkpt>
   <trkpt lat="53.3775370" lon="-9.9683400">
    <ele>5.4</ele>
    <time>2025-12-26T14:28:25Z</time>
   </trkpt>
   <trkpt lat="53.3774900" lon="-9.9682610">
    <ele>5.9</ele>
    <time>2025-12-26T14:28:30Z</time>
   </trkpt>
   <trkpt lat="53.3774400" lon="-9.9681860">
    <ele>6.3</ele>
    <time>2025-12-26T14:28:36Z</time>
   </trkpt>
   <trkpt lat="53.3773890" lon="-9.9681000">
    <ele>6.9</ele>
    <time>2025-12-26T14:28:41Z</time>
   </trkpt>
   <trkpt lat="53.3773320" lon="-9.9680400">
    <ele>7.4</ele>
    <time>2025-12-26T14:28:46Z</time>
   </trkpt>
   <trkpt lat="53.3772740" lon="-9.9679570">
    <ele>8.2</ele>
    <time>2025-12-26T14:28:52Z</time>
   </trkpt>
   <trkpt lat="53.3772300" lon="-9.9679020">
    <ele>9.8</ele>
    <time>2025-12-26T14:29:09Z</time>
   </trkpt>
   <trkpt lat="53.3771740" lon="-9.9678030">
    <ele>9.5</ele>
    <time>2025-12-26T14:29:15Z</time>
   </trkpt>
   <trkpt lat="53.3771700" lon="-9.9677240">
    <ele>8.7</ele>
    <time>2025-12-26T14:29:21Z</time>
   </trkpt>
   <trkpt lat="53.3771550" lon="-9.9676430">
    <ele>7.7</ele>
    <time>2025-12-26T14:29:27Z</time>
   </trkpt>
   <trkpt lat="53.3771250" lon="-9.9675690">
    <ele>6.8</ele>
    <time>2025-12-26T14:29:32Z</time>
   </trkpt>
   <trkpt lat="53.3770780" lon="-9.9674950">
    <ele>6.1</ele>
    <time>2025-12-26T14:29:37Z</time>
   </trkpt>
   <trkpt lat="53.3770440" lon="-9.9674040">
    <ele>5.4</ele>
    <time>2025-12-26T14:29:43Z</time>
   </trkpt>
   <trkpt lat="53.3770230" lon="-9.9673310">
    <ele>4.8</ele>
    <time>2025-12-26T14:29:51Z</time>
   </trkpt>
   <trkpt lat="53.3769950" lon="-9.9672630">
    <ele>4.0</ele>
    <time>2025-12-26T14:30:00Z</time>
   </trkpt>
   <trkpt lat="53.3769480" lon="-9.9672770">
    <ele>2.7</ele>
    <time>2025-12-26T14:30:11Z</time>
   </trkpt>
   <trkpt lat="53.3769100" lon="-9.9672200">
    <ele>2.3</ele>
    <time>2025-12-26T14:30:16Z</time>
   </trkpt>
   <trkpt lat="53.3768680" lon="-9.9671920">
    <ele>2.7</ele>
    <time>2025-12-26T14:30:31Z</time>
   </trkpt>
   <trkpt lat="53.3768220" lon="-9.9671570">
    <ele>1.8</ele>
    <time>2025-12-26T14:30:54Z</time>
   </trkpt>
   <trkpt lat="53.3767710" lon="-9.9671380">
    <ele>1.1</ele>
    <time>2025-12-26T14:31:07Z</time>
   </trkpt>
   <trkpt lat="53.3767290" lon="-9.9671080">
    <ele>0.8</ele>
    <time>2025-12-26T14:31:13Z</time>
   </trkpt>
   <trkpt lat="53.3767410" lon="-9.9669860">
    <ele>0.6</ele>
    <time>2025-12-26T14:31:18Z</time>
   </trkpt>
   <trkpt lat="53.3767690" lon="-9.9668970">
    <ele>0.4</ele>
    <time>2025-12-26T14:31:23Z</time>
   </trkpt>
   <trkpt lat="53.3768050" lon="-9.9668130">
    <ele>0.3</ele>
    <time>2025-12-26T14:31:29Z</time>
   </trkpt>
   <trkpt lat="53.3768260" lon="-9.9667430">
    <ele>0.3</ele>
    <time>2025-12-26T14:31:34Z</time>
   </trkpt>
   <trkpt lat="53.3768790" lon="-9.9666880">
    <ele>0.3</ele>
    <time>2025-12-26T14:31:39Z</time>
   </trkpt>
   <trkpt lat="53.3769280" lon="-9.9666200">
    <ele>0.1</ele>
    <time>2025-12-26T14:31:45Z</time>
   </trkpt>
   <trkpt lat="53.3769710" lon="-9.9665410">
    <ele>0.1</ele>
    <time>2025-12-26T14:31:50Z</time>
   </trkpt>
   <trkpt lat="53.3770230" lon="-9.9664740">
    <ele>-0.1</ele>
    <time>2025-12-26T14:31:56Z</time>
   </trkpt>
   <trkpt lat="53.3770590" lon="-9.9664040">
    <ele>-0.1</ele>
    <time>2025-12-26T14:32:01Z</time>
   </trkpt>
   <trkpt lat="53.3770980" lon="-9.9663160">
    <ele>-0.1</ele>
    <time>2025-12-26T14:32:06Z</time>
   </trkpt>
   <trkpt lat="53.3771440" lon="-9.9662470">
    <ele>-0.3</ele>
    <time>2025-12-26T14:32:12Z</time>
   </trkpt>
   <trkpt lat="53.3771890" lon="-9.9661770">
    <ele>-0.4</ele>
    <time>2025-12-26T14:32:17Z</time>
   </trkpt>
   <trkpt lat="53.3772330" lon="-9.9660920">
    <ele>-0.3</ele>
    <time>2025-12-26T14:32:22Z</time>
   </trkpt>
   <trkpt lat="53.3772680" lon="-9.9660210">
    <ele>-0.2</ele>
    <time>2025-12-26T14:32:28Z</time>
   </trkpt>
   <trkpt lat="53.3773030" lon="-9.9659470">
    <ele>-0.3</ele>
    <time>2025-12-26T14:32:33Z</time>
   </trkpt>
   <trkpt lat="53.3773340" lon="-9.9658500">
    <ele>-0.4</ele>
    <time>2025-12-26T14:32:39Z</time>
   </trkpt>
   <trkpt lat="53.3773790" lon="-9.9657790">
    <ele>-0.7</ele>
    <time>2025-12-26T14:32:44Z</time>
   </trkpt>
   <trkpt lat="53.3774180" lon="-9.9657040">
    <ele>-0.7</ele>
    <time>2025-12-26T14:32:50Z</time>
   </trkpt>
   <trkpt lat="53.3774510" lon="-9.9656160">
    <ele>-0.8</ele>
    <time>2025-12-26T14:32:55Z</time>
   </trkpt>
   <trkpt lat="53.3774890" lon="-9.9655380">
    <ele>-0.7</ele>
    <time>2025-12-26T14:33:01Z</time>
   </trkpt>
   <trkpt lat="53.3775150" lon="-9.9654440">
    <ele>-0.7</ele>
    <time>2025-12-26T14:33:06Z</time>
   </trkpt>
   <trkpt lat="53.3775560" lon="-9.9653660">
    <ele>-1.0</ele>
    <time>2025-12-26T14:33:12Z</time>
   </trkpt>
   <trkpt lat="53.3775960" lon="-9.9652840">
    <ele>-0.9</ele>
    <time>2025-12-26T14:33:18Z</time>
   </trkpt>
   <trkpt lat="53.3776320" lon="-9.9652120">
    <ele>-1.0</ele>
    <time>2025-12-26T14:33:23Z</time>
   </trkpt>
   <trkpt lat="53.3776630" lon="-9.9651500">
    <ele>-1.0</ele>
    <time>2025-12-26T14:33:28Z</time>
   </trkpt>
   <trkpt lat="53.3777020" lon="-9.9650900">
    <ele>-0.9</ele>
    <time>2025-12-26T14:33:33Z</time>
   </trkpt>
   <trkpt lat="53.3777450" lon="-9.9650390">
    <ele>-0.8</ele>
    <time>2025-12-26T14:33:38Z</time>
   </trkpt>
   <trkpt lat="53.3777760" lon="-9.9649840">
    <ele>-0.9</ele>
    <time>2025-12-26T14:33:43Z</time>
   </trkpt>
   <trkpt lat="53.3778180" lon="-9.9649210">
    <ele>-0.9</ele>
    <time>2025-12-26T14:33:48Z</time>
   </trkpt>
   <trkpt lat="53.3778580" lon="-9.9648850">
    <ele>-1.0</ele>
    <time>2025-12-26T14:33:56Z</time>
   </trkpt>
   <trkpt lat="53.3778950" lon="-9.9648380">
    <ele>-1.2</ele>
    <time>2025-12-26T14:34:10Z</time>
   </trkpt>
   <trkpt lat="53.3779340" lon="-9.9647320">
    <ele>-1.4</ele>
    <time>2025-12-26T14:34:16Z</time>
   </trkpt>
   <trkpt lat="53.3779830" lon="-9.9646580">
    <ele>-1.6</ele>
    <time>2025-12-26T14:34:21Z</time>
   </trkpt>
   <trkpt lat="53.3780350" lon="-9.9645980">
    <ele>-1.5</ele>
    <time>2025-12-26T14:34:26Z</time>
   </trkpt>
   <trkpt lat="53.3780780" lon="-9.9645450">
    <ele>-1.2</ele>
    <time>2025-12-26T14:34:32Z</time>
   </trkpt>
   <trkpt lat="53.3781150" lon="-9.9644920">
    <ele>-1.2</ele>
    <time>2025-12-26T14:34:37Z</time>
   </trkpt>
   <trkpt lat="53.3781550" lon="-9.9644260">
    <ele>-1.3</ele>
    <time>2025-12-26T14:34:42Z</time>
   </trkpt>
   <trkpt lat="53.3781940" lon="-9.9643740">
    <ele>-1.3</ele>
    <time>2025-12-26T14:34:47Z</time>
   </trkpt>
   <trkpt lat="53.3782400" lon="-9.9643140">
    <ele>-1.4</ele>
    <time>2025-12-26T14:34:53Z</time>
   </trkpt>
   <trkpt lat="53.3782840" lon="-9.9642450">
    <ele>-1.2</ele>
    <time>2025-12-26T14:34:58Z</time>
   </trkpt>
   <trkpt lat="53.3783200" lon="-9.9641810">
    <ele>-1.1</ele>
    <time>2025-12-26T14:35:04Z</time>
   </trkpt>
   <trkpt lat="53.3783630" lon="-9.9641290">
    <ele>-1.2</ele>
    <time>2025-12-26T14:35:17Z</time>
   </trkpt>
   <trkpt lat="53.3784350" lon="-9.9640070">
    <ele>-1.3</ele>
    <time>2025-12-26T14:35:22Z</time>
   </trkpt>
   <trkpt lat="53.3784870" lon="-9.9639400">
    <ele>-1.2</ele>
    <time>2025-12-26T14:35:27Z</time>
   </trkpt>
   <trkpt lat="53.3785240" lon="-9.9638660">
    <ele>-1.1</ele>
    <time>2025-12-26T14:35:32Z</time>
   </trkpt>
   <trkpt lat="53.3785750" lon="-9.9638230">
    <ele>-1.3</ele>
    <time>2025-12-26T14:35:37Z</time>
   </trkpt>
   <trkpt lat="53.3786060" lon="-9.9637560">
    <ele>-1.5</ele>
    <time>2025-12-26T14:35:47Z</time>
   </trkpt>
   <trkpt lat="53.3786770" lon="-9.9636760">
    <ele>-1.3</ele>
    <time>2025-12-26T14:35:52Z</time>
   </trkpt>
   <trkpt lat="53.3787320" lon="-9.9636450">
    <ele>-1.2</ele>
    <time>2025-12-26T14:35:58Z</time>
   </trkpt>
   <trkpt lat="53.3787850" lon="-9.9635980">
    <ele>-1.1</ele>
    <time>2025-12-26T14:36:03Z</time>
   </trkpt>
   <trkpt lat="53.3788340" lon="-9.9635450">
    <ele>-1.2</ele>
    <time>2025-12-26T14:36:09Z</time>
   </trkpt>
   <trkpt lat="53.3788750" lon="-9.9634900">
    <ele>-1.3</ele>
    <time>2025-12-26T14:36:14Z</time>
   </trkpt>
   <trkpt lat="53.3789150" lon="-9.9634470">
    <ele>-1.4</ele>
    <time>2025-12-26T14:36:19Z</time>
   </trkpt>
   <trkpt lat="53.3789600" lon="-9.9633840">
    <ele>-1.2</ele>
    <time>2025-12-26T14:36:24Z</time>
   </trkpt>
   <trkpt lat="53.3790160" lon="-9.9633570">
    <ele>-1.1</ele>
    <time>2025-12-26T14:36:30Z</time>
   </trkpt>
   <trkpt lat="53.3790600" lon="-9.9633120">
    <ele>-1.0</ele>
    <time>2025-12-26T14:36:35Z</time>
   </trkpt>
   <trkpt lat="53.3791110" lon="-9.9632520">
    <ele>-1.1</ele>
    <time>2025-12-26T14:36:40Z</time>
   </trkpt>
   <trkpt lat="53.3791670" lon="-9.9632140">
    <ele>-1.2</ele>
    <time>2025-12-26T14:36:46Z</time>
   </trkpt>
   <trkpt lat="53.3792190" lon="-9.9631890">
    <ele>-1.2</ele>
    <time>2025-12-26T14:36:51Z</time>
   </trkpt>
   <trkpt lat="53.3792600" lon="-9.9631370">
    <ele>-1.1</ele>
    <time>2025-12-26T14:36:56Z</time>
   </trkpt>
   <trkpt lat="53.3793130" lon="-9.9630880">
    <ele>-1.1</ele>
    <time>2025-12-26T14:37:02Z</time>
   </trkpt>
   <trkpt lat="53.3793680" lon="-9.9630430">
    <ele>-1.1</ele>
    <time>2025-12-26T14:37:07Z</time>
   </trkpt>
   <trkpt lat="53.3794140" lon="-9.9630010">
    <ele>-1.1</ele>
    <time>2025-12-26T14:37:12Z</time>
   </trkpt>
   <trkpt lat="53.3794720" lon="-9.9629680">
    <ele>-1.0</ele>
    <time>2025-12-26T14:37:18Z</time>
   </trkpt>
   <trkpt lat="53.3795190" lon="-9.9629400">
    <ele>-0.9</ele>
    <time>2025-12-26T14:37:23Z</time>
   </trkpt>
   <trkpt lat="53.3795760" lon="-9.9628970">
    <ele>-0.7</ele>
    <time>2025-12-26T14:37:28Z</time>
   </trkpt>
   <trkpt lat="53.3796300" lon="-9.9628520">
    <ele>-0.7</ele>
    <time>2025-12-26T14:37:34Z</time>
   </trkpt>
   <trkpt lat="53.3796800" lon="-9.9628070">
    <ele>-0.8</ele>
    <time>2025-12-26T14:37:39Z</time>
   </trkpt>
   <trkpt lat="53.3797180" lon="-9.9627440">
    <ele>-0.9</ele>
    <time>2025-12-26T14:37:45Z</time>
   </trkpt>
   <trkpt lat="53.3797600" lon="-9.9626910">
    <ele>-0.9</ele>
    <time>2025-12-26T14:37:50Z</time>
   </trkpt>
   <trkpt lat="53.3797930" lon="-9.9626150">
    <ele>-0.6</ele>
    <time>2025-12-26T14:37:55Z</time>
   </trkpt>
   <trkpt lat="53.3798170" lon="-9.9625440">
    <ele>-0.4</ele>
    <time>2025-12-26T14:38:00Z</time>
   </trkpt>
   <trkpt lat="53.3798270" lon="-9.9624590">
    <ele>-0.2</ele>
    <time>2025-12-26T14:38:05Z</time>
   </trkpt>
   <trkpt lat="53.3798440" lon="-9.9623740">
    <ele>0.1</ele>
    <time>2025-12-26T14:38:11Z</time>
   </trkpt>
   <trkpt lat="53.3798900" lon="-9.9623570">
    <ele>0.5</ele>
    <time>2025-12-26T14:38:17Z</time>
   </trkpt>
   <trkpt lat="53.3799400" lon="-9.9623440">
    <ele>0.9</ele>
    <time>2025-12-26T14:38:23Z</time>
   </trkpt>
   <trkpt lat="53.3799960" lon="-9.9623430">
    <ele>1.4</ele>
    <time>2025-12-26T14:38:28Z</time>
   </trkpt>
   <trkpt lat="53.3800410" lon="-9.9623440">
    <ele>1.7</ele>
    <time>2025-12-26T14:38:35Z</time>
   </trkpt>
   <trkpt lat="53.3800840" lon="-9.9623800">
    <ele>1.8</ele>
    <time>2025-12-26T14:38:41Z</time>
   </trkpt>
   <trkpt lat="53.3801380" lon="-9.9624130">
    <ele>2.3</ele>
    <time>2025-12-26T14:38:46Z</time>
   </trkpt>
   <trkpt lat="53.3801770" lon="-9.9624550">
    <ele>3.0</ele>
    <time>2025-12-26T14:38:52Z</time>
   </trkpt>
   <trkpt lat="53.3802180" lon="-9.9625110">
    <ele>3.6</ele>
    <time>2025-12-26T14:38:58Z</time>
   </trkpt>
   <trkpt lat="53.3802690" lon="-9.9625290">
    <ele>4.1</ele>
    <time>2025-12-26T14:39:03Z</time>
   </trkpt>
   <trkpt lat="53.3803160" lon="-9.9625810">
    <ele>5.8</ele>
    <time>2025-12-26T14:39:23Z</time>
   </trkpt>
   <trkpt lat="53.3803910" lon="-9.9626750">
    <ele>5.6</ele>
    <time>2025-12-26T14:39:29Z</time>
   </trkpt>
   <trkpt lat="53.3804520" lon="-9.9627480">
    <ele>5.0</ele>
    <time>2025-12-26T14:39:34Z</time>
   </trkpt>
   <trkpt lat="53.3805060" lon="-9.9628090">
    <ele>4.5</ele>
    <time>2025-12-26T14:39:40Z</time>
   </trkpt>
   <trkpt lat="53.3805170" lon="-9.9628860">
    <ele>5.8</ele>
    <time>2025-12-26T14:39:46Z</time>
   </trkpt>
   <trkpt lat="53.3805740" lon="-9.9629460">
    <ele>8.4</ele>
    <time>2025-12-26T14:39:51Z</time>
   </trkpt>
   <trkpt lat="53.3806160" lon="-9.9630290">
    <ele>10.1</ele>
    <time>2025-12-26T14:39:57Z</time>
   </trkpt>
   <trkpt lat="53.3806410" lon="-9.9630980">
    <ele>10.6</ele>
    <time>2025-12-26T14:40:02Z</time>
   </trkpt>
   <trkpt lat="53.3806820" lon="-9.9631380">
    <ele>10.3</ele>
    <time>2025-12-26T14:40:07Z</time>
   </trkpt>
   <trkpt lat="53.3807220" lon="-9.9631880">
    <ele>10.4</ele>
    <time>2025-12-26T14:40:13Z</time>
   </trkpt>
   <trkpt lat="53.3807780" lon="-9.9632530">
    <ele>12.3</ele>
    <time>2025-12-26T14:40:19Z</time>
   </trkpt>
   <trkpt lat="53.3808200" lon="-9.9632800">
    <ele>14.1</ele>
    <time>2025-12-26T14:40:24Z</time>
   </trkpt>
   <trkpt lat="53.3808650" lon="-9.9632640">
    <ele>13.4</ele>
    <time>2025-12-26T14:40:29Z</time>
   </trkpt>
   <trkpt lat="53.3809040" lon="-9.9632200">
    <ele>11.5</ele>
    <time>2025-12-26T14:40:36Z</time>
   </trkpt>
   <trkpt lat="53.3809480" lon="-9.9632460">
    <ele>10.3</ele>
    <time>2025-12-26T14:40:41Z</time>
   </trkpt>
   <trkpt lat="53.3810020" lon="-9.9632620">
    <ele>9.7</ele>
    <time>2025-12-26T14:40:46Z</time>
   </trkpt>
   <trkpt lat="53.3810510" lon="-9.9632280">
    <ele>9.0</ele>
    <time>2025-12-26T14:40:52Z</time>
   </trkpt>
   <trkpt lat="53.3811060" lon="-9.9632260">
    <ele>8.7</ele>
    <time>2025-12-26T14:40:57Z</time>
   </trkpt>
   <trkpt lat="53.3810590" lon="-9.9632030">
    <ele>8.3</ele>
    <time>2025-12-26T14:41:17Z</time>
   </trkpt>
   <trkpt lat="53.3809610" lon="-9.9632470">
    <ele>8.2</ele>
    <time>2025-12-26T14:41:22Z</time>
   </trkpt>
   <trkpt lat="53.3808980" lon="-9.9632370">
    <ele>8.5</ele>
    <time>2025-12-26T14:41:28Z</time>
   </trkpt>
   <trkpt lat="53.3808510" lon="-9.9632710">
    <ele>10.8</ele>
    <time>2025-12-26T14:41:53Z</time>
   </trkpt>
   <trkpt lat="53.3807810" lon="-9.9632360">
    <ele>10.6</ele>
    <time>2025-12-26T14:41:59Z</time>
   </trkpt>
   <trkpt lat="53.3807400" lon="-9.9631940">
    <ele>10.9</ele>
    <time>2025-12-26T14:42:04Z</time>
   </trkpt>
   <trkpt lat="53.3807050" lon="-9.9631230">
    <ele>11.7</ele>
    <time>2025-12-26T14:42:10Z</time>
   </trkpt>
   <trkpt lat="53.3806680" lon="-9.9630780">
    <ele>12.1</ele>
    <time>2025-12-26T14:42:15Z</time>
   </trkpt>
   <trkpt lat="53.3806360" lon="-9.9630210">
    <ele>9.9</ele>
    <time>2025-12-26T14:42:21Z</time>
   </trkpt>
   <trkpt lat="53.3806090" lon="-9.9629520">
    <ele>7.9</ele>
    <time>2025-12-26T14:42:26Z</time>
   </trkpt>
   <trkpt lat="53.3805760" lon="-9.9628650">
    <ele>6.6</ele>
    <time>2025-12-26T14:42:31Z</time>
   </trkpt>
   <trkpt lat="53.3805420" lon="-9.9627840">
    <ele>5.9</ele>
    <time>2025-12-26T14:42:37Z</time>
   </trkpt>
   <trkpt lat="53.3804950" lon="-9.9627110">
    <ele>5.9</ele>
    <time>2025-12-26T14:42:43Z</time>
   </trkpt>
   <trkpt lat="53.3805410" lon="-9.9626810">
    <ele>8.7</ele>
    <time>2025-12-26T14:43:04Z</time>
   </trkpt>
   <trkpt lat="53.3805940" lon="-9.9626350">
    <ele>11.4</ele>
    <time>2025-12-26T14:43:09Z</time>
   </trkpt>
   <trkpt lat="53.3806530" lon="-9.9626280">
    <ele>13.3</ele>
    <time>2025-12-26T14:43:14Z</time>
   </trkpt>
   <trkpt lat="53.3807100" lon="-9.9625970">
    <ele>14.9</ele>
    <time>2025-12-26T14:43:20Z</time>
   </trkpt>
   <trkpt lat="53.3807560" lon="-9.9625370">
    <ele>10.8</ele>
    <time>2025-12-26T14:43:33Z</time>
   </trkpt>
   <trkpt lat="53.3808150" lon="-9.9624580">
    <ele>9.4</ele>
    <time>2025-12-26T14:43:38Z</time>
   </trkpt>
   <trkpt lat="53.3808700" lon="-9.9624250">
    <ele>9.3</ele>
    <time>2025-12-26T14:43:44Z</time>
   </trkpt>
   <trkpt lat="53.3809120" lon="-9.9623990">
    <ele>9.4</ele>
    <time>2025-12-26T14:43:49Z</time>
   </trkpt>
   <trkpt lat="53.3809510" lon="-9.9623490">
    <ele>9.9</ele>
    <time>2025-12-26T14:43:57Z</time>
   </trkpt>
   <trkpt lat="53.3809840" lon="-9.9622910">
    <ele>10.3</ele>
    <time>2025-12-26T14:44:02Z</time>
   </trkpt>
   <trkpt lat="53.3810300" lon="-9.9622810">
    <ele>11.0</ele>
    <time>2025-12-26T14:44:08Z</time>
   </trkpt>
   <trkpt lat="53.3810810" lon="-9.9622540">
    <ele>11.5</ele>
    <time>2025-12-26T14:44:13Z</time>
   </trkpt>
   <trkpt lat="53.3811210" lon="-9.9622090">
    <ele>11.8</ele>
    <time>2025-12-26T14:44:19Z</time>
   </trkpt>
   <trkpt lat="53.3811530" lon="-9.9621350">
    <ele>12.1</ele>
    <time>2025-12-26T14:44:24Z</time>
   </trkpt>
   <trkpt lat="53.3811650" lon="-9.9620590">
    <ele>13.1</ele>
    <time>2025-12-26T14:44:35Z</time>
   </trkpt>
   <trkpt lat="53.3811910" lon="-9.9619590">
    <ele>14.1</ele>
    <time>2025-12-26T14:44:40Z</time>
   </trkpt>
   <trkpt lat="53.3811970" lon="-9.9618620">
    <ele>14.6</ele>
    <time>2025-12-26T14:44:46Z</time>
   </trkpt>
   <trkpt lat="53.3811960" lon="-9.9617790">
    <ele>14.7</ele>
    <time>2025-12-26T14:44:51Z</time>
   </trkpt>
   <trkpt lat="53.3811950" lon="-9.9617040">
    <ele>14.7</ele>
    <time>2025-12-26T14:44:57Z</time>
   </trkpt>
   <trkpt lat="53.3811980" lon="-9.9616140">
    <ele>15.0</ele>
    <time>2025-12-26T14:45:02Z</time>
   </trkpt>
   <trkpt lat="53.3812010" lon="-9.9615240">
    <ele>15.2</ele>
    <time>2025-12-26T14:45:07Z</time>
   </trkpt>
   <trkpt lat="53.3812140" lon="-9.9614320">
    <ele>15.4</ele>
    <time>2025-12-26T14:45:12Z</time>
   </trkpt>
   <trkpt lat="53.3812160" lon="-9.9613430">
    <ele>15.4</ele>
    <time>2025-12-26T14:45:17Z</time>
   </trkpt>
   <trkpt lat="53.3811980" lon="-9.9612710">
    <ele>15.4</ele>
    <time>2025-12-26T14:45:24Z</time>
   </trkpt>
   <trkpt lat="53.3812240" lon="-9.9611900">
    <ele>14.3</ele>
    <time>2025-12-26T14:45:53Z</time>
   </trkpt>
   <trkpt lat="53.3812280" lon="-9.9610470">
    <ele>15.2</ele>
    <time>2025-12-26T14:45:58Z</time>
   </trkpt>
   <trkpt lat="53.3812390" lon="-9.9609290">
    <ele>15.7</ele>
    <time>2025-12-26T14:46:04Z</time>
   </trkpt>
   <trkpt lat="53.3812310" lon="-9.9608190">
    <ele>16.1</ele>
    <time>2025-12-26T14:46:09Z</time>
   </trkpt>
   <trkpt lat="53.3812220" lon="-9.9607450">
    <ele>16.1</ele>
    <time>2025-12-26T14:46:15Z</time>
   </trkpt>
   <trkpt lat="53.3812350" lon="-9.9606540">
    <ele>15.9</ele>
    <time>2025-12-26T14:46:20Z</time>
   </trkpt>
   <trkpt lat="53.3812480" lon="-9.9605510">
    <ele>16.1</ele>
    <time>2025-12-26T14:46:26Z</time>
   </trkpt>
   <trkpt lat="53.3812460" lon="-9.9604760">
    <ele>16.5</ele>
    <time>2025-12-26T14:46:32Z</time>
   </trkpt>
   <trkpt lat="53.3812210" lon="-9.9604000">
    <ele>17.3</ele>
    <time>2025-12-26T14:47:12Z</time>
   </trkpt>
   <trkpt lat="53.3811890" lon="-9.9602510">
    <ele>17.5</ele>
    <time>2025-12-26T14:47:17Z</time>
   </trkpt>
   <trkpt lat="53.3811550" lon="-9.9601620">
    <ele>17.3</ele>
    <time>2025-12-26T14:47:23Z</time>
   </trkpt>
   <trkpt lat="53.3811380" lon="-9.9600810">
    <ele>16.7</ele>
    <time>2025-12-26T14:47:28Z</time>
   </trkpt>
   <trkpt lat="53.3811030" lon="-9.9599980">
    <ele>16.8</ele>
    <time>2025-12-26T14:47:33Z</time>
   </trkpt>
   <trkpt lat="53.3810730" lon="-9.9599160">
    <ele>17.0</ele>
    <time>2025-12-26T14:47:38Z</time>
   </trkpt>
   <trkpt lat="53.3810330" lon="-9.9598290">
    <ele>16.7</ele>
    <time>2025-12-26T14:47:44Z</time>
   </trkpt>
   <trkpt lat="53.3810080" lon="-9.9597470">
    <ele>16.3</ele>
    <time>2025-12-26T14:47:49Z</time>
   </trkpt>
   <trkpt lat="53.3809870" lon="-9.9596380">
    <ele>16.1</ele>
    <time>2025-12-26T14:47:54Z</time>
   </trkpt>
   <trkpt lat="53.3809630" lon="-9.9595490">
    <ele>15.9</ele>
    <time>2025-12-26T14:48:00Z</time>
   </trkpt>
   <trkpt lat="53.3809480" lon="-9.9594650">
    <ele>16.2</ele>
    <time>2025-12-26T14:48:05Z</time>
   </trkpt>
   <trkpt lat="53.3809300" lon="-9.9593590">
    <ele>16.4</ele>
    <time>2025-12-26T14:48:10Z</time>
   </trkpt>
   <trkpt lat="53.3809010" lon="-9.9592710">
    <ele>16.1</ele>
    <time>2025-12-26T14:48:15Z</time>
   </trkpt>
   <trkpt lat="53.3808730" lon="-9.9592020">
    <ele>16.9</ele>
    <time>2025-12-26T14:48:28Z</time>
   </trkpt>
   <trkpt lat="53.3808530" lon="-9.9590760">
    <ele>17.7</ele>
    <time>2025-12-26T14:48:34Z</time>
   </trkpt>
   <trkpt lat="53.3808360" lon="-9.9589850">
    <ele>18.2</ele>
    <time>2025-12-26T14:48:39Z</time>
   </trkpt>
   <trkpt lat="53.3808150" lon="-9.9589080">
    <ele>18.2</ele>
    <time>2025-12-26T14:48:44Z</time>
   </trkpt>
   <trkpt lat="53.3807860" lon="-9.9588360">
    <ele>18.2</ele>
    <time>2025-12-26T14:48:50Z</time>
   </trkpt>
   <trkpt lat="53.3807520" lon="-9.9587830">
    <ele>18.1</ele>
    <time>2025-12-26T14:48:55Z</time>
   </trkpt>
   <trkpt lat="53.3807050" lon="-9.9587180">
    <ele>18.0</ele>
    <time>2025-12-26T14:49:00Z</time>
   </trkpt>
   <trkpt lat="53.3806690" lon="-9.9586460">
    <ele>18.1</ele>
    <time>2025-12-26T14:49:05Z</time>
   </trkpt>
   <trkpt lat="53.3806380" lon="-9.9585900">
    <ele>17.7</ele>
    <time>2025-12-26T14:49:12Z</time>
   </trkpt>
   <trkpt lat="53.3806120" lon="-9.9585270">
    <ele>16.6</ele>
    <time>2025-12-26T14:49:18Z</time>
   </trkpt>
   <trkpt lat="53.3805850" lon="-9.9584590">
    <ele>15.5</ele>
    <time>2025-12-26T14:49:23Z</time>
   </trkpt>
   <trkpt lat="53.3805400" lon="-9.9584170">
    <ele>14.8</ele>
    <time>2025-12-26T14:49:32Z</time>
   </trkpt>
   <trkpt lat="53.3804690" lon="-9.9583770">
    <ele>14.3</ele>
    <time>2025-12-26T14:49:38Z</time>
   </trkpt>
   <trkpt lat="53.3804120" lon="-9.9583280">
    <ele>13.4</ele>
    <time>2025-12-26T14:49:43Z</time>
   </trkpt>
   <trkpt lat="53.3803480" lon="-9.9582530">
    <ele>12.6</ele>
    <time>2025-12-26T14:49:48Z</time>
   </trkpt>
   <trkpt lat="53.3803160" lon="-9.9581900">
    <ele>12.5</ele>
    <time>2025-12-26T14:49:53Z</time>
   </trkpt>
   <trkpt lat="53.3802700" lon="-9.9581720">
    <ele>12.9</ele>
    <time>2025-12-26T14:49:59Z</time>
   </trkpt>
   <trkpt lat="53.3802210" lon="-9.9581330">
    <ele>12.5</ele>
    <time>2025-12-26T14:50:14Z</time>
   </trkpt>
   <trkpt lat="53.3801800" lon="-9.9580140">
    <ele>12.0</ele>
    <time>2025-12-26T14:50:19Z</time>
   </trkpt>
   <trkpt lat="53.3801270" lon="-9.9579310">
    <ele>11.8</ele>
    <time>2025-12-26T14:50:24Z</time>
   </trkpt>
   <trkpt lat="53.3800820" lon="-9.9578800">
    <ele>11.9</ele>
    <time>2025-12-26T14:50:30Z</time>
   </trkpt>
   <trkpt lat="53.3800360" lon="-9.9578500">
    <ele>11.7</ele>
    <time>2025-12-26T14:50:35Z</time>
   </trkpt>
   <trkpt lat="53.3800570" lon="-9.9577710">
    <ele>11.1</ele>
    <time>2025-12-26T14:50:55Z</time>
   </trkpt>
   <trkpt lat="53.3800780" lon="-9.9576210">
    <ele>11.0</ele>
    <time>2025-12-26T14:51:01Z</time>
   </trkpt>
   <trkpt lat="53.3800740" lon="-9.9575190">
    <ele>11.6</ele>
    <time>2025-12-26T14:51:06Z</time>
   </trkpt>
   <trkpt lat="53.3800720" lon="-9.9574000">
    <ele>11.9</ele>
    <time>2025-12-26T14:51:12Z</time>
   </trkpt>
   <trkpt lat="53.3800630" lon="-9.9572820">
    <ele>11.8</ele>
    <time>2025-12-26T14:51:17Z</time>
   </trkpt>
   <trkpt lat="53.3800830" lon="-9.9572140">
    <ele>11.1</ele>
    <time>2025-12-26T14:51:37Z</time>
   </trkpt>
   <trkpt lat="53.3801300" lon="-9.9572150">
    <ele>10.8</ele>
    <time>2025-12-26T14:51:42Z</time>
   </trkpt>
   <trkpt lat="53.3801590" lon="-9.9571470">
    <ele>10.0</ele>
    <time>2025-12-26T14:52:03Z</time>
   </trkpt>
   <trkpt lat="53.3801880" lon="-9.9570250">
    <ele>9.1</ele>
    <time>2025-12-26T14:52:08Z</time>
   </trkpt>
   <trkpt lat="53.3802160" lon="-9.9569630">
    <ele>8.3</ele>
    <time>2025-12-26T14:52:14Z</time>
   </trkpt>
   <trkpt lat="53.3802420" lon="-9.9568850">
    <ele>7.7</ele>
    <time>2025-12-26T14:52:19Z</time>
   </trkpt>
   <trkpt lat="53.3802990" lon="-9.9568110">
    <ele>7.0</ele>
    <time>2025-12-26T14:52:25Z</time>
   </trkpt>
   <trkpt lat="53.3803370" lon="-9.9567580">
    <ele>5.8</ele>
    <time>2025-12-26T14:52:30Z</time>
   </trkpt>
   <trkpt lat="53.3803060" lon="-9.9566830">
    <ele>4.3</ele>
    <time>2025-12-26T14:52:36Z</time>
   </trkpt>
   <trkpt lat="53.3802760" lon="-9.9565960">
    <ele>2.8</ele>
    <time>2025-12-26T14:52:41Z</time>
   </trkpt>
   <trkpt lat="53.3802560" lon="-9.9565260">
    <ele>1.9</ele>
    <time>2025-12-26T14:52:46Z</time>
   </trkpt>
   <trkpt lat="53.3802220" lon="-9.9564400">
    <ele>1.6</ele>
    <time>2025-12-26T14:52:52Z</time>
   </trkpt>
   <trkpt lat="53.3801980" lon="-9.9563330">
    <ele>1.3</ele>
    <time>2025-12-26T14:52:57Z</time>
   </trkpt>
   <trkpt lat="53.3802220" lon="-9.9562310">
    <ele>0.6</ele>
    <time>2025-12-26T14:53:03Z</time>
   </trkpt>
   <trkpt lat="53.3802540" lon="-9.9561440">
    <ele>0.4</ele>
    <time>2025-12-26T14:53:08Z</time>
   </trkpt>
   <trkpt lat="53.3802560" lon="-9.9560670">
    <ele>0.3</ele>
    <time>2025-12-26T14:53:14Z</time>
   </trkpt>
   <trkpt lat="53.3803070" lon="-9.9559970">
    <ele>0.4</ele>
    <time>2025-12-26T14:53:19Z</time>
   </trkpt>
   <trkpt lat="53.3803300" lon="-9.9559250">
    <ele>0.6</ele>
    <time>2025-12-26T14:53:25Z</time>
   </trkpt>
   <trkpt lat="53.3803640" lon="-9.9558540">
    <ele>0.3</ele>
    <time>2025-12-26T14:53:30Z</time>
   </trkpt>
   <trkpt lat="53.3803860" lon="-9.9557620">
    <ele>0.2</ele>
    <time>2025-12-26T14:53:36Z</time>
   </trkpt>
   <trkpt lat="53.3804230" lon="-9.9556840">
    <ele>0.0</ele>
    <time>2025-12-26T14:53:41Z</time>
   </trkpt>
   <trkpt lat="53.3804510" lon="-9.9555820">
    <ele>0.2</ele>
    <time>2025-12-26T14:53:47Z</time>
   </trkpt>
   <trkpt lat="53.3804850" lon="-9.9555130">
    <ele>0.3</ele>
    <time>2025-12-26T14:53:52Z</time>
   </trkpt>
   <trkpt lat="53.3805220" lon="-9.9554550">
    <ele>0.0</ele>
    <time>2025-12-26T14:53:58Z</time>
   </trkpt>
   <trkpt lat="53.3805560" lon="-9.9553840">
    <ele>0.0</ele>
    <time>2025-12-26T14:54:03Z</time>
   </trkpt>
   <trkpt lat="53.3805920" lon="-9.9553140">
    <ele>-0.1</ele>
    <time>2025-12-26T14:54:08Z</time>
   </trkpt>
   <trkpt lat="53.3806240" lon="-9.9552380">
    <ele>0.2</ele>
    <time>2025-12-26T14:54:13Z</time>
   </trkpt>
   <trkpt lat="53.3806560" lon="-9.9551760">
    <ele>0.6</ele>
    <time>2025-12-26T14:54:18Z</time>
   </trkpt>
   <trkpt lat="53.3806920" lon="-9.9551200">
    <ele>0.7</ele>
    <time>2025-12-26T14:54:23Z</time>
   </trkpt>
   <trkpt lat="53.3807240" lon="-9.9550460">
    <ele>0.6</ele>
    <time>2025-12-26T14:54:29Z</time>
   </trkpt>
   <trkpt lat="53.3807540" lon="-9.9549830">
    <ele>0.6</ele>
    <time>2025-12-26T14:54:35Z</time>
   </trkpt>
   <trkpt lat="53.3807790" lon="-9.9549130">
    <ele>0.9</ele>
    <time>2025-12-26T14:54:41Z</time>
   </trkpt>
   <trkpt lat="53.3808020" lon="-9.9548470">
    <ele>1.6</ele>
    <time>2025-12-26T14:54:47Z</time>
   </trkpt>
   <trkpt lat="53.3808410" lon="-9.9547740">
    <ele>1.6</ele>
    <time>2025-12-26T14:54:52Z</time>
   </trkpt>
   <trkpt lat="53.3808680" lon="-9.9546970">
    <ele>1.4</ele>
    <time>2025-12-26T14:55:04Z</time>
   </trkpt>
   <trkpt lat="53.3809150" lon="-9.9546150">
    <ele>1.6</ele>
    <time>2025-12-26T14:55:09Z</time>
   </trkpt>
   <trkpt lat="53.3809110" lon="-9.9545350">
    <ele>3.0</ele>
    <time>2025-12-26T14:55:23Z</time>
   </trkpt>
   <trkpt lat="53.3809010" lon="-9.9544380">
    <ele>3.8</ele>
    <time>2025-12-26T14:55:28Z</time>
   </trkpt>
   <trkpt lat="53.3808980" lon="-9.9543320">
    <ele>4.5</ele>
    <time>2025-12-26T14:55:34Z</time>
   </trkpt>
   <trkpt lat="53.3809160" lon="-9.9542450">
    <ele>4.8</ele>
    <time>2025-12-26T14:55:39Z</time>
   </trkpt>
   <trkpt lat="53.3809250" lon="-9.9541540">
    <ele>5.3</ele>
    <time>2025-12-26T14:55:44Z</time>
   </trkpt>
   <trkpt lat="53.3809540" lon="-9.9540410">
    <ele>5.5</ele>
    <time>2025-12-26T14:55:50Z</time>
   </trkpt>
   <trkpt lat="53.3809330" lon="-9.9539700">
    <ele>5.4</ele>
    <time>2025-12-26T14:55:58Z</time>
   </trkpt>
  </trkseg>
 </trk>
</gpx>
